Time,TemperatureF,DewpointF,PressureIn,WindDirection,WindDirectionDegrees,WindSpeedMPH,WindSpeedGustMPH,Humidity,HourlyPrecipIn,Conditions,Clouds,dailyrainin,SoftwareType,DateUTC
2013-02-25 00:00:00,32.1,29.2,29.94,NNE,24,0.0,0.0,89,0.00,,---,0.00,VWS V14.01,2013-02-25 05:00:00,
2013-02-25 00:01:00,32.0,28.9,29.94,North,350,5.2,5.2,88,0.00,,---,0.00,VWS V14.01,2013-02-25 05:01:00,
2013-02-25 00:02:00,32.1,29.2,29.94,NNE,24,0.0,0.0,89,0.00,,,0.00,VWS V14.01,2013-02-25 05:02:00,
2013-02-25 00:03:00,32.0,28.9,29.94,NW,325,0.0,0.0,88,0.00,,---,0.00,VWS V14.01,2013-02-25 05:03:00,
2013-02-25 00:04:00,32.1,29.0,29.94,NW,325,0.0,5.2,88,0.00,,,0.00,VWS V14.01,2013-02-25 05:04:00,
2013-02-25 00:05:00,31.9,28.8,29.94,NW,325,0.0,0.0,88,0.00,,,0.00,VWS V14.01,2013-02-25 05:05:00,
2013-02-25 00:06:00,32.0,29.0,29.94,NW,325,0.0,0.0,89,0.00,,,0.00,VWS V14.01,2013-02-25 05:06:00,
2013-02-25 00:07:00,32.0,29.0,29.94,NNE,25,4.6,6.2,89,0.00,,,0.00,VWS V14.01,2013-02-25 05:07:00,
2013-02-25 00:08:00,31.9,29.0,29.94,North,0,5.0,5.0,89,0.00,,---,0.00,VWS V14.01,2013-02-25 05:08:00,
2013-02-25 00:09:00,31.9,28.7,29.94,NW,323,0.0,3.4,88,0.00,,,0.00,VWS V14.01,2013-02-25 05:09:00,
2013-02-25 00:10:00,31.9,29.0,29.94,North,0,5.0,5.0,89,0.00,,,0.00,VWS V14.01,2013-02-25 05:10:00,
2013-02-25 00:11:00,31.9,28.7,29.94,West,259,0.0,5.2,88,0.00,,,0.00,VWS V14.01,2013-02-25 05:11:00,
2013-02-25 00:12:00,32.0,28.8,29.94,West,259,0.0,0.0,88,0.00,,,0.00,VWS V14.01,2013-02-25 05:12:00,
2013-02-25 00:13:00,32.0,28.4,29.95,North,359,3.4,5.1,86,0.00,,---,0.00,VWS V14.01,2013-02-25 05:13:00,
2013-02-25 00:14:00,32.0,28.5,29.94,NE,34,0.0,5.5,87,0.00,,,0.00,VWS V14.01,2013-02-25 05:14:00,
2013-02-25 00:15:00,32.0,28.4,29.94,North,359,3.4,5.1,86,0.00,,,0.00,VWS V14.01,2013-02-25 05:15:00,
2013-02-25 00:16:00,32.0,28.4,29.94,North,359,0.0,3.4,86,0.00,,,0.00,VWS V14.01,2013-02-25 05:16:00,
2013-02-25 00:17:00,31.9,28.3,29.94,North,359,0.0,0.0,86,0.00,,,0.00,VWS V14.01,2013-02-25 05:17:00,
2013-02-25 00:18:00,31.9,28.0,29.94,NE,53,0.0,5.0,85,0.00,,---,0.00,VWS V14.01,2013-02-25 05:18:00,
2013-02-25 00:19:00,31.9,28.0,29.94,North,356,4.6,7.5,85,0.00,,,0.00,VWS V14.01,2013-02-25 05:19:00,
2013-02-25 00:20:00,31.9,28.0,29.94,NE,53,0.0,5.0,85,0.00,,,0.00,VWS V14.01,2013-02-25 05:20:00,
2013-02-25 00:21:00,31.9,28.1,29.94,NNW,338,4.3,5.0,86,0.00,,,0.00,VWS V14.01,2013-02-25 05:21:00,
2013-02-25 00:22:00,31.8,28.1,29.94,NW,312,0.0,6.0,86,0.00,,,0.00,VWS V14.01,2013-02-25 05:22:00,
2013-02-25 00:23:00,31.9,28.1,29.95,North,3,0.0,0.0,86,0.00,,---,0.00,VWS V14.01,2013-02-25 05:23:00,
2013-02-25 00:24:00,31.9,28.1,29.94,North,3,0.0,4.3,86,0.00,,,0.00,VWS V14.01,2013-02-25 05:24:00,
2013-02-25 00:25:00,31.8,28.0,29.94,North,3,0.0,0.0,86,0.00,,,0.00,VWS V14.01,2013-02-25 05:25:00,
2013-02-25 00:26:00,31.8,28.0,29.94,NNE,25,4.8,6.0,86,0.00,,,0.00,VWS V14.01,2013-02-25 05:26:00,
2013-02-25 00:27:00,31.8,27.9,29.94,NNE,24,0.0,4.8,85,0.00,,,0.00,VWS V14.01,2013-02-25 05:27:00,
2013-02-25 00:28:00,31.6,27.6,29.95,WNW,295,0.0,3.4,85,0.00,,---,0.00,VWS V14.01,2013-02-25 05:28:00,
2013-02-25 00:29:00,31.7,27.9,29.94,NNE,24,0.0,2.2,86,0.00,,,0.00,VWS V14.01,2013-02-25 05:29:00,
2013-02-25 00:30:00,31.8,27.8,29.94,WNW,295,3.4,6.2,85,0.00,,,0.00,VWS V14.01,2013-02-25 05:30:00,
2013-02-25 00:31:00,31.8,27.9,29.94,NNE,18,3.4,5.5,85,0.00,,,0.00,VWS V14.01,2013-02-25 05:31:00,
2013-02-25 00:32:00,31.6,27.7,29.94,NNW,343,4.3,8.5,85,0.00,,,0.00,VWS V14.01,2013-02-25 05:32:00,
2013-02-25 00:33:00,31.7,27.7,29.95,NE,42,5.5,7.0,85,0.00,,---,0.00,VWS V14.01,2013-02-25 05:33:00,
2013-02-25 00:34:00,31.6,27.9,29.95,North,1,0.0,8.3,86,0.00,,,0.00,VWS V14.01,2013-02-25 05:34:00,
2013-02-25 00:35:00,31.5,27.6,29.95,NNE,14,7.0,7.7,85,0.00,,,0.00,VWS V14.01,2013-02-25 05:35:00,
2013-02-25 00:36:00,31.5,27.6,29.95,NW,311,2.7,7.0,85,0.00,,,0.00,VWS V14.01,2013-02-25 05:36:00,
2013-02-25 00:37:00,31.6,27.6,29.95,NNW,343,5.3,6.0,85,0.00,,,0.00,VWS V14.01,2013-02-25 05:37:00,
2013-02-25 00:38:00,31.5,27.6,29.95,NW,307,0.0,4.5,85,0.00,,---,0.00,VWS V14.01,2013-02-25 05:38:00,
2013-02-25 00:39:00,31.5,27.5,29.95,WNW,295,6.5,9.5,85,0.00,,,0.00,VWS V14.01,2013-02-25 05:39:00,
2013-02-25 00:40:00,31.6,27.6,29.95,NW,307,4.5,6.5,85,0.00,,,0.00,VWS V14.01,2013-02-25 05:40:00,
2013-02-25 00:41:00,31.5,27.7,29.95,NW,307,0.0,4.5,86,0.00,,,0.00,VWS V14.01,2013-02-25 05:41:00,
2013-02-25 00:42:00,31.5,27.8,29.95,NW,307,0.0,0.0,86,0.00,,,0.00,VWS V14.01,2013-02-25 05:42:00,
2013-02-25 00:43:00,31.5,27.4,29.95,NNW,343,3.1,5.8,85,0.00,,---,0.00,VWS V14.01,2013-02-25 05:43:00,
2013-02-25 00:44:00,31.5,27.5,29.95,NW,318,3.4,8.5,85,0.00,,,0.00,VWS V14.01,2013-02-25 05:44:00,
2013-02-25 00:45:00,31.5,27.5,29.95,NW,316,5.3,5.6,85,0.00,,,0.00,VWS V14.01,2013-02-25 05:45:00,
2013-02-25 00:46:00,31.4,27.4,29.96,West,270,0.0,5.8,85,0.00,,,0.00,VWS V14.01,2013-02-25 05:46:00,
2013-02-25 00:47:00,31.5,27.4,29.96,NE,35,4.5,9.5,84,0.00,,,0.00,VWS V14.01,2013-02-25 05:47:00,
2013-02-25 00:48:00,31.4,27.2,29.96,North,4,4.5,5.4,84,0.00,,---,0.00,VWS V14.01,2013-02-25 05:48:00,
2013-02-25 00:49:00,31.5,27.3,29.96,NNE,13,5.7,5.7,84,0.00,,,0.00,VWS V14.01,2013-02-25 05:49:00,
2013-02-25 00:50:00,31.5,27.4,29.96,North,359,4.7,7.0,85,0.00,,,0.00,VWS V14.01,2013-02-25 05:50:00,
2013-02-25 00:51:00,31.4,27.3,29.96,NW,325,0.0,5.4,84,0.00,,,0.00,VWS V14.01,2013-02-25 05:51:00,
2013-02-25 00:52:00,31.5,27.4,29.96,North,357,7.0,9.6,84,0.00,,,0.00,VWS V14.01,2013-02-25 05:52:00,
2013-02-25 00:53:00,31.3,27.1,29.96,NNW,340,2.9,3.1,84,0.00,,---,0.00,VWS V14.01,2013-02-25 05:53:00,
2013-02-25 00:54:00,31.3,27.3,29.96,NNW,333,8.0,9.9,85,0.00,,,0.00,VWS V14.01,2013-02-25 05:54:00,
2013-02-25 00:55:00,31.3,27.1,29.96,NNW,342,3.1,8.1,84,0.00,,,0.00,VWS V14.01,2013-02-25 05:55:00,
2013-02-25 00:56:00,31.3,27.2,29.96,NW,322,3.4,4.6,85,0.00,,,0.00,VWS V14.01,2013-02-25 05:56:00,
2013-02-25 00:57:00,31.3,27.3,29.96,NW,325,0.0,5.5,85,0.00,,,0.00,VWS V14.01,2013-02-25 05:57:00,
2013-02-25 00:58:00,31.3,27.3,29.96,NNW,328,0.0,0.0,85,0.00,,---,0.00,VWS V14.01,2013-02-25 05:58:00,
2013-02-25 00:59:00,31.3,27.3,29.96,NNW,328,0.0,0.0,85,0.00,,,0.00,VWS V14.01,2013-02-25 05:59:00,
2013-02-25 01:00:00,31.3,27.3,29.96,NNW,328,0.0,0.0,85,0.00,,,0.00,VWS V14.01,2013-02-25 06:00:00,
2013-02-25 01:01:00,31.3,27.4,29.96,NNW,328,0.0,0.0,85,0.00,,,0.00,VWS V14.01,2013-02-25 06:01:00,
2013-02-25 01:02:00,31.3,27.2,29.96,NNW,328,0.0,0.0,85,0.00,,,0.00,VWS V14.01,2013-02-25 06:02:00,
2013-02-25 01:03:00,31.4,27.7,29.96,West,269,0.0,0.0,86,0.00,,---,0.00,VWS V14.01,2013-02-25 06:03:00,
2013-02-25 01:04:00,31.4,27.5,29.96,West,269,0.0,3.3,85,0.00,,,0.00,VWS V14.01,2013-02-25 06:04:00,
2013-02-25 01:05:00,31.4,27.6,29.96,West,269,0.0,0.0,86,0.00,,,0.00,VWS V14.01,2013-02-25 06:05:00,
2013-02-25 01:06:00,31.3,27.5,29.97,NNW,345,0.0,5.9,86,0.00,,,0.00,VWS V14.01,2013-02-25 06:06:00,
2013-02-25 01:07:00,31.5,27.7,29.97,NNW,345,0.0,0.0,86,0.00,,,0.00,VWS V14.01,2013-02-25 06:07:00,
2013-02-25 01:08:00,31.4,27.5,29.96,North,7,2.9,4.6,85,0.00,,---,0.00,VWS V14.01,2013-02-25 06:08:00,
2013-02-25 01:09:00,31.2,27.2,29.97,NNE,20,0.0,5.8,85,0.00,,,0.00,VWS V14.01,2013-02-25 06:09:00,
2013-02-25 01:10:00,31.3,27.4,29.96,North,359,4.6,4.9,85,0.00,,,0.00,VWS V14.01,2013-02-25 06:10:00,
2013-02-25 01:11:00,31.3,27.1,29.96,NW,311,3.3,5.5,84,0.00,,,0.00,VWS V14.01,2013-02-25 06:11:00,
2013-02-25 01:12:00,31.3,27.1,29.96,WNW,300,0.0,3.3,84,0.00,,,0.00,VWS V14.01,2013-02-25 06:12:00,
2013-02-25 01:13:00,31.2,27.2,29.97,WNW,300,0.0,0.0,85,0.00,,---,0.00,VWS V14.01,2013-02-25 06:13:00,
2013-02-25 01:14:00,31.3,27.2,29.97,WNW,300,0.0,0.0,85,0.00,,,0.00,VWS V14.01,2013-02-25 06:14:00,
2013-02-25 01:15:00,31.2,27.2,29.97,WNW,300,0.0,0.0,85,0.00,,,0.00,VWS V14.01,2013-02-25 06:15:00,
2013-02-25 01:16:00,31.3,27.3,29.97,WNW,300,0.0,0.0,85,0.00,,,0.00,VWS V14.01,2013-02-25 06:16:00,
2013-02-25 01:17:00,31.4,27.5,29.97,WNW,300,0.0,0.0,85,0.00,,,0.00,VWS V14.01,2013-02-25 06:17:00,
2013-02-25 01:18:00,31.3,27.4,29.97,WNW,300,0.0,0.0,85,0.00,,---,0.00,VWS V14.01,2013-02-25 06:18:00,
2013-02-25 01:19:00,31.4,27.4,29.97,WNW,300,0.0,0.0,85,0.00,,,0.00,VWS V14.01,2013-02-25 06:19:00,
2013-02-25 01:20:00,31.4,27.4,29.97,WNW,300,0.0,0.0,85,0.00,,,0.00,VWS V14.01,2013-02-25 06:20:00,
2013-02-25 01:21:00,31.3,27.5,29.97,WNW,300,0.0,0.0,86,0.00,,,0.00,VWS V14.01,2013-02-25 06:21:00,
2013-02-25 01:22:00,31.2,27.3,29.97,WNW,300,0.0,0.0,85,0.00,,,0.00,VWS V14.01,2013-02-25 06:22:00,
2013-02-25 01:23:00,31.3,27.3,29.97,NW,304,0.0,0.0,85,0.00,,---,0.00,VWS V14.01,2013-02-25 06:23:00,
2013-02-25 01:24:00,31.4,27.5,29.97,WNW,300,0.0,0.0,85,0.00,,,0.00,VWS V14.01,2013-02-25 06:24:00,
2013-02-25 01:25:00,31.3,27.3,29.97,NW,304,0.0,3.4,85,0.00,,,0.00,VWS V14.01,2013-02-25 06:25:00,
2013-02-25 01:26:00,31.3,27.4,29.97,NW,304,0.0,0.0,85,0.00,,,0.00,VWS V14.01,2013-02-25 06:26:00,
2013-02-25 01:27:00,31.2,27.3,29.97,NW,322,0.0,8.2,85,0.00,,,0.00,VWS V14.01,2013-02-25 06:27:00,
2013-02-25 01:28:00,31.2,27.2,29.97,North,7,5.5,5.5,85,0.00,,---,0.00,VWS V14.01,2013-02-25 06:28:00,
2013-02-25 01:29:00,31.2,27.3,29.97,NW,322,0.0,0.0,85,0.00,,,0.00,VWS V14.01,2013-02-25 06:29:00,
2013-02-25 01:30:00,31.2,27.2,29.97,NNE,15,3.4,6.6,85,0.00,,,0.00,VWS V14.01,2013-02-25 06:30:00,
2013-02-25 01:31:00,31.1,27.0,29.97,NNE,27,3.5,6.3,84,0.00,,,0.00,VWS V14.01,2013-02-25 06:31:00,
2013-02-25 01:32:00,31.1,27.1,29.97,NNW,340,2.9,4.9,85,0.00,,,0.00,VWS V14.01,2013-02-25 06:32:00,
2013-02-25 01:33:00,31.0,27.0,29.97,NNE,30,0.0,0.0,85,0.00,,---,0.00,VWS V14.01,2013-02-25 06:33:00,
2013-02-25 01:34:00,31.1,27.2,29.97,North,359,4.1,4.1,85,0.00,,,0.00,VWS V14.01,2013-02-25 06:34:00,
2013-02-25 01:35:00,31.1,27.2,29.97,NNE,30,0.0,6.1,85,0.00,,,0.00,VWS V14.01,2013-02-25 06:35:00,
2013-02-25 01:36:00,31.0,27.1,29.97,NNE,30,0.0,0.0,85,0.00,,,0.00,VWS V14.01,2013-02-25 06:36:00,
2013-02-25 01:37:00,31.1,27.2,29.97,NNE,30,0.0,0.0,85,0.00,,,0.00,VWS V14.01,2013-02-25 06:37:00,
2013-02-25 01:38:00,31.0,27.2,29.97,North,350,6.6,8.7,86,0.00,,---,0.00,VWS V14.01,2013-02-25 06:38:00,
2013-02-25 01:39:00,31.0,27.1,29.97,NNW,339,0.0,0.0,85,0.00,,,0.00,VWS V14.01,2013-02-25 06:39:00,
2013-02-25 01:40:00,31.0,27.2,29.97,NNW,339,0.0,0.0,86,0.00,,,0.00,VWS V14.01,2013-02-25 06:40:00,
2013-02-25 01:41:00,30.9,26.9,29.97,NW,326,2.5,8.7,85,0.00,,,0.00,VWS V14.01,2013-02-25 06:41:00,
2013-02-25 01:42:00,30.9,27.0,29.97,WNW,295,0.0,4.9,85,0.00,,,0.00,VWS V14.01,2013-02-25 06:42:00,
2013-02-25 01:43:00,30.8,27.0,29.97,NNW,335,4.3,4.8,86,0.00,,---,0.00,VWS V14.01,2013-02-25 06:43:00,
2013-02-25 01:44:00,30.9,26.9,29.97,NNW,338,4.3,8.1,85,0.00,,,0.00,VWS V14.01,2013-02-25 06:44:00,
2013-02-25 01:45:00,30.7,26.8,29.97,North,359,3.0,5.3,85,0.00,,,0.00,VWS V14.01,2013-02-25 06:45:00,
2013-02-25 01:46:00,30.9,27.0,29.97,North,6,6.1,6.1,85,0.00,,,0.00,VWS V14.01,2013-02-25 06:46:00,
2013-02-25 01:47:00,30.8,26.8,29.97,North,4,3.5,6.6,85,0.00,,,0.00,VWS V14.01,2013-02-25 06:47:00,
2013-02-25 01:48:00,30.8,26.8,29.97,ENE,66,3.0,5.6,85,0.00,,---,0.00,VWS V14.01,2013-02-25 06:48:00,
2013-02-25 01:49:00,30.8,26.8,29.97,North,354,7.1,10.1,85,0.00,,,0.00,VWS V14.01,2013-02-25 06:49:00,
2013-02-25 01:50:00,30.7,26.6,29.97,North,349,5.5,7.1,84,0.00,,,0.00,VWS V14.01,2013-02-25 06:50:00,
2013-02-25 01:51:00,30.7,26.8,29.97,East,87,0.0,5.6,85,0.00,,,0.00,VWS V14.01,2013-02-25 06:51:00,
2013-02-25 01:52:00,30.7,26.7,29.97,East,87,0.0,0.0,85,0.00,,,0.00,VWS V14.01,2013-02-25 06:52:00,
2013-02-25 01:53:00,30.7,26.6,29.97,North,11,5.6,6.7,84,0.00,,,0.00,VWS V14.01,2013-02-25 06:53:00,
2013-02-25 01:54:00,30.7,26.6,29.97,NE,39,1.9,5.7,85,0.00,,---,0.00,VWS V14.01,2013-02-25 06:54:00,
2013-02-25 01:55:00,30.7,26.6,29.97,North,353,5.6,8.5,85,0.00,,,0.00,VWS V14.01,2013-02-25 06:55:00,
2013-02-25 01:56:00,30.7,26.7,29.97,NE,39,0.0,5.7,85,0.00,,,0.00,VWS V14.01,2013-02-25 06:56:00,
2013-02-25 01:57:00,30.7,26.7,29.97,NNW,330,4.6,4.6,85,0.00,,,0.00,VWS V14.01,2013-02-25 06:57:00,
2013-02-25 01:58:00,30.7,26.8,29.97,WNW,285,0.0,5.2,85,0.00,,,0.00,VWS V14.01,2013-02-25 06:58:00,
2013-02-25 01:59:00,30.6,26.5,29.97,North,6,4.3,8.4,84,0.00,,---,0.00,VWS V14.01,2013-02-25 06:59:00,
2013-02-25 02:00:00,30.7,26.6,29.97,NNE,30,0.0,0.0,85,0.00,,,0.00,VWS V14.01,2013-02-25 07:00:00,
2013-02-25 02:01:00,30.6,26.4,29.97,North,8,3.4,8.4,84,0.00,,,0.00,VWS V14.01,2013-02-25 07:01:00,
2013-02-25 02:02:00,30.7,26.6,29.97,North,0,3.2,3.5,84,0.00,,,0.00,VWS V14.01,2013-02-25 07:02:00,
2013-02-25 02:03:00,30.6,26.6,29.97,WNW,292,2.9,4.6,85,0.00,,,0.00,VWS V14.01,2013-02-25 07:03:00,
2013-02-25 02:04:00,30.6,26.4,29.97,NNE,27,7.1,15.9,84,0.00,,---,0.00,VWS V14.01,2013-02-25 07:04:00,
2013-02-25 02:05:00,30.6,26.3,29.97,North,10,14.3,14.7,84,0.00,,,0.00,VWS V14.01,2013-02-25 07:05:00,
2013-02-25 02:06:00,30.6,26.2,29.97,NNW,335,6.0,15.9,84,0.00,,,0.00,VWS V14.01,2013-02-25 07:06:00,
2013-02-25 02:07:00,30.7,26.4,29.97,NNW,343,6.5,7.4,84,0.00,,,0.00,VWS V14.01,2013-02-25 07:07:00,
2013-02-25 02:08:00,30.8,26.3,29.98,North,4,5.6,7.8,83,0.00,,,0.00,VWS V14.01,2013-02-25 07:08:00,
2013-02-25 02:09:00,30.5,26.1,29.97,NNE,28,6.6,8.7,84,0.00,,---,0.00,VWS V14.01,2013-02-25 07:09:00,
2013-02-25 02:10:00,30.6,26.3,29.98,North,353,8.7,9.0,84,0.00,,,0.00,VWS V14.01,2013-02-25 07:10:00,
2013-02-25 02:11:00,30.7,26.2,29.98,North,8,6.8,8.7,83,0.00,,,0.00,VWS V14.01,2013-02-25 07:11:00,
2013-02-25 02:12:00,30.6,26.2,29.98,NNW,342,3.5,7.4,84,0.00,,,0.00,VWS V14.01,2013-02-25 07:12:00,
2013-02-25 02:13:00,30.8,26.5,29.98,North,6,0.0,4.5,84,0.00,,,0.00,VWS V14.01,2013-02-25 07:13:00,
2013-02-25 02:14:00,30.7,26.3,29.97,North,359,3.4,8.8,83,0.00,,---,0.00,VWS V14.01,2013-02-25 07:14:00,
2013-02-25 02:15:00,30.7,26.4,29.97,North,349,6.2,6.2,84,0.00,,,0.00,VWS V14.01,2013-02-25 07:15:00,
2013-02-25 02:16:00,30.7,26.3,29.98,North,0,3.3,8.8,83,0.00,,,0.00,VWS V14.01,2013-02-25 07:16:00,
2013-02-25 02:17:00,30.7,26.4,29.97,North,0,0.0,3.4,84,0.00,,,0.00,VWS V14.01,2013-02-25 07:17:00,
2013-02-25 02:18:00,30.7,26.2,29.98,North,3,5.5,9.5,83,0.00,,,0.00,VWS V14.01,2013-02-25 07:18:00,
2013-02-25 02:19:00,30.7,26.2,29.97,NNW,330,3.0,7.7,83,0.00,,---,0.00,VWS V14.01,2013-02-25 07:19:00,
2013-02-25 02:20:00,30.7,26.3,29.97,NNE,22,4.5,9.1,83,0.00,,,0.00,VWS V14.01,2013-02-25 07:20:00,
2013-02-25 02:21:00,30.7,26.3,29.98,North,359,3.5,7.7,83,0.00,,,0.00,VWS V14.01,2013-02-25 07:21:00,
2013-02-25 02:22:00,30.6,26.2,29.97,North,359,0.0,3.5,83,0.00,,,0.00,VWS V14.01,2013-02-25 07:22:00,
2013-02-25 02:23:00,30.6,26.2,29.97,North,359,0.0,0.0,84,0.00,,,0.00,VWS V14.01,2013-02-25 07:23:00,
2013-02-25 02:24:00,30.6,26.0,29.97,North,359,5.5,8.5,83,0.00,,---,0.00,VWS V14.01,2013-02-25 07:24:00,
2013-02-25 02:25:00,30.7,26.2,29.97,NW,321,5.8,6.6,83,0.00,,,0.00,VWS V14.01,2013-02-25 07:25:00,
2013-02-25 02:26:00,30.4,25.8,29.97,NNW,347,6.2,8.5,83,0.00,,,0.00,VWS V14.01,2013-02-25 07:26:00,
2013-02-25 02:27:00,30.7,26.2,29.97,North,11,0.0,8.1,83,0.00,,,0.00,VWS V14.01,2013-02-25 07:27:00,
2013-02-25 02:28:00,30.7,26.2,29.97,North,8,3.4,6.6,83,0.00,,,0.00,VWS V14.01,2013-02-25 07:28:00,
2013-02-25 02:29:00,30.7,26.3,29.97,NE,46,0.0,0.0,83,0.00,,---,0.00,VWS V14.01,2013-02-25 07:29:00,
2013-02-25 02:30:00,30.8,26.3,29.97,NE,46,0.0,7.0,83,0.00,,,0.00,VWS V14.01,2013-02-25 07:30:00,
2013-02-25 02:31:00,30.7,26.2,29.97,NW,318,4.7,5.4,83,0.00,,,0.00,VWS V14.01,2013-02-25 07:31:00,
2013-02-25 02:32:00,30.7,26.1,29.97,NW,305,0.0,4.9,83,0.00,,,0.00,VWS V14.01,2013-02-25 07:32:00,
2013-02-25 02:33:00,30.7,26.0,29.98,NW,305,0.0,0.0,82,0.00,,,0.00,VWS V14.01,2013-02-25 07:33:00,
2013-02-25 02:34:00,30.7,26.0,29.97,North,352,0.0,4.6,83,0.00,,---,0.00,VWS V14.01,2013-02-25 07:34:00,
2013-02-25 02:35:00,30.7,25.9,29.98,NNW,332,4.3,9.3,82,0.00,,,0.00,VWS V14.01,2013-02-25 07:35:00,
2013-02-25 02:36:00,30.6,25.9,29.98,North,352,0.0,4.6,83,0.00,,,0.00,VWS V14.01,2013-02-25 07:36:00,
2013-02-25 02:37:00,30.8,26.0,29.98,NNE,18,0.0,7.3,82,0.00,,,0.00,VWS V14.01,2013-02-25 07:37:00,
2013-02-25 02:38:00,30.8,26.1,29.98,NNE,18,0.0,0.0,82,0.00,,,0.00,VWS V14.01,2013-02-25 07:38:00,
2013-02-25 02:39:00,30.8,26.0,29.98,NW,304,5.3,7.5,82,0.00,,---,0.00,VWS V14.01,2013-02-25 07:39:00,
2013-02-25 02:40:00,30.8,26.1,29.98,NNW,346,2.4,4.5,82,0.00,,,0.00,VWS V14.01,2013-02-25 07:40:00,
2013-02-25 02:41:00,30.8,26.0,29.98,NW,319,3.4,7.5,82,0.00,,,0.00,VWS V14.01,2013-02-25 07:41:00,
2013-02-25 02:42:00,30.7,26.0,29.98,NNW,329,0.0,3.4,82,0.00,,,0.00,VWS V14.01,2013-02-25 07:42:00,
2013-02-25 02:43:00,30.7,26.0,29.98,NNW,329,0.0,0.0,82,0.00,,,0.00,VWS V14.01,2013-02-25 07:43:00,
2013-02-25 02:44:00,30.9,26.1,29.98,NNW,329,0.0,0.0,82,0.00,,---,0.00,VWS V14.01,2013-02-25 07:44:00,
2013-02-25 02:45:00,30.8,26.0,29.98,NNW,329,0.0,0.0,82,0.00,,,0.00,VWS V14.01,2013-02-25 07:45:00,
2013-02-25 02:46:00,30.9,26.1,29.98,NNW,329,0.0,0.0,82,0.00,,,0.00,VWS V14.01,2013-02-25 07:46:00,
2013-02-25 02:47:00,30.8,26.1,29.98,NNW,329,0.0,0.0,82,0.00,,,0.00,VWS V14.01,2013-02-25 07:47:00,
2013-02-25 02:48:00,30.8,25.8,29.98,NNW,329,0.0,0.0,82,0.00,,,0.00,VWS V14.01,2013-02-25 07:48:00,
2013-02-25 02:49:00,30.8,25.9,29.98,North,359,0.0,0.0,82,0.00,,---,0.00,VWS V14.01,2013-02-25 07:49:00,
2013-02-25 02:50:00,30.9,26.1,29.98,North,359,0.0,0.0,82,0.00,,,0.00,VWS V14.01,2013-02-25 07:50:00,
2013-02-25 02:51:00,30.9,26.1,29.98,North,359,0.0,0.0,82,0.00,,,0.00,VWS V14.01,2013-02-25 07:51:00,
2013-02-25 02:52:00,30.7,26.0,29.98,North,359,0.0,0.0,83,0.00,,,0.00,VWS V14.01,2013-02-25 07:52:00,
2013-02-25 02:53:00,30.8,26.2,29.98,North,359,0.0,0.0,83,0.00,,,0.00,VWS V14.01,2013-02-25 07:53:00,
2013-02-25 02:54:00,30.7,26.0,29.98,NNE,13,7.4,7.4,83,0.00,,---,0.00,VWS V14.01,2013-02-25 07:54:00,
2013-02-25 02:55:00,30.8,26.0,29.98,North,359,0.0,0.0,82,0.00,,,0.00,VWS V14.01,2013-02-25 07:55:00,
2013-02-25 02:56:00,30.8,26.1,29.98,NE,44,4.7,7.5,82,0.00,,,0.00,VWS V14.01,2013-02-25 07:56:00,
2013-02-25 02:57:00,30.8,26.0,29.98,NE,46,0.0,4.7,82,0.00,,,0.00,VWS V14.01,2013-02-25 07:57:00,
2013-02-25 02:58:00,30.8,26.0,29.98,NE,46,3.0,3.0,82,0.00,,,0.00,VWS V14.01,2013-02-25 07:58:00,
2013-02-25 02:59:00,30.7,26.1,29.98,North,359,0.0,0.0,83,0.00,,---,0.00,VWS V14.01,2013-02-25 07:59:00,
2013-02-25 03:00:00,30.8,26.1,29.98,North,359,0.0,0.0,82,0.00,,,0.00,VWS V14.01,2013-02-25 08:00:00,
2013-02-25 03:01:00,30.7,26.1,29.98,North,359,0.0,0.0,83,0.00,,,0.00,VWS V14.01,2013-02-25 08:01:00,
2013-02-25 03:02:00,30.8,26.2,29.98,North,359,0.0,0.0,83,0.00,,,0.00,VWS V14.01,2013-02-25 08:02:00,
2013-02-25 03:03:00,30.8,26.0,29.98,North,0,0.0,2.9,82,0.00,,,0.00,VWS V14.01,2013-02-25 08:03:00,
2013-02-25 03:04:00,30.7,26.0,29.98,NW,314,0.0,0.0,82,0.00,,---,0.00,VWS V14.01,2013-02-25 08:04:00,
2013-02-25 03:05:00,30.8,26.0,29.98,NW,314,0.0,0.0,82,0.00,,,0.00,VWS V14.01,2013-02-25 08:05:00,
2013-02-25 03:06:00,30.8,26.1,29.98,NW,314,0.0,0.0,82,0.00,,,0.00,VWS V14.01,2013-02-25 08:06:00,
2013-02-25 03:07:00,30.7,26.1,29.98,NW,314,0.0,0.0,83,0.00,,,0.00,VWS V14.01,2013-02-25 08:07:00,
2013-02-25 03:08:00,30.8,26.1,29.98,NW,319,4.4,6.6,83,0.00,,,0.00,VWS V14.01,2013-02-25 08:08:00,
2013-02-25 03:09:00,30.8,26.0,29.98,WNW,284,0.0,0.0,82,0.00,,---,0.00,VWS V14.01,2013-02-25 08:09:00,
2013-02-25 03:10:00,30.7,25.9,29.98,WNW,284,0.0,0.0,82,0.00,,,0.00,VWS V14.01,2013-02-25 08:10:00,
2013-02-25 03:11:00,30.8,26.0,29.98,WNW,284,0.0,0.0,82,0.00,,,0.00,VWS V14.01,2013-02-25 08:11:00,
2013-02-25 03:12:00,30.8,26.1,29.98,WNW,284,0.0,0.0,83,0.00,,,0.00,VWS V14.01,2013-02-25 08:12:00,
2013-02-25 03:13:00,30.7,26.1,29.98,WNW,284,0.0,0.0,83,0.00,,,0.00,VWS V14.01,2013-02-25 08:13:00,
2013-02-25 03:14:00,30.8,26.0,29.98,WNW,284,0.0,0.0,82,0.00,,---,0.00,VWS V14.01,2013-02-25 08:14:00,
2013-02-25 03:15:00,30.8,26.0,29.98,WNW,284,0.0,0.0,82,0.00,,,0.00,VWS V14.01,2013-02-25 08:15:00,
2013-02-25 03:16:00,30.6,25.8,29.98,WNW,284,0.0,0.0,82,0.00,,,0.00,VWS V14.01,2013-02-25 08:16:00,
2013-02-25 03:17:00,30.7,25.9,29.98,WNW,284,0.0,0.0,82,0.00,,,0.00,VWS V14.01,2013-02-25 08:17:00,
2013-02-25 03:18:00,30.8,26.0,29.98,WNW,284,0.0,0.0,82,0.00,,,0.00,VWS V14.01,2013-02-25 08:18:00,
2013-02-25 03:19:00,30.7,26.1,29.99,WNW,284,0.0,0.0,83,0.00,,---,0.00,VWS V14.01,2013-02-25 08:19:00,
2013-02-25 03:20:00,30.7,26.0,29.98,WNW,284,0.0,0.0,83,0.00,,,0.00,VWS V14.01,2013-02-25 08:20:00,
2013-02-25 03:21:00,30.7,26.1,29.99,WNW,284,0.0,0.0,83,0.00,,,0.00,VWS V14.01,2013-02-25 08:21:00,
2013-02-25 03:22:00,30.8,26.2,29.98,WNW,284,0.0,0.0,83,0.00,,,0.00,VWS V14.01,2013-02-25 08:22:00,
2013-02-25 03:23:00,30.6,26.0,29.98,WNW,284,0.0,0.0,83,0.00,,,0.00,VWS V14.01,2013-02-25 08:23:00,
2013-02-25 03:24:00,30.7,26.1,29.98,WNW,284,0.0,0.0,83,0.00,,---,0.00,VWS V14.01,2013-02-25 08:24:00,
2013-02-25 03:25:00,30.6,25.9,29.98,WNW,284,0.0,0.0,83,0.00,,,0.00,VWS V14.01,2013-02-25 08:25:00,
2013-02-25 03:26:00,30.6,26.0,29.98,WNW,284,0.0,0.0,83,0.00,,,0.00,VWS V14.01,2013-02-25 08:26:00,
2013-02-25 03:27:00,30.7,26.0,29.98,WNW,284,0.0,0.0,82,0.00,,,0.00,VWS V14.01,2013-02-25 08:27:00,
2013-02-25 03:28:00,30.6,26.0,29.99,West,278,0.0,3.2,83,0.00,,,0.00,VWS V14.01,2013-02-25 08:28:00,
2013-02-25 03:29:00,30.7,26.1,29.99,West,278,0.0,0.0,83,0.00,,---,0.00,VWS V14.01,2013-02-25 08:29:00,
2013-02-25 03:30:00,30.6,26.0,29.99,West,278,0.0,0.0,83,0.00,,,0.00,VWS V14.01,2013-02-25 08:30:00,
2013-02-25 03:31:00,30.7,26.0,29.99,West,278,0.0,0.0,83,0.00,,,0.00,VWS V14.01,2013-02-25 08:31:00,
2013-02-25 03:32:00,30.7,26.0,29.99,West,278,0.0,0.0,83,0.00,,,0.00,VWS V14.01,2013-02-25 08:32:00,
2013-02-25 03:33:00,30.5,25.9,29.99,West,278,0.0,0.0,83,0.00,,,0.00,VWS V14.01,2013-02-25 08:33:00,
2013-02-25 03:34:00,30.5,25.9,29.99,West,278,0.0,0.0,83,0.00,,---,0.00,VWS V14.01,2013-02-25 08:34:00,
2013-02-25 03:35:00,30.5,26.0,29.99,West,278,0.0,0.0,83,0.00,,,0.00,VWS V14.01,2013-02-25 08:35:00,
2013-02-25 03:36:00,30.6,26.0,29.99,West,278,0.0,0.0,83,0.00,,,0.00,VWS V14.01,2013-02-25 08:36:00,
2013-02-25 03:37:00,30.6,26.1,29.99,West,278,0.0,0.0,83,0.00,,,0.00,VWS V14.01,2013-02-25 08:37:00,
2013-02-25 03:38:00,30.5,26.0,29.99,West,278,0.0,0.0,83,0.00,,,0.00,VWS V14.01,2013-02-25 08:38:00,
2013-02-25 03:39:00,30.5,26.1,29.99,West,278,0.0,0.0,84,0.00,,---,0.00,VWS V14.01,2013-02-25 08:39:00,
2013-02-25 03:40:00,30.4,26.0,29.99,West,278,0.0,0.0,84,0.00,,,0.00,VWS V14.01,2013-02-25 08:40:00,
2013-02-25 03:41:00,30.5,26.1,29.99,West,278,0.0,0.0,84,0.00,,,0.00,VWS V14.01,2013-02-25 08:41:00,
2013-02-25 03:42:00,30.4,26.0,30.00,West,278,0.0,0.0,83,0.00,,,0.00,VWS V14.01,2013-02-25 08:42:00,
2013-02-25 03:43:00,30.4,26.0,30.00,West,278,0.0,0.0,83,0.00,,,0.00,VWS V14.01,2013-02-25 08:43:00,
2013-02-25 03:44:00,30.4,26.2,30.00,West,278,0.0,0.0,84,0.00,,---,0.00,VWS V14.01,2013-02-25 08:44:00,
2013-02-25 03:45:00,30.4,26.0,30.00,West,278,0.0,0.0,84,0.00,,,0.00,VWS V14.01,2013-02-25 08:45:00,
2013-02-25 03:46:00,30.4,26.2,30.00,West,278,0.0,0.0,84,0.00,,,0.00,VWS V14.01,2013-02-25 08:46:00,
2013-02-25 03:47:00,30.2,25.8,30.00,NNW,332,5.8,8.2,84,0.00,,,0.00,VWS V14.01,2013-02-25 08:47:00,
2013-02-25 03:48:00,30.3,26.0,30.00,NNW,342,0.0,6.5,84,0.00,,,0.00,VWS V14.01,2013-02-25 08:48:00,
2013-02-25 03:49:00,30.4,26.1,30.00,NNW,335,0.0,0.0,84,0.00,,---,0.00,VWS V14.01,2013-02-25 08:49:00,
2013-02-25 03:50:00,30.3,26.0,30.00,NNW,335,0.0,0.0,84,0.00,,,0.00,VWS V14.01,2013-02-25 08:50:00,
2013-02-25 03:51:00,30.4,26.1,30.00,NNW,335,0.0,0.0,84,0.00,,,0.00,VWS V14.01,2013-02-25 08:51:00,
2013-02-25 03:52:00,30.4,26.3,30.00,NNW,335,0.0,0.0,84,0.00,,,0.00,VWS V14.01,2013-02-25 08:52:00,
2013-02-25 03:53:00,30.4,26.2,30.00,NNW,335,0.0,0.0,84,0.00,,,0.00,VWS V14.01,2013-02-25 08:53:00,
2013-02-25 03:54:00,30.3,26.1,30.00,NNW,335,0.0,0.0,84,0.00,,---,0.00,VWS V14.01,2013-02-25 08:54:00,
2013-02-25 03:55:00,30.3,26.1,30.00,NNW,335,0.0,0.0,84,0.00,,,0.00,VWS V14.01,2013-02-25 08:55:00,
2013-02-25 03:56:00,30.3,26.1,30.00,NNW,335,0.0,0.0,84,0.00,,,0.00,VWS V14.01,2013-02-25 08:56:00,
2013-02-25 03:57:00,30.3,26.0,30.00,NNW,335,0.0,0.0,84,0.00,,,0.00,VWS V14.01,2013-02-25 08:57:00,
2013-02-25 03:58:00,30.4,26.1,30.00,NNW,335,0.0,0.0,84,0.00,,,0.00,VWS V14.01,2013-02-25 08:58:00,
2013-02-25 03:59:00,30.3,26.2,30.01,NNW,335,0.0,0.0,84,0.00,,---,0.00,VWS V14.01,2013-02-25 08:59:00,
2013-02-25 04:00:00,30.3,26.2,30.01,NNW,335,0.0,0.0,84,0.00,,,0.00,VWS V14.01,2013-02-25 09:00:00,
2013-02-25 04:01:00,30.3,26.2,30.01,NNW,335,0.0,0.0,84,0.00,,,0.00,VWS V14.01,2013-02-25 09:01:00,
2013-02-25 04:02:00,30.3,26.1,30.01,NNW,335,0.0,0.0,84,0.00,,,0.00,VWS V14.01,2013-02-25 09:02:00,
2013-02-25 04:03:00,30.2,26.0,30.01,NNW,335,0.0,0.0,84,0.00,,,0.00,VWS V14.01,2013-02-25 09:03:00,
2013-02-25 04:04:00,30.3,26.2,30.01,NNW,335,0.0,0.0,84,0.00,,---,0.00,VWS V14.01,2013-02-25 09:04:00,
2013-02-25 04:05:00,30.2,26.1,30.01,NNW,335,0.0,0.0,84,0.00,,,0.00,VWS V14.01,2013-02-25 09:05:00,
2013-02-25 04:06:00,30.2,26.1,30.01,NNW,335,0.0,0.0,84,0.00,,,0.00,VWS V14.01,2013-02-25 09:06:00,
2013-02-25 04:07:00,30.3,26.2,30.01,NNW,335,0.0,0.0,84,0.00,,,0.00,VWS V14.01,2013-02-25 09:07:00,
2013-02-25 04:08:00,30.3,26.1,30.01,NNW,335,0.0,0.0,84,0.00,,,0.00,VWS V14.01,2013-02-25 09:08:00,
2013-02-25 04:09:00,30.3,26.1,30.01,NW,311,0.0,0.0,84,0.00,,---,0.00,VWS V14.01,2013-02-25 09:09:00,
2013-02-25 04:10:00,30.2,26.0,30.01,NW,311,0.0,4.3,84,0.00,,,0.00,VWS V14.01,2013-02-25 09:10:00,
2013-02-25 04:11:00,30.1,25.9,30.01,NW,311,0.0,0.0,84,0.00,,,0.00,VWS V14.01,2013-02-25 09:11:00,
2013-02-25 04:12:00,30.1,25.9,30.01,NW,311,0.0,0.0,84,0.00,,,0.00,VWS V14.01,2013-02-25 09:12:00,
2013-02-25 04:13:00,30.2,26.1,30.01,NW,311,0.0,0.0,85,0.00,,,0.00,VWS V14.01,2013-02-25 09:13:00,
2013-02-25 04:14:00,30.1,25.9,30.01,NW,311,0.0,0.0,84,0.00,,---,0.00,VWS V14.01,2013-02-25 09:14:00,
2013-02-25 04:15:00,30.1,25.9,30.01,NW,311,0.0,0.0,84,0.00,,,0.00,VWS V14.01,2013-02-25 09:15:00,
2013-02-25 04:16:00,30.1,25.9,30.01,NW,311,0.0,0.0,84,0.00,,,0.00,VWS V14.01,2013-02-25 09:16:00,
2013-02-25 04:17:00,30.1,26.0,30.01,NW,311,0.0,0.0,85,0.00,,,0.00,VWS V14.01,2013-02-25 09:17:00,
2013-02-25 04:18:00,30.2,26.1,30.01,NW,311,0.0,0.0,85,0.00,,,0.00,VWS V14.01,2013-02-25 09:18:00,
2013-02-25 04:19:00,30.2,26.2,30.01,NW,311,0.0,0.0,85,0.00,,---,0.00,VWS V14.01,2013-02-25 09:19:00,
2013-02-25 04:20:00,30.0,26.3,30.01,NW,311,0.0,0.0,86,0.00,,,0.00,VWS V14.01,2013-02-25 09:20:00,
2013-02-25 04:21:00,30.1,26.1,30.01,NW,311,0.0,0.0,85,0.00,,,0.00,VWS V14.01,2013-02-25 09:21:00,
2013-02-25 04:22:00,30.1,26.0,30.01,NW,311,0.0,0.0,85,0.00,,,0.00,VWS V14.01,2013-02-25 09:22:00,
2013-02-25 04:23:00,30.1,26.0,30.01,NW,311,0.0,0.0,84,0.00,,,0.00,VWS V14.01,2013-02-25 09:23:00,
2013-02-25 04:24:00,30.1,26.1,30.01,NNW,347,2.5,4.8,85,0.00,,---,0.00,VWS V14.01,2013-02-25 09:24:00,
2013-02-25 04:25:00,30.1,26.0,30.01,NW,311,0.0,0.0,85,0.00,,,0.00,VWS V14.01,2013-02-25 09:25:00,
2013-02-25 04:26:00,30.1,26.0,30.01,NNW,347,4.8,7.0,84,0.00,,,0.00,VWS V14.01,2013-02-25 09:26:00,
2013-02-25 04:27:00,30.0,25.9,30.01,NNW,347,0.0,4.8,84,0.00,,,0.00,VWS V14.01,2013-02-25 09:27:00,
2013-02-25 04:28:00,30.0,25.9,30.01,NNW,347,0.0,0.0,84,0.00,,,0.00,VWS V14.01,2013-02-25 09:28:00,
2013-02-25 04:29:00,30.0,26.0,30.01,NNE,15,3.3,5.3,85,0.00,,---,0.00,VWS V14.01,2013-02-25 09:29:00,
2013-02-25 04:30:00,30.0,26.0,30.01,NW,314,0.0,4.7,85,0.00,,,0.00,VWS V14.01,2013-02-25 09:30:00,
2013-02-25 04:31:00,30.0,26.0,30.01,North,3,5.3,6.3,85,0.00,,,0.00,VWS V14.01,2013-02-25 09:31:00,
2013-02-25 04:32:00,30.0,26.0,30.01,NNE,15,0.0,5.3,85,0.00,,,0.00,VWS V14.01,2013-02-25 09:32:00,
2013-02-25 04:33:00,30.0,26.0,30.01,NNE,15,0.0,0.0,85,0.00,,,0.00,VWS V14.01,2013-02-25 09:33:00,
2013-02-25 04:34:00,29.9,25.9,30.01,NNE,15,0.0,0.0,85,0.00,,---,0.00,VWS V14.01,2013-02-25 09:34:00,
2013-02-25 04:35:00,30.1,26.1,30.01,NNE,15,0.0,0.0,85,0.00,,,0.00,VWS V14.01,2013-02-25 09:35:00,
2013-02-25 04:36:00,30.1,26.1,30.01,NNE,15,0.0,0.0,85,0.00,,,0.00,VWS V14.01,2013-02-25 09:36:00,
2013-02-25 04:37:00,30.0,26.0,30.01,NNE,15,0.0,0.0,85,0.00,,,0.00,VWS V14.01,2013-02-25 09:37:00,
2013-02-25 04:38:00,30.1,26.1,30.02,NNE,15,0.0,0.0,85,0.00,,,0.00,VWS V14.01,2013-02-25 09:38:00,
2013-02-25 04:39:00,29.9,26.0,30.02,NNE,15,0.0,0.0,85,0.00,,---,0.00,VWS V14.01,2013-02-25 09:39:00,
2013-02-25 04:40:00,30.0,26.0,30.01,NNE,15,0.0,0.0,85,0.00,,,0.00,VWS V14.01,2013-02-25 09:40:00,
2013-02-25 04:41:00,30.0,26.1,30.02,NNE,15,0.0,0.0,85,0.00,,,0.00,VWS V14.01,2013-02-25 09:41:00,
2013-02-25 04:42:00,29.9,25.9,30.02,NNE,15,0.0,0.0,85,0.00,,,0.00,VWS V14.01,2013-02-25 09:42:00,
2013-02-25 04:43:00,30.1,26.1,30.02,NNW,345,3.5,3.5,85,0.00,,,0.00,VWS V14.01,2013-02-25 09:43:00,
2013-02-25 04:44:00,30.0,25.9,30.02,NW,308,0.0,0.0,84,0.00,,---,0.00,VWS V14.01,2013-02-25 09:44:00,
2013-02-25 04:45:00,30.0,26.0,30.02,NW,308,0.0,0.0,85,0.00,,,0.00,VWS V14.01,2013-02-25 09:45:00,
2013-02-25 04:46:00,30.0,25.9,30.02,NW,308,0.0,0.0,85,0.00,,,0.00,VWS V14.01,2013-02-25 09:46:00,
2013-02-25 04:47:00,30.0,25.9,30.02,NW,308,0.0,0.0,85,0.00,,,0.00,VWS V14.01,2013-02-25 09:47:00,
2013-02-25 04:48:00,29.9,25.8,30.02,North,359,2.7,5.7,84,0.00,,,0.00,VWS V14.01,2013-02-25 09:48:00,
2013-02-25 04:49:00,29.9,25.9,30.02,North,359,0.0,0.0,85,0.00,,---,0.00,VWS V14.01,2013-02-25 09:49:00,
2013-02-25 04:50:00,29.8,25.7,30.02,North,359,0.0,0.0,85,0.00,,,0.00,VWS V14.01,2013-02-25 09:50:00,
2013-02-25 04:51:00,29.9,25.9,30.02,North,359,0.0,0.0,85,0.00,,,0.00,VWS V14.01,2013-02-25 09:51:00,
2013-02-25 04:52:00,29.9,26.0,30.02,North,359,0.0,0.0,85,0.00,,,0.00,VWS V14.01,2013-02-25 09:52:00,
2013-02-25 04:53:00,30.0,26.1,30.02,NW,311,0.0,6.2,85,0.00,,,0.00,VWS V14.01,2013-02-25 09:53:00,
2013-02-25 04:54:00,29.9,25.8,30.02,NW,311,0.0,0.0,85,0.00,,---,0.00,VWS V14.01,2013-02-25 09:54:00,
2013-02-25 04:55:00,29.9,25.8,30.02,NW,311,0.0,0.0,84,0.00,,,0.00,VWS V14.01,2013-02-25 09:55:00,
2013-02-25 04:56:00,30.0,25.9,30.02,NW,311,0.0,0.0,85,0.00,,,0.00,VWS V14.01,2013-02-25 09:56:00,
2013-02-25 04:57:00,29.9,25.9,30.02,NW,311,0.0,0.0,85,0.00,,,0.00,VWS V14.01,2013-02-25 09:57:00,
2013-02-25 04:58:00,29.9,26.0,30.02,NW,311,0.0,0.0,85,0.00,,,0.00,VWS V14.01,2013-02-25 09:58:00,
2013-02-25 04:59:00,30.0,25.9,30.02,North,3,0.0,0.0,84,0.00,,---,0.00,VWS V14.01,2013-02-25 09:59:00,
2013-02-25 05:00:00,29.8,25.7,30.02,North,3,0.0,4.7,84,0.00,,,0.00,VWS V14.01,2013-02-25 10:00:00,
2013-02-25 05:01:00,29.8,25.7,30.02,North,3,0.0,0.0,85,0.00,,,0.00,VWS V14.01,2013-02-25 10:01:00,
2013-02-25 05:02:00,29.9,25.8,30.02,North,3,0.0,0.0,84,0.00,,,0.00,VWS V14.01,2013-02-25 10:02:00,
2013-02-25 05:03:00,29.7,25.6,30.02,North,3,0.0,0.0,84,0.00,,,0.00,VWS V14.01,2013-02-25 10:03:00,
2013-02-25 05:04:00,29.7,25.7,30.02,NNE,18,0.0,0.0,85,0.00,,---,0.00,VWS V14.01,2013-02-25 10:04:00,
2013-02-25 05:05:00,29.7,25.7,30.02,NNE,18,0.0,4.2,85,0.00,,,0.00,VWS V14.01,2013-02-25 10:05:00,
2013-02-25 05:06:00,29.8,25.8,30.02,NNE,18,0.0,0.0,85,0.00,,,0.00,VWS V14.01,2013-02-25 10:06:00,
2013-02-25 05:07:00,29.7,25.7,30.02,NNE,18,0.0,0.0,85,0.00,,,0.00,VWS V14.01,2013-02-25 10:07:00,
2013-02-25 05:08:00,29.6,25.5,30.02,NNE,18,0.0,0.0,85,0.00,,,0.00,VWS V14.01,2013-02-25 10:08:00,
2013-02-25 05:09:00,29.9,25.9,30.02,NNE,18,0.0,0.0,85,0.00,,---,0.00,VWS V14.01,2013-02-25 10:09:00,
2013-02-25 05:10:00,29.9,26.0,30.02,NNE,18,0.0,0.0,85,0.00,,,0.00,VWS V14.01,2013-02-25 10:10:00,
2013-02-25 05:11:00,29.7,25.7,30.02,NNE,18,0.0,0.0,85,0.00,,,0.00,VWS V14.01,2013-02-25 10:11:00,
2013-02-25 05:12:00,29.9,25.9,30.02,NNE,18,0.0,0.0,85,0.00,,,0.00,VWS V14.01,2013-02-25 10:12:00,
2013-02-25 05:13:00,29.7,25.7,30.02,NNE,18,0.0,0.0,85,0.00,,,0.00,VWS V14.01,2013-02-25 10:13:00,
2013-02-25 05:14:00,29.6,25.6,30.02,NNE,18,0.0,0.0,85,0.00,,,0.00,VWS V14.01,2013-02-25 10:14:00,
2013-02-25 05:15:00,29.6,25.6,30.02,North,3,0.0,0.0,85,0.00,,---,0.00,VWS V14.01,2013-02-25 10:15:00,
2013-02-25 05:16:00,29.6,25.6,30.02,North,3,0.0,2.9,85,0.00,,,0.00,VWS V14.01,2013-02-25 10:16:00,
2013-02-25 05:17:00,29.7,25.7,30.02,North,3,0.0,0.0,85,0.00,,,0.00,VWS V14.01,2013-02-25 10:17:00,
2013-02-25 05:18:00,29.7,25.7,30.02,North,3,0.0,0.0,85,0.00,,,0.00,VWS V14.01,2013-02-25 10:18:00,
2013-02-25 05:19:00,29.7,25.8,30.02,North,3,0.0,0.0,85,0.00,,,0.00,VWS V14.01,2013-02-25 10:19:00,
2013-02-25 05:20:00,29.7,25.7,30.02,NE,34,0.0,1.6,85,0.00,,---,0.00,VWS V14.01,2013-02-25 10:20:00,
2013-02-25 05:21:00,29.6,25.6,30.02,NE,34,1.6,5.5,85,0.00,,,0.00,VWS V14.01,2013-02-25 10:21:00,
2013-02-25 05:22:00,29.6,25.5,30.02,NE,34,0.0,1.6,85,0.00,,,0.00,VWS V14.01,2013-02-25 10:22:00,
2013-02-25 05:23:00,29.6,25.6,30.02,NE,34,0.0,0.0,85,0.00,,,0.00,VWS V14.01,2013-02-25 10:23:00,
2013-02-25 05:24:00,29.4,25.4,30.02,North,359,1.9,3.4,85,0.00,,,0.00,VWS V14.01,2013-02-25 10:24:00,
2013-02-25 05:25:00,29.6,25.6,30.02,North,1,0.0,0.0,85,0.00,,---,0.00,VWS V14.01,2013-02-25 10:25:00,
2013-02-25 05:26:00,29.6,25.6,30.02,North,1,0.0,0.0,85,0.00,,,0.00,VWS V14.01,2013-02-25 10:26:00,
2013-02-25 05:27:00,29.6,25.6,30.02,North,1,0.0,0.0,85,0.00,,,0.00,VWS V14.01,2013-02-25 10:27:00,
2013-02-25 05:28:00,29.5,25.6,30.02,North,1,0.0,0.0,85,0.00,,,0.00,VWS V14.01,2013-02-25 10:28:00,
2013-02-25 05:29:00,29.6,25.7,30.02,North,1,0.0,0.0,85,0.00,,,0.00,VWS V14.01,2013-02-25 10:29:00,
2013-02-25 05:30:00,29.5,25.7,30.02,North,1,0.0,0.0,86,0.00,,---,0.00,VWS V14.01,2013-02-25 10:30:00,
2013-02-25 05:31:00,29.4,25.6,30.02,North,1,0.0,0.0,85,0.00,,,0.00,VWS V14.01,2013-02-25 10:31:00,
2013-02-25 05:32:00,29.5,25.7,30.02,North,1,0.0,0.0,86,0.00,,,0.00,VWS V14.01,2013-02-25 10:32:00,
2013-02-25 05:33:00,29.6,25.7,30.02,North,1,0.0,0.0,85,0.00,,,0.00,VWS V14.01,2013-02-25 10:33:00,
2013-02-25 05:34:00,29.4,25.6,30.02,North,1,0.0,0.0,86,0.00,,,0.00,VWS V14.01,2013-02-25 10:34:00,
2013-02-25 05:35:00,29.5,25.8,30.02,North,1,0.0,0.0,86,0.00,,---,0.00,VWS V14.01,2013-02-25 10:35:00,
2013-02-25 05:36:00,29.5,25.8,30.02,North,1,0.0,0.0,86,0.00,,,0.00,VWS V14.01,2013-02-25 10:36:00,
2013-02-25 05:37:00,29.6,25.9,30.02,North,1,0.0,0.0,86,0.00,,,0.00,VWS V14.01,2013-02-25 10:37:00,
2013-02-25 05:38:00,29.5,25.8,30.03,North,1,0.0,0.0,86,0.00,,,0.00,VWS V14.01,2013-02-25 10:38:00,
2013-02-25 05:39:00,29.5,25.8,30.03,North,1,0.0,0.0,86,0.00,,,0.00,VWS V14.01,2013-02-25 10:39:00,
2013-02-25 05:40:00,29.6,25.9,30.03,North,1,0.0,0.0,86,0.00,,---,0.00,VWS V14.01,2013-02-25 10:40:00,
2013-02-25 05:41:00,29.5,25.8,30.03,North,1,0.0,0.0,86,0.00,,,0.00,VWS V14.01,2013-02-25 10:41:00,
2013-02-25 05:42:00,29.5,25.8,30.03,North,1,0.0,0.0,86,0.00,,,0.00,VWS V14.01,2013-02-25 10:42:00,
2013-02-25 05:43:00,29.6,25.9,30.03,North,1,0.0,0.0,86,0.00,,,0.00,VWS V14.01,2013-02-25 10:43:00,
2013-02-25 05:44:00,29.6,25.9,30.03,North,1,0.0,0.0,86,0.00,,,0.00,VWS V14.01,2013-02-25 10:44:00,
2013-02-25 05:45:00,29.6,25.7,30.03,North,1,0.0,0.0,85,0.00,,---,0.00,VWS V14.01,2013-02-25 10:45:00,
2013-02-25 05:46:00,29.6,25.8,30.03,North,1,0.0,0.0,85,0.00,,,0.00,VWS V14.01,2013-02-25 10:46:00,
2013-02-25 05:47:00,29.6,25.7,30.03,North,1,0.0,0.0,85,0.00,,,0.00,VWS V14.01,2013-02-25 10:47:00,
2013-02-25 05:48:00,29.5,25.6,30.03,North,1,0.0,0.0,85,0.00,,,0.00,VWS V14.01,2013-02-25 10:48:00,
2013-02-25 05:49:00,29.5,25.6,30.03,North,1,0.0,0.0,85,0.00,,,0.00,VWS V14.01,2013-02-25 10:49:00,
2013-02-25 05:50:00,29.4,25.6,30.03,North,1,0.0,0.0,85,0.00,,---,0.00,VWS V14.01,2013-02-25 10:50:00,
2013-02-25 05:51:00,29.5,25.7,30.03,North,1,0.0,0.0,85,0.00,,,0.00,VWS V14.01,2013-02-25 10:51:00,
2013-02-25 05:52:00,29.4,25.5,30.03,North,1,0.0,0.0,85,0.00,,,0.00,VWS V14.01,2013-02-25 10:52:00,
2013-02-25 05:53:00,29.5,25.7,30.03,North,1,0.0,0.0,86,0.00,,,0.00,VWS V14.01,2013-02-25 10:53:00,
2013-02-25 05:54:00,29.5,25.7,30.03,North,1,0.0,0.0,85,0.00,,,0.00,VWS V14.01,2013-02-25 10:54:00,
2013-02-25 05:55:00,29.4,25.5,30.03,North,1,0.0,0.0,85,0.00,,---,0.00,VWS V14.01,2013-02-25 10:55:00,
2013-02-25 05:56:00,29.4,25.6,30.03,North,1,0.0,0.0,86,0.00,,,0.00,VWS V14.01,2013-02-25 10:56:00,
2013-02-25 05:57:00,29.5,25.6,30.03,North,1,0.0,0.0,85,0.00,,,0.00,VWS V14.01,2013-02-25 10:57:00,
2013-02-25 05:58:00,29.4,25.5,30.03,North,1,0.0,0.0,85,0.00,,,0.00,VWS V14.01,2013-02-25 10:58:00,
2013-02-25 05:59:00,29.5,25.7,30.03,North,1,0.0,0.0,85,0.00,,,0.00,VWS V14.01,2013-02-25 10:59:00,
2013-02-25 06:00:00,29.4,25.6,30.04,North,1,0.0,0.0,86,0.00,,---,0.00,VWS V14.01,2013-02-25 11:00:00,
2013-02-25 06:01:00,29.3,25.6,30.04,North,1,0.0,0.0,86,0.00,,,0.00,VWS V14.01,2013-02-25 11:01:00,
2013-02-25 06:02:00,29.5,25.8,30.04,North,1,0.0,0.0,86,0.00,,,0.00,VWS V14.01,2013-02-25 11:02:00,
2013-02-25 06:03:00,29.5,25.8,30.04,North,1,0.0,0.0,86,0.00,,,0.00,VWS V14.01,2013-02-25 11:03:00,
2013-02-25 06:04:00,29.5,25.7,30.04,North,1,0.0,0.0,86,0.00,,,0.00,VWS V14.01,2013-02-25 11:04:00,
2013-02-25 06:05:00,29.4,25.5,30.04,North,1,0.0,0.0,85,0.00,,---,0.00,VWS V14.01,2013-02-25 11:05:00,
2013-02-25 06:06:00,29.4,25.5,30.04,North,1,0.0,0.0,85,0.00,,,0.00,VWS V14.01,2013-02-25 11:06:00,
2013-02-25 06:07:00,29.4,25.5,30.04,North,1,0.0,0.0,85,0.00,,,0.00,VWS V14.01,2013-02-25 11:07:00,
2013-02-25 06:08:00,29.4,25.5,30.04,North,1,0.0,0.0,85,0.00,,,0.00,VWS V14.01,2013-02-25 11:08:00,
2013-02-25 06:09:00,29.4,25.5,30.04,North,1,0.0,0.0,85,0.00,,,0.00,VWS V14.01,2013-02-25 11:09:00,
2013-02-25 06:10:00,29.4,25.5,30.04,North,1,0.0,0.0,85,0.00,,---,0.00,VWS V14.01,2013-02-25 11:10:00,
2013-02-25 06:11:00,29.4,25.5,30.04,North,1,0.0,0.0,85,0.00,,,0.00,VWS V14.01,2013-02-25 11:11:00,
2013-02-25 06:12:00,29.4,25.5,30.04,North,1,0.0,0.0,85,0.00,,,0.00,VWS V14.01,2013-02-25 11:12:00,
2013-02-25 06:13:00,29.6,25.7,30.04,North,1,0.0,0.0,85,0.00,,,0.00,VWS V14.01,2013-02-25 11:13:00,
2013-02-25 06:14:00,29.5,25.6,30.04,North,1,0.0,0.0,85,0.00,,,0.00,VWS V14.01,2013-02-25 11:14:00,
2013-02-25 06:15:00,29.5,25.7,30.04,North,1,0.0,0.0,86,0.00,,---,0.00,VWS V14.01,2013-02-25 11:15:00,
2013-02-25 06:16:00,29.4,25.6,30.04,North,1,0.0,0.0,86,0.00,,,0.00,VWS V14.01,2013-02-25 11:16:00,
2013-02-25 06:17:00,29.4,25.6,30.04,North,1,0.0,0.0,86,0.00,,,0.00,VWS V14.01,2013-02-25 11:17:00,
2013-02-25 06:18:00,29.4,25.6,30.04,North,1,0.0,0.0,86,0.00,,,0.00,VWS V14.01,2013-02-25 11:18:00,
2013-02-25 06:19:00,29.4,25.6,30.04,NW,314,5.1,6.8,85,0.00,,,0.00,VWS V14.01,2013-02-25 11:19:00,
2013-02-25 06:20:00,29.4,25.6,30.04,WNW,300,0.0,5.2,86,0.00,,---,0.00,VWS V14.01,2013-02-25 11:20:00,
2013-02-25 06:21:00,29.3,25.5,30.04,NW,315,0.0,0.0,86,0.00,,,0.00,VWS V14.01,2013-02-25 11:21:00,
2013-02-25 06:22:00,29.4,25.6,30.04,WNW,300,0.0,5.2,86,0.00,,,0.00,VWS V14.01,2013-02-25 11:22:00,
2013-02-25 06:23:00,29.5,25.7,30.04,WNW,300,0.0,0.0,85,0.00,,,0.00,VWS V14.01,2013-02-25 11:23:00,
2013-02-25 06:24:00,29.4,25.7,30.04,WNW,300,0.0,0.0,86,0.00,,,0.00,VWS V14.01,2013-02-25 11:24:00,
2013-02-25 06:25:00,29.6,25.8,30.05,NW,312,4.3,4.9,86,0.00,,---,0.00,VWS V14.01,2013-02-25 11:25:00,
2013-02-25 06:26:00,29.4,25.7,30.05,WNW,300,0.0,0.0,86,0.00,,,0.00,VWS V14.01,2013-02-25 11:26:00,
2013-02-25 06:27:00,29.5,25.8,30.05,NW,319,4.2,4.9,86,0.00,,,0.00,VWS V14.01,2013-02-25 11:27:00,
2013-02-25 06:28:00,29.4,25.7,30.05,NW,319,0.0,4.2,86,0.00,,,0.00,VWS V14.01,2013-02-25 11:28:00,
2013-02-25 06:29:00,29.4,25.7,30.05,NW,319,0.0,0.0,86,0.00,,,0.00,VWS V14.01,2013-02-25 11:29:00,
2013-02-25 06:30:00,29.4,25.8,30.05,NW,304,0.0,0.0,86,0.00,,---,0.00,VWS V14.01,2013-02-25 11:30:00,
2013-02-25 06:31:00,29.5,25.9,30.05,NW,304,0.0,5.2,86,0.00,,,0.00,VWS V14.01,2013-02-25 11:31:00,
2013-02-25 06:32:00,29.4,25.9,30.05,NW,304,0.0,0.0,86,0.00,,,0.00,VWS V14.01,2013-02-25 11:32:00,
2013-02-25 06:33:00,29.6,26.0,30.05,NW,304,0.0,0.0,86,0.00,,,0.00,VWS V14.01,2013-02-25 11:33:00,
2013-02-25 06:34:00,29.6,26.0,30.05,NW,304,0.0,0.0,86,0.00,,,0.00,VWS V14.01,2013-02-25 11:34:00,
2013-02-25 06:35:00,29.5,25.9,30.05,NW,304,0.0,0.0,86,0.00,,---,0.00,VWS V14.01,2013-02-25 11:35:00,
2013-02-25 06:36:00,29.5,25.9,30.05,NW,304,0.0,0.0,86,0.00,,,0.00,VWS V14.01,2013-02-25 11:36:00,
2013-02-25 06:37:00,29.5,25.9,30.05,NW,304,0.0,0.0,86,0.00,,,0.00,VWS V14.01,2013-02-25 11:37:00,
2013-02-25 06:38:00,29.4,25.9,30.05,NW,304,0.0,0.0,87,0.00,,,0.00,VWS V14.01,2013-02-25 11:38:00,
2013-02-25 06:39:00,29.5,26.0,30.05,NW,304,0.0,0.0,86,0.00,,,0.00,VWS V14.01,2013-02-25 11:39:00,
2013-02-25 06:40:00,29.4,25.9,30.06,NW,304,0.0,0.0,87,0.00,,---,0.00,VWS V14.01,2013-02-25 11:40:00,
2013-02-25 06:41:00,29.5,26.0,30.05,NW,304,0.0,0.0,86,0.00,,,0.00,VWS V14.01,2013-02-25 11:41:00,
2013-02-25 06:42:00,29.4,25.9,30.06,NW,304,0.0,0.0,87,0.00,,,0.00,VWS V14.01,2013-02-25 11:42:00,
2013-02-25 06:43:00,29.5,26.0,30.06,NW,304,0.0,0.0,87,0.00,,,0.00,VWS V14.01,2013-02-25 11:43:00,
2013-02-25 06:44:00,29.7,26.2,30.06,NW,304,0.0,0.0,86,0.00,,,0.00,VWS V14.01,2013-02-25 11:44:00,
2013-02-25 06:45:00,29.6,26.3,30.06,NW,304,0.0,0.0,87,0.00,,---,0.00,VWS V14.01,2013-02-25 11:45:00,
2013-02-25 06:46:00,29.5,26.2,30.06,NW,304,0.0,0.0,87,0.00,,,0.00,VWS V14.01,2013-02-25 11:46:00,
2013-02-25 06:47:00,29.6,26.3,30.06,NW,304,0.0,0.0,87,0.00,,,0.00,VWS V14.01,2013-02-25 11:47:00,
2013-02-25 06:48:00,29.5,26.1,30.06,NW,304,0.0,0.0,87,0.00,,,0.00,VWS V14.01,2013-02-25 11:48:00,
2013-02-25 06:49:00,29.6,26.3,30.06,NW,304,0.0,0.0,87,0.00,,,0.00,VWS V14.01,2013-02-25 11:49:00,
2013-02-25 06:50:00,29.5,26.2,30.06,NW,304,0.0,0.0,87,0.00,,---,0.00,VWS V14.01,2013-02-25 11:50:00,
2013-02-25 06:51:00,29.6,26.2,30.06,NW,304,0.0,0.0,87,0.00,,,0.00,VWS V14.01,2013-02-25 11:51:00,
2013-02-25 06:52:00,29.5,26.2,30.06,NW,304,0.0,0.0,87,0.00,,,0.00,VWS V14.01,2013-02-25 11:52:00,
2013-02-25 06:53:00,29.6,26.3,30.06,NW,304,0.0,0.0,87,0.00,,,0.00,VWS V14.01,2013-02-25 11:53:00,
2013-02-25 06:54:00,29.6,26.5,30.06,North,352,4.8,6.6,88,0.00,,,0.00,VWS V14.01,2013-02-25 11:54:00,
2013-02-25 06:55:00,29.7,26.5,30.06,West,281,0.0,0.0,88,0.00,,---,0.00,VWS V14.01,2013-02-25 11:55:00,
2013-02-25 06:56:00,29.7,26.4,30.06,West,281,0.0,0.0,87,0.00,,,0.00,VWS V14.01,2013-02-25 11:56:00,
2013-02-25 06:57:00,29.7,26.5,30.06,West,281,0.0,0.0,88,0.00,,,0.00,VWS V14.01,2013-02-25 11:57:00,
2013-02-25 06:58:00,29.7,26.4,30.06,West,281,0.0,0.0,87,0.00,,,0.00,VWS V14.01,2013-02-25 11:58:00,
2013-02-25 06:59:00,29.6,26.3,30.06,West,281,0.0,0.0,87,0.00,,,0.00,VWS V14.01,2013-02-25 11:59:00,
2013-02-25 07:00:00,29.6,26.4,30.06,West,281,0.0,0.0,88,0.00,,---,0.00,VWS V14.01,2013-02-25 12:00:00,
2013-02-25 07:01:00,29.8,26.6,30.06,West,281,0.0,0.0,88,0.00,,,0.00,VWS V14.01,2013-02-25 12:01:00,
2013-02-25 07:02:00,29.6,26.4,30.06,West,281,0.0,0.0,88,0.00,,,0.00,VWS V14.01,2013-02-25 12:02:00,
2013-02-25 07:03:00,29.6,26.5,30.06,West,281,0.0,0.0,88,0.00,,,0.00,VWS V14.01,2013-02-25 12:03:00,
2013-02-25 07:04:00,29.7,26.6,30.06,West,281,0.0,0.0,88,0.00,,,0.00,VWS V14.01,2013-02-25 12:04:00,
2013-02-25 07:05:00,29.8,26.7,30.06,West,281,0.0,0.0,88,0.00,,---,0.00,VWS V14.01,2013-02-25 12:05:00,
2013-02-25 07:06:00,29.7,26.6,30.06,West,281,0.0,0.0,88,0.00,,,0.00,VWS V14.01,2013-02-25 12:06:00,
2013-02-25 07:07:00,29.8,26.7,30.06,West,281,0.0,0.0,88,0.00,,,0.00,VWS V14.01,2013-02-25 12:07:00,
2013-02-25 07:08:00,29.9,26.8,30.06,West,281,0.0,0.0,88,0.00,,,0.00,VWS V14.01,2013-02-25 12:08:00,
2013-02-25 07:09:00,29.7,26.5,30.06,West,281,0.0,0.0,88,0.00,,,0.00,VWS V14.01,2013-02-25 12:09:00,
2013-02-25 07:10:00,29.9,26.9,30.06,West,281,0.0,0.0,88,0.00,,---,0.00,VWS V14.01,2013-02-25 12:10:00,
2013-02-25 07:11:00,29.8,26.8,30.06,West,281,0.0,0.0,88,0.00,,,0.00,VWS V14.01,2013-02-25 12:11:00,
2013-02-25 07:12:00,29.8,26.8,30.06,West,281,0.0,0.0,88,0.00,,,0.00,VWS V14.01,2013-02-25 12:12:00,
2013-02-25 07:13:00,29.8,26.9,30.06,West,281,0.0,0.0,89,0.00,,,0.00,VWS V14.01,2013-02-25 12:13:00,
2013-02-25 07:14:00,29.9,26.8,30.06,West,281,0.0,0.0,88,0.00,,,0.00,VWS V14.01,2013-02-25 12:14:00,
2013-02-25 07:15:00,30.0,26.9,30.06,West,281,0.0,0.0,88,0.00,,---,0.00,VWS V14.01,2013-02-25 12:15:00,
2013-02-25 07:16:00,29.9,26.9,30.06,West,281,0.0,0.0,88,0.00,,,0.00,VWS V14.01,2013-02-25 12:16:00,
2013-02-25 07:17:00,30.0,26.9,30.06,West,281,0.0,0.0,88,0.00,,,0.00,VWS V14.01,2013-02-25 12:17:00,
2013-02-25 07:18:00,30.2,27.1,30.06,West,281,0.0,0.0,88,0.00,,,0.00,VWS V14.01,2013-02-25 12:18:00,
2013-02-25 07:19:00,30.0,26.9,30.06,West,281,0.0,0.0,88,0.00,,,0.00,VWS V14.01,2013-02-25 12:19:00,
2013-02-25 07:20:00,30.1,26.9,30.06,WNW,285,0.0,0.0,88,0.00,,---,0.00,VWS V14.01,2013-02-25 12:20:00,
2013-02-25 07:21:00,30.1,26.9,30.06,NW,325,3.2,4.7,88,0.00,,,0.00,VWS V14.01,2013-02-25 12:21:00,
2013-02-25 07:22:00,30.1,26.9,30.06,WNW,285,0.0,3.4,88,0.00,,,0.00,VWS V14.01,2013-02-25 12:22:00,
2013-02-25 07:23:00,30.1,26.8,30.07,WNW,285,0.0,0.0,87,0.00,,,0.00,VWS V14.01,2013-02-25 12:23:00,
2013-02-25 07:24:00,30.1,26.8,30.07,WNW,302,0.0,3.1,87,0.00,,,0.00,VWS V14.01,2013-02-25 12:24:00,
2013-02-25 07:25:00,30.2,27.0,30.07,WNW,302,2.4,2.7,88,0.00,,---,0.00,VWS V14.01,2013-02-25 12:25:00,
2013-02-25 07:26:00,30.3,27.0,30.07,WNW,302,0.0,0.0,87,0.00,,,0.00,VWS V14.01,2013-02-25 12:26:00,
2013-02-25 07:27:00,30.3,27.1,30.07,WNW,302,0.0,0.0,88,0.00,,,0.00,VWS V14.01,2013-02-25 12:27:00,
2013-02-25 07:28:00,30.4,27.2,30.07,WNW,302,0.0,2.7,88,0.00,,,0.00,VWS V14.01,2013-02-25 12:28:00,
2013-02-25 07:29:00,30.3,27.0,30.07,NW,308,6.0,6.0,87,0.00,,,0.00,VWS V14.01,2013-02-25 12:29:00,
2013-02-25 07:30:00,30.4,27.0,30.07,NNW,340,4.4,4.9,87,0.00,,---,0.00,VWS V14.01,2013-02-25 12:30:00,
2013-02-25 07:31:00,30.4,27.0,30.07,NW,319,0.0,0.0,87,0.00,,,0.00,VWS V14.01,2013-02-25 12:31:00,
2013-02-25 07:32:00,30.3,26.9,30.07,North,1,4.7,6.3,87,0.00,,,0.00,VWS V14.01,2013-02-25 12:32:00,
2013-02-25 07:33:00,30.4,27.0,30.07,NW,312,4.6,5.1,87,0.00,,,0.00,VWS V14.01,2013-02-25 12:33:00,
2013-02-25 07:34:00,30.5,27.1,30.07,NNE,18,3.4,7.1,87,0.00,,,0.00,VWS V14.01,2013-02-25 12:34:00,
2013-02-25 07:35:00,30.6,27.1,30.07,NW,309,0.0,0.0,87,0.00,,---,0.00,VWS V14.01,2013-02-25 12:35:00,
2013-02-25 07:36:00,30.5,27.1,30.07,NW,309,0.0,3.4,87,0.00,,,0.00,VWS V14.01,2013-02-25 12:36:00,
2013-02-25 07:37:00,30.6,27.1,30.07,NW,309,0.0,0.0,87,0.00,,,0.00,VWS V14.01,2013-02-25 12:37:00,
2013-02-25 07:38:00,30.6,27.1,30.07,NW,309,0.0,0.0,87,0.00,,,0.00,VWS V14.01,2013-02-25 12:38:00,
2013-02-25 07:39:00,30.7,27.2,30.07,NW,326,3.3,3.4,87,0.00,,,0.00,VWS V14.01,2013-02-25 12:39:00,
2013-02-25 07:40:00,30.8,27.4,30.07,WNW,298,0.0,0.0,87,0.00,,---,0.00,VWS V14.01,2013-02-25 12:40:00,
2013-02-25 07:41:00,30.7,27.2,30.07,WNW,298,0.0,0.0,87,0.00,,,0.00,VWS V14.01,2013-02-25 12:41:00,
2013-02-25 07:42:00,30.7,27.2,30.07,WNW,298,0.0,0.0,87,0.00,,,0.00,VWS V14.01,2013-02-25 12:42:00,
2013-02-25 07:43:00,30.8,27.6,30.07,WNW,298,0.0,0.0,88,0.00,,,0.00,VWS V14.01,2013-02-25 12:43:00,
2013-02-25 07:44:00,30.9,27.4,30.07,WNW,298,0.0,0.0,87,0.00,,,0.00,VWS V14.01,2013-02-25 12:44:00,
2013-02-25 07:45:00,30.9,27.4,30.07,WNW,298,0.0,0.0,87,0.00,,,0.00,VWS V14.01,2013-02-25 12:45:00,
2013-02-25 07:46:00,30.8,27.3,30.08,NW,325,0.0,0.0,87,0.00,,---,0.00,VWS V14.01,2013-02-25 12:46:00,
2013-02-25 07:47:00,30.9,27.4,30.08,NW,325,0.0,0.0,87,0.00,,,0.00,VWS V14.01,2013-02-25 12:47:00,
2013-02-25 07:48:00,31.0,27.4,30.08,NNW,347,3.1,3.4,86,0.00,,,0.00,VWS V14.01,2013-02-25 12:48:00,
2013-02-25 07:49:00,31.0,27.4,30.08,North,350,6.2,6.2,86,0.00,,,0.00,VWS V14.01,2013-02-25 12:49:00,
2013-02-25 07:50:00,31.0,27.4,30.08,NNW,336,4.7,8.1,86,0.00,,,0.00,VWS V14.01,2013-02-25 12:50:00,
2013-02-25 07:51:00,31.2,27.7,30.08,NNE,17,0.0,0.0,87,0.00,,---,0.00,VWS V14.01,2013-02-25 12:51:00,
2013-02-25 07:52:00,31.1,27.6,30.08,NNE,17,0.0,0.0,87,0.00,,,0.00,VWS V14.01,2013-02-25 12:52:00,
2013-02-25 07:53:00,31.2,27.7,30.08,NNE,17,0.0,0.0,87,0.00,,,0.00,VWS V14.01,2013-02-25 12:53:00,
2013-02-25 07:54:00,31.2,27.6,30.08,NE,38,0.0,5.5,86,0.00,,,0.00,VWS V14.01,2013-02-25 12:54:00,
2013-02-25 07:55:00,31.3,27.7,30.08,NE,38,0.0,0.0,86,0.00,,,0.00,VWS V14.01,2013-02-25 12:55:00,
2013-02-25 07:56:00,31.3,27.7,30.08,NE,38,0.0,0.0,86,0.00,,,0.00,VWS V14.01,2013-02-25 12:56:00,
2013-02-25 07:57:00,31.4,27.7,30.08,NNE,13,0.0,0.0,86,0.00,,---,0.00,VWS V14.01,2013-02-25 12:57:00,
2013-02-25 07:58:00,31.5,27.8,30.08,NNE,13,0.0,8.7,86,0.00,,,0.00,VWS V14.01,2013-02-25 12:58:00,
2013-02-25 07:59:00,31.5,27.8,30.08,NNE,13,0.0,0.0,86,0.00,,,0.00,VWS V14.01,2013-02-25 12:59:00,
2013-02-25 08:00:00,31.5,27.9,30.08,NNE,13,0.0,0.0,86,0.00,,,0.00,VWS V14.01,2013-02-25 13:00:00,
2013-02-25 08:01:00,31.6,28.1,30.08,NNE,13,0.0,0.0,87,0.00,,,0.00,VWS V14.01,2013-02-25 13:01:00,
2013-02-25 08:02:00,31.8,28.4,30.08,NNE,13,0.0,0.0,87,0.00,,---,0.00,VWS V14.01,2013-02-25 13:02:00,
2013-02-25 08:03:00,31.6,28.2,30.08,NNE,13,0.0,0.0,87,0.00,,,0.00,VWS V14.01,2013-02-25 13:03:00,
2013-02-25 08:04:00,31.7,28.2,30.08,NNE,13,0.0,0.0,87,0.00,,,0.00,VWS V14.01,2013-02-25 13:04:00,
2013-02-25 08:05:00,31.8,28.4,30.08,NNE,13,0.0,0.0,87,0.00,,,0.00,VWS V14.01,2013-02-25 13:05:00,
2013-02-25 08:06:00,31.9,28.6,30.08,NNE,13,0.0,0.0,88,0.00,,,0.00,VWS V14.01,2013-02-25 13:06:00,
2013-02-25 08:07:00,32.0,28.6,30.08,North,354,0.0,4.2,87,0.00,,---,0.00,VWS V14.01,2013-02-25 13:07:00,
2013-02-25 08:08:00,31.9,28.5,30.08,NNW,332,5.6,6.8,87,0.00,,,0.00,VWS V14.01,2013-02-25 13:08:00,
2013-02-25 08:09:00,32.0,28.6,30.08,North,3,4.2,8.3,87,0.00,,,0.00,VWS V14.01,2013-02-25 13:09:00,
2013-02-25 08:10:00,32.1,28.8,30.08,North,354,0.0,4.2,87,0.00,,,0.00,VWS V14.01,2013-02-25 13:10:00,
2013-02-25 08:11:00,32.1,28.8,30.08,NW,315,5.2,5.2,87,0.00,,,0.00,VWS V14.01,2013-02-25 13:11:00,
2013-02-25 08:12:00,32.2,28.8,30.08,North,359,6.0,6.8,87,0.00,,,0.00,VWS V14.01,2013-02-25 13:12:00,
2013-02-25 08:13:00,32.3,28.9,30.08,NNW,333,4.2,4.3,87,0.00,,---,0.00,VWS V14.01,2013-02-25 13:13:00,
2013-02-25 08:14:00,32.3,28.9,30.08,NNW,338,3.4,4.3,87,0.00,,,0.00,VWS V14.01,2013-02-25 13:14:00,
2013-02-25 08:15:00,32.3,28.9,30.08,North,349,0.0,4.3,87,0.00,,,0.00,VWS V14.01,2013-02-25 13:15:00,
2013-02-25 08:16:00,32.3,28.9,30.08,North,349,0.0,2.8,87,0.00,,,0.00,VWS V14.01,2013-02-25 13:16:00,
2013-02-25 08:17:00,32.4,28.9,30.08,NNE,20,0.0,5.5,87,0.00,,,0.00,VWS V14.01,2013-02-25 13:17:00,
2013-02-25 08:18:00,32.6,29.2,30.08,NNE,20,0.0,0.0,87,0.00,,---,0.00,VWS V14.01,2013-02-25 13:18:00,
2013-02-25 08:19:00,32.6,29.2,30.08,NNE,20,0.0,0.0,87,0.00,,,0.00,VWS V14.01,2013-02-25 13:19:00,
2013-02-25 08:20:00,32.6,29.2,30.08,NNE,20,0.0,0.0,87,0.00,,,0.00,VWS V14.01,2013-02-25 13:20:00,
2013-02-25 08:21:00,32.7,29.2,30.08,NNE,20,0.0,0.0,87,0.00,,,0.00,VWS V14.01,2013-02-25 13:21:00,
2013-02-25 08:22:00,32.7,29.1,30.08,NNE,20,0.0,0.0,87,0.00,,,0.00,VWS V14.01,2013-02-25 13:22:00,
2013-02-25 08:23:00,33.0,29.4,30.09,NNE,20,0.0,0.0,86,0.00,,---,0.00,VWS V14.01,2013-02-25 13:23:00,
2013-02-25 08:24:00,33.0,29.4,30.08,NNE,20,0.0,0.0,86,0.00,,,0.00,VWS V14.01,2013-02-25 13:24:00,
2013-02-25 08:25:00,33.0,29.4,30.09,NNE,20,0.0,0.0,86,0.00,,,0.00,VWS V14.01,2013-02-25 13:25:00,
2013-02-25 08:26:00,33.1,29.5,30.09,NNE,20,0.0,0.0,86,0.00,,,0.00,VWS V14.01,2013-02-25 13:26:00,
2013-02-25 08:27:00,33.1,29.4,30.09,NNE,20,0.0,0.0,86,0.00,,,0.00,VWS V14.01,2013-02-25 13:27:00,
2013-02-25 08:28:00,33.4,29.5,30.09,NW,323,4.8,5.3,85,0.00,,---,0.00,VWS V14.01,2013-02-25 13:28:00,
2013-02-25 08:29:00,33.3,29.5,30.09,NNE,20,0.0,0.0,86,0.00,,,0.00,VWS V14.01,2013-02-25 13:29:00,
2013-02-25 08:30:00,33.4,29.5,30.09,NNW,328,5.8,7.1,85,0.00,,,0.00,VWS V14.01,2013-02-25 13:30:00,
2013-02-25 08:31:00,33.4,29.5,30.09,NNW,346,3.2,5.8,85,0.00,,,0.00,VWS V14.01,2013-02-25 13:31:00,
2013-02-25 08:32:00,33.4,29.5,30.09,NNW,346,0.0,3.2,85,0.00,,,0.00,VWS V14.01,2013-02-25 13:32:00,
2013-02-25 08:33:00,33.6,29.7,30.09,NNW,346,0.0,0.0,85,0.00,,---,0.00,VWS V14.01,2013-02-25 13:33:00,
2013-02-25 08:34:00,33.6,29.7,30.09,NNW,346,0.0,0.0,85,0.00,,,0.00,VWS V14.01,2013-02-25 13:34:00,
2013-02-25 08:35:00,33.6,29.7,30.09,NNW,346,0.0,0.0,85,0.00,,,0.00,VWS V14.01,2013-02-25 13:35:00,
2013-02-25 08:36:00,33.6,29.7,30.09,NNW,346,0.0,0.0,85,0.00,,,0.00,VWS V14.01,2013-02-25 13:36:00,
2013-02-25 08:37:00,33.7,29.8,30.09,NNW,346,0.0,0.0,85,0.00,,,0.00,VWS V14.01,2013-02-25 13:37:00,
2013-02-25 08:38:00,33.9,29.9,30.09,NNW,346,3.0,3.0,85,0.00,,---,0.00,VWS V14.01,2013-02-25 13:38:00,
2013-02-25 08:39:00,33.8,29.8,30.09,NNW,346,0.0,3.3,85,0.00,,,0.00,VWS V14.01,2013-02-25 13:39:00,
2013-02-25 08:40:00,33.9,30.0,30.09,WNW,284,2.7,3.0,85,0.00,,,0.00,VWS V14.01,2013-02-25 13:40:00,
2013-02-25 08:41:00,34.0,30.0,30.09,WNW,284,0.0,2.7,85,0.00,,,0.00,VWS V14.01,2013-02-25 13:41:00,
2013-02-25 08:42:00,34.1,30.0,30.09,WNW,284,0.0,0.0,85,0.00,,,0.00,VWS V14.01,2013-02-25 13:42:00,
2013-02-25 08:43:00,34.2,30.1,30.09,North,352,3.0,3.0,85,0.00,,---,0.00,VWS V14.01,2013-02-25 13:43:00,
2013-02-25 08:44:00,34.1,30.0,30.09,NW,309,4.7,5.0,85,0.00,,,0.00,VWS V14.01,2013-02-25 13:44:00,
2013-02-25 08:45:00,34.2,30.1,30.09,North,352,3.0,8.0,85,0.00,,,0.00,VWS V14.01,2013-02-25 13:45:00,
2013-02-25 08:46:00,34.2,30.1,30.09,North,350,6.1,9.3,85,0.00,,,0.00,VWS V14.01,2013-02-25 13:46:00,
2013-02-25 08:47:00,34.3,30.2,30.09,North,3,3.3,6.5,85,0.00,,,0.00,VWS V14.01,2013-02-25 13:47:00,
2013-02-25 08:48:00,34.5,30.5,30.09,NNW,336,4.8,5.5,85,0.00,,---,0.00,VWS V14.01,2013-02-25 13:48:00,
2013-02-25 08:49:00,34.4,30.4,30.09,NE,35,0.0,8.6,85,0.00,,,0.00,VWS V14.01,2013-02-25 13:49:00,
2013-02-25 08:50:00,34.5,30.5,30.09,NNW,336,5.3,8.5,85,0.00,,,0.00,VWS V14.01,2013-02-25 13:50:00,
2013-02-25 08:51:00,34.6,30.6,30.09,NNW,342,0.0,7.3,85,0.00,,,0.00,VWS V14.01,2013-02-25 13:51:00,
2013-02-25 08:52:00,34.6,30.7,30.09,NW,319,9.3,9.5,85,0.00,,,0.00,VWS V14.01,2013-02-25 13:52:00,
2013-02-25 08:53:00,34.6,30.8,30.09,NW,321,3.4,7.8,86,0.00,,---,0.00,VWS V14.01,2013-02-25 13:53:00,
2013-02-25 08:54:00,34.6,30.7,30.09,NNW,333,7.8,9.1,86,0.00,,,0.00,VWS V14.01,2013-02-25 13:54:00,
2013-02-25 08:55:00,34.6,30.8,30.09,NW,321,3.4,7.8,86,0.00,,,0.00,VWS V14.01,2013-02-25 13:55:00,
2013-02-25 08:56:00,34.7,30.9,30.09,NNW,342,5.5,8.9,86,0.00,,,0.00,VWS V14.01,2013-02-25 13:56:00,
2013-02-25 08:57:00,34.7,30.8,30.09,NW,323,0.0,6.8,86,0.00,,,0.00,VWS V14.01,2013-02-25 13:57:00,
2013-02-25 08:58:00,34.8,30.9,30.10,ENE,75,6.1,8.3,86,0.00,,---,0.00,VWS V14.01,2013-02-25 13:58:00,
2013-02-25 08:59:00,34.7,30.8,30.10,WNW,291,3.3,8.5,85,0.00,,,0.00,VWS V14.01,2013-02-25 13:59:00,
2013-02-25 09:00:00,34.8,30.9,30.10,ENE,75,6.1,8.3,86,0.00,,,0.00,VWS V14.01,2013-02-25 14:00:00,
2013-02-25 09:01:00,34.8,30.9,30.10,WNW,297,4.4,7.1,86,0.00,,,0.00,VWS V14.01,2013-02-25 14:01:00,
2013-02-25 09:02:00,34.8,30.9,30.10,NW,323,7.0,9.1,86,0.00,,,0.00,VWS V14.01,2013-02-25 14:02:00,
2013-02-25 09:03:00,34.9,30.9,30.10,NNW,335,3.5,8.2,85,0.00,,---,0.00,VWS V14.01,2013-02-25 14:03:00,
2013-02-25 09:04:00,34.9,31.0,30.10,NW,325,6.2,6.3,85,0.00,,,0.00,VWS V14.01,2013-02-25 14:04:00,
2013-02-25 09:05:00,34.9,30.9,30.10,NNW,335,3.5,8.2,85,0.00,,,0.00,VWS V14.01,2013-02-25 14:05:00,
2013-02-25 09:06:00,35.0,31.1,30.10,NW,319,5.8,7.1,85,0.00,,,0.00,VWS V14.01,2013-02-25 14:06:00,
2013-02-25 09:07:00,35.0,30.9,30.10,North,353,6.6,9.9,85,0.00,,,0.00,VWS V14.01,2013-02-25 14:07:00,
2013-02-25 09:08:00,35.1,31.1,30.10,North,8,0.0,6.2,85,0.00,,---,0.00,VWS V14.01,2013-02-25 14:08:00,
2013-02-25 09:09:00,35.0,30.9,30.10,North,8,6.2,9.7,85,0.00,,,0.00,VWS V14.01,2013-02-25 14:09:00,
2013-02-25 09:10:00,35.1,31.1,30.10,North,8,0.0,6.2,85,0.00,,,0.00,VWS V14.01,2013-02-25 14:10:00,
2013-02-25 09:11:00,35.1,31.0,30.10,NW,316,7.6,8.0,85,0.00,,,0.00,VWS V14.01,2013-02-25 14:11:00,
2013-02-25 09:12:00,35.1,30.9,30.10,North,359,5.3,10.1,85,0.00,,,0.00,VWS V14.01,2013-02-25 14:12:00,
2013-02-25 09:13:00,35.2,31.1,30.10,North,356,3.4,6.7,85,0.00,,,0.00,VWS V14.01,2013-02-25 14:13:00,
2013-02-25 09:14:00,35.3,31.1,30.10,NNE,27,6.6,8.0,85,0.00,,---,0.00,VWS V14.01,2013-02-25 14:14:00,
2013-02-25 09:15:00,35.3,31.1,30.10,NNW,328,0.0,5.3,85,0.00,,,0.00,VWS V14.01,2013-02-25 14:15:00,
2013-02-25 09:16:00,35.2,30.8,30.10,NNE,13,5.2,8.4,84,0.00,,,0.00,VWS V14.01,2013-02-25 14:16:00,
2013-02-25 09:17:00,35.3,31.0,30.10,NE,39,4.5,7.0,84,0.00,,,0.00,VWS V14.01,2013-02-25 14:17:00,
2013-02-25 09:18:00,35.4,31.0,30.10,WNW,301,7.7,8.9,84,0.00,,,0.00,VWS V14.01,2013-02-25 14:18:00,
2013-02-25 09:19:00,35.5,31.1,30.10,NNW,338,6.5,8.0,84,0.00,,---,0.00,VWS V14.01,2013-02-25 14:19:00,
2013-02-25 09:20:00,35.4,30.9,30.10,North,350,5.8,6.3,83,0.00,,,0.00,VWS V14.01,2013-02-25 14:20:00,
2013-02-25 09:21:00,35.5,31.0,30.10,NNW,336,7.4,8.0,84,0.00,,,0.00,VWS V14.01,2013-02-25 14:21:00,
2013-02-25 09:22:00,35.4,30.5,30.10,NW,305,7.0,9.5,82,0.00,,,0.00,VWS V14.01,2013-02-25 14:22:00,
2013-02-25 09:23:00,35.4,30.6,30.10,NE,56,3.5,12.1,83,0.00,,,0.00,VWS V14.01,2013-02-25 14:23:00,
2013-02-25 09:24:00,35.5,30.7,30.10,NW,309,0.0,9.7,82,0.00,,---,0.00,VWS V14.01,2013-02-25 14:24:00,
2013-02-25 09:25:00,35.5,30.6,30.10,NNW,333,3.4,9.2,82,0.00,,,0.00,VWS V14.01,2013-02-25 14:25:00,
2013-02-25 09:26:00,35.5,30.7,30.10,NW,309,0.0,9.7,82,0.00,,,0.00,VWS V14.01,2013-02-25 14:26:00,
2013-02-25 09:27:00,35.6,30.3,30.10,NNW,342,10.1,10.3,81,0.00,,,0.00,VWS V14.01,2013-02-25 14:27:00,
2013-02-25 09:28:00,35.6,30.5,30.10,North,356,7.8,13.3,81,0.00,,,0.00,VWS V14.01,2013-02-25 14:28:00,
2013-02-25 09:29:00,35.6,29.9,30.10,ENE,73,5.9,9.3,79,0.00,,---,0.00,VWS V14.01,2013-02-25 14:29:00,
2013-02-25 09:30:00,35.7,30.4,30.10,NW,325,7.0,12.1,81,0.00,,,0.00,VWS V14.01,2013-02-25 14:30:00,
2013-02-25 09:31:00,35.6,29.9,30.10,ENE,73,5.9,9.3,79,0.00,,,0.00,VWS V14.01,2013-02-25 14:31:00,
2013-02-25 09:32:00,35.6,30.0,30.10,NNW,339,8.5,11.2,80,0.00,,,0.00,VWS V14.01,2013-02-25 14:32:00,
2013-02-25 09:33:00,35.5,29.8,30.10,NNW,340,8.1,13.9,80,0.00,,,0.00,VWS V14.01,2013-02-25 14:33:00,
2013-02-25 09:34:00,35.7,30.3,30.10,North,359,9.4,11.5,80,0.00,,---,0.00,VWS V14.01,2013-02-25 14:34:00,
2013-02-25 09:35:00,35.7,30.2,30.10,NW,319,7.9,8.2,80,0.00,,,0.00,VWS V14.01,2013-02-25 14:35:00,
2013-02-25 09:36:00,35.7,30.3,30.10,North,349,11.5,11.9,80,0.00,,,0.00,VWS V14.01,2013-02-25 14:36:00,
2013-02-25 09:37:00,35.8,30.2,30.10,NNW,338,7.5,11.5,80,0.00,,,0.00,VWS V14.01,2013-02-25 14:37:00,
2013-02-25 09:38:00,35.8,30.0,30.10,NNW,330,9.6,9.6,79,0.00,,,0.00,VWS V14.01,2013-02-25 14:38:00,
2013-02-25 09:39:00,36.0,30.1,30.10,North,357,6.0,6.9,79,0.00,,---,0.00,VWS V14.01,2013-02-25 14:39:00,
2013-02-25 09:40:00,36.0,30.2,30.10,NNW,330,8.1,8.1,79,0.00,,,0.00,VWS V14.01,2013-02-25 14:40:00,
2013-02-25 09:41:00,35.9,29.9,30.10,NW,322,5.6,10.8,78,0.00,,,0.00,VWS V14.01,2013-02-25 14:41:00,
2013-02-25 09:42:00,36.0,30.0,30.10,North,353,0.0,9.8,79,0.00,,,0.00,VWS V14.01,2013-02-25 14:42:00,
2013-02-25 09:43:00,36.2,30.3,30.10,NW,325,0.0,6.0,79,0.00,,,0.00,VWS V14.01,2013-02-25 14:43:00,
2013-02-25 09:44:00,36.4,30.2,30.10,NNW,342,4.5,7.4,78,0.00,,---,0.00,VWS V14.01,2013-02-25 14:44:00,
2013-02-25 09:45:00,36.3,30.5,30.10,NNW,347,3.4,8.3,79,0.00,,,0.00,VWS V14.01,2013-02-25 14:45:00,
2013-02-25 09:46:00,36.4,30.3,30.10,NW,319,7.4,9.0,78,0.00,,,0.00,VWS V14.01,2013-02-25 14:46:00,
2013-02-25 09:47:00,36.5,30.1,30.10,North,356,0.0,7.4,78,0.00,,,0.00,VWS V14.01,2013-02-25 14:47:00,
2013-02-25 09:48:00,36.6,30.1,30.10,WNW,301,0.0,6.4,77,0.00,,,0.00,VWS V14.01,2013-02-25 14:48:00,
2013-02-25 09:49:00,36.7,30.1,30.10,NW,305,4.5,7.3,77,0.00,,---,0.00,VWS V14.01,2013-02-25 14:49:00,
2013-02-25 09:50:00,36.7,30.1,30.10,NW,319,5.0,5.3,77,0.00,,,0.00,VWS V14.01,2013-02-25 14:50:00,
2013-02-25 09:51:00,36.7,30.3,30.10,NW,309,5.2,7.1,77,0.00,,,0.00,VWS V14.01,2013-02-25 14:51:00,
2013-02-25 09:52:00,36.7,30.0,30.10,North,3,4.2,9.7,76,0.00,,,0.00,VWS V14.01,2013-02-25 14:52:00,
2013-02-25 09:53:00,36.8,30.2,30.10,North,7,0.0,5.2,77,0.00,,,0.00,VWS V14.01,2013-02-25 14:53:00,
2013-02-25 09:54:00,36.7,29.6,30.10,NNE,13,5.7,6.3,75,0.00,,---,0.00,VWS V14.01,2013-02-25 14:54:00,
2013-02-25 09:55:00,37.0,30.7,30.10,NW,321,7.8,10.0,78,0.00,,,0.00,VWS V14.01,2013-02-25 14:55:00,
2013-02-25 09:56:00,36.7,29.5,30.10,North,0,6.2,11.7,75,0.00,,,0.00,VWS V14.01,2013-02-25 14:56:00,
2013-02-25 09:57:00,36.8,30.0,30.10,NNE,24,0.0,6.3,76,0.00,,,0.00,VWS V14.01,2013-02-25 14:57:00,
2013-02-25 09:58:00,36.8,30.0,30.11,NNW,340,9.1,10.1,76,0.00,,,0.00,VWS V14.01,2013-02-25 14:58:00,
2013-02-25 09:59:00,36.9,30.1,30.10,NW,326,6.5,9.8,76,0.00,,,0.00,VWS V14.01,2013-02-25 14:59:00,
2013-02-25 10:00:00,37.0,30.0,30.11,North,359,0.0,7.0,75,0.00,,---,0.00,VWS V14.01,2013-02-25 15:00:00,
2013-02-25 10:01:00,36.9,29.8,30.11,NNW,346,7.0,8.1,75,0.00,,,0.00,VWS V14.01,2013-02-25 15:01:00,
2013-02-25 10:02:00,37.1,30.2,30.11,North,8,4.9,7.0,76,0.00,,,0.00,VWS V14.01,2013-02-25 15:02:00,
2013-02-25 10:03:00,37.2,30.7,30.11,North,11,0.0,5.3,77,0.00,,,0.00,VWS V14.01,2013-02-25 15:03:00,
2013-02-25 10:04:00,37.3,30.7,30.12,NNW,339,5.8,8.1,77,0.00,,,0.00,VWS V14.01,2013-02-25 15:04:00,
2013-02-25 10:05:00,37.3,30.3,30.12,NNE,32,3.4,6.0,76,0.00,,---,0.00,VWS V14.01,2013-02-25 15:05:00,
2013-02-25 10:06:00,37.3,30.2,30.12,NNE,14,4.3,8.9,75,0.00,,,0.00,VWS V14.01,2013-02-25 15:06:00,
2013-02-25 10:07:00,37.3,30.3,30.12,NE,38,6.0,6.3,76,0.00,,,0.00,VWS V14.01,2013-02-25 15:07:00,
2013-02-25 10:08:00,37.4,30.2,30.12,North,357,0.0,7.6,75,0.00,,,0.00,VWS V14.01,2013-02-25 15:08:00,
2013-02-25 10:09:00,37.5,30.4,30.12,NW,318,0.0,6.1,75,0.00,,,0.00,VWS V14.01,2013-02-25 15:09:00,
2013-02-25 10:10:00,37.3,30.1,30.12,NNW,330,6.2,7.2,75,0.00,,---,0.00,VWS V14.01,2013-02-25 15:10:00,
2013-02-25 10:11:00,37.3,30.0,30.12,NNE,17,7.0,9.5,75,0.00,,,0.00,VWS V14.01,2013-02-25 15:11:00,
2013-02-25 10:12:00,37.3,30.3,30.12,NNW,339,5.9,7.2,76,0.00,,,0.00,VWS V14.01,2013-02-25 15:12:00,
2013-02-25 10:13:00,37.2,30.3,30.11,NW,305,5.6,8.2,76,0.00,,,0.00,VWS V14.01,2013-02-25 15:13:00,
2013-02-25 10:14:00,37.3,30.4,30.11,NNW,335,6.1,6.1,76,0.00,,,0.00,VWS V14.01,2013-02-25 15:14:00,
2013-02-25 10:15:00,37.7,31.1,30.11,NNW,336,0.0,4.9,77,0.00,,---,0.00,VWS V14.01,2013-02-25 15:15:00,
2013-02-25 10:16:00,37.6,30.8,30.11,North,1,0.0,4.6,76,0.00,,,0.00,VWS V14.01,2013-02-25 15:16:00,
2013-02-25 10:17:00,37.7,31.1,30.11,NW,322,3.4,4.9,77,0.00,,,0.00,VWS V14.01,2013-02-25 15:17:00,
2013-02-25 10:18:00,37.8,30.7,30.11,NNW,332,3.4,6.6,75,0.00,,,0.00,VWS V14.01,2013-02-25 15:18:00,
2013-02-25 10:19:00,37.8,30.5,30.11,NNW,338,8.3,8.7,75,0.00,,,0.00,VWS V14.01,2013-02-25 15:19:00,
2013-02-25 10:20:00,37.7,30.6,30.11,West,264,0.0,7.2,75,0.00,,---,0.00,VWS V14.01,2013-02-25 15:20:00,
2013-02-25 10:21:00,37.8,30.6,30.11,North,354,7.2,7.2,75,0.00,,,0.00,VWS V14.01,2013-02-25 15:21:00,
2013-02-25 10:22:00,37.8,31.0,30.11,NNW,343,7.9,8.8,76,0.00,,,0.00,VWS V14.01,2013-02-25 15:22:00,
2013-02-25 10:23:00,37.8,30.8,30.11,North,11,0.0,8.9,76,0.00,,,0.00,VWS V14.01,2013-02-25 15:23:00,
2013-02-25 10:24:00,37.7,30.3,30.11,NNW,338,6.9,6.9,74,0.00,,,0.00,VWS V14.01,2013-02-25 15:24:00,
2013-02-25 10:25:00,37.4,30.4,30.11,NNW,343,11.3,13.3,76,0.00,,---,0.00,VWS V14.01,2013-02-25 15:25:00,
2013-02-25 10:26:00,37.4,30.4,30.11,North,350,12.3,12.4,76,0.00,,,0.00,VWS V14.01,2013-02-25 15:26:00,
2013-02-25 10:27:00,37.4,30.4,30.11,NW,309,7.7,13.3,76,0.00,,,0.00,VWS V14.01,2013-02-25 15:27:00,
2013-02-25 10:28:00,37.3,30.1,30.10,NE,42,3.3,10.4,75,0.00,,,0.00,VWS V14.01,2013-02-25 15:28:00,
2013-02-25 10:29:00,37.3,30.4,30.10,NW,321,0.0,7.5,76,0.00,,,0.00,VWS V14.01,2013-02-25 15:29:00,
2013-02-25 10:30:00,37.2,30.5,30.10,NNW,343,7.0,9.6,76,0.00,,---,0.00,VWS V14.01,2013-02-25 15:30:00,
2013-02-25 10:31:00,37.2,30.5,30.11,NNW,328,6.8,10.6,76,0.00,,,0.00,VWS V14.01,2013-02-25 15:31:00,
2013-02-25 10:32:00,37.2,30.5,30.10,North,0,5.7,9.6,76,0.00,,,0.00,VWS V14.01,2013-02-25 15:32:00,
2013-02-25 10:33:00,37.3,30.7,30.11,NW,323,3.3,10.4,77,0.00,,,0.00,VWS V14.01,2013-02-25 15:33:00,
2013-02-25 10:34:00,37.5,31.0,30.11,NNW,347,0.0,6.6,77,0.00,,,0.00,VWS V14.01,2013-02-25 15:34:00,
2013-02-25 10:35:00,37.7,31.0,30.10,North,4,6.3,8.1,77,0.00,,---,0.00,VWS V14.01,2013-02-25 15:35:00,
2013-02-25 10:36:00,37.6,31.0,30.10,North,359,5.3,7.1,77,0.00,,,0.00,VWS V14.01,2013-02-25 15:36:00,
2013-02-25 10:37:00,37.7,30.9,30.10,NNW,338,7.0,8.1,76,0.00,,,0.00,VWS V14.01,2013-02-25 15:37:00,
2013-02-25 10:38:00,37.8,30.9,30.10,NE,44,4.9,9.8,76,0.00,,,0.00,VWS V14.01,2013-02-25 15:38:00,
2013-02-25 10:39:00,37.8,30.6,30.10,North,0,8.0,10.1,75,0.00,,,0.00,VWS V14.01,2013-02-25 15:39:00,
2013-02-25 10:40:00,37.7,29.8,30.10,NW,322,8.8,10.6,73,0.00,,---,0.00,VWS V14.01,2013-02-25 15:40:00,
2013-02-25 10:41:00,37.7,30.2,30.10,NNE,22,10.6,14.7,74,0.00,,,0.00,VWS V14.01,2013-02-25 15:41:00,
2013-02-25 10:42:00,37.7,30.1,30.10,NNW,329,7.8,10.6,74,0.00,,,0.00,VWS V14.01,2013-02-25 15:42:00,
2013-02-25 10:43:00,37.7,30.6,30.10,WSW,249,3.5,9.6,75,0.00,,,0.00,VWS V14.01,2013-02-25 15:43:00,
2013-02-25 10:44:00,37.8,30.9,30.10,North,8,6.1,8.0,76,0.00,,,0.00,VWS V14.01,2013-02-25 15:44:00,
2013-02-25 10:45:00,37.8,30.4,30.10,NNW,333,7.7,10.0,74,0.00,,---,0.00,VWS V14.01,2013-02-25 15:45:00,
2013-02-25 10:46:00,37.7,30.1,30.10,NW,316,9.5,11.7,74,0.00,,,0.00,VWS V14.01,2013-02-25 15:46:00,
2013-02-25 10:47:00,37.8,30.4,30.10,NW,326,9.8,10.0,74,0.00,,,0.00,VWS V14.01,2013-02-25 15:47:00,
2013-02-25 10:48:00,37.8,30.4,30.10,NNE,15,7.6,12.8,74,0.00,,,0.00,VWS V14.01,2013-02-25 15:48:00,
2013-02-25 10:49:00,37.8,30.8,30.10,NW,309,6.9,11.0,76,0.00,,,0.00,VWS V14.01,2013-02-25 15:49:00,
2013-02-25 10:50:00,38.0,30.5,30.10,NNW,332,4.8,10.5,74,0.00,,---,0.00,VWS V14.01,2013-02-25 15:50:00,
2013-02-25 10:51:00,37.9,30.5,30.10,NNW,338,6.2,7.0,74,0.00,,,0.00,VWS V14.01,2013-02-25 15:51:00,
2013-02-25 10:52:00,38.0,30.5,30.10,NW,326,3.4,10.5,74,0.00,,,0.00,VWS V14.01,2013-02-25 15:52:00,
2013-02-25 10:53:00,38.1,30.7,30.10,NNE,24,0.0,9.9,74,0.00,,,0.00,VWS V14.01,2013-02-25 15:53:00,
2013-02-25 10:54:00,38.2,30.7,30.10,North,3,5.3,10.0,74,0.00,,,0.00,VWS V14.01,2013-02-25 15:54:00,
2013-02-25 10:55:00,38.6,31.2,30.10,North,0,0.0,6.2,74,0.00,,---,0.00,VWS V14.01,2013-02-25 15:55:00,
2013-02-25 10:56:00,38.5,31.3,30.10,NW,312,5.8,6.5,75,0.00,,,0.00,VWS V14.01,2013-02-25 15:56:00,
2013-02-25 10:57:00,38.6,31.3,30.10,North,0,0.0,6.2,75,0.00,,,0.00,VWS V14.01,2013-02-25 15:57:00,
2013-02-25 10:58:00,38.8,31.2,30.10,WNW,292,0.0,2.9,74,0.00,,,0.00,VWS V14.01,2013-02-25 15:58:00,
2013-02-25 10:59:00,38.6,30.3,30.11,NNE,13,8.3,13.2,72,0.00,,,0.00,VWS V14.01,2013-02-25 15:59:00,
2013-02-25 11:00:00,38.6,30.5,30.10,North,359,0.0,8.7,72,0.00,,---,0.00,VWS V14.01,2013-02-25 16:00:00,
2013-02-25 11:01:00,38.5,30.3,30.11,North,349,8.3,13.4,72,0.00,,,0.00,VWS V14.01,2013-02-25 16:01:00,
2013-02-25 11:02:00,38.7,30.6,30.10,North,359,0.0,8.7,72,0.00,,,0.00,VWS V14.01,2013-02-25 16:02:00,
2013-02-25 11:03:00,38.8,30.7,30.11,NNW,338,7.0,8.7,72,0.00,,,0.00,VWS V14.01,2013-02-25 16:03:00,
2013-02-25 11:04:00,38.9,30.3,30.11,North,1,8.0,8.6,71,0.00,,,0.00,VWS V14.01,2013-02-25 16:04:00,
2013-02-25 11:05:00,39.1,30.5,30.10,NW,325,3.5,9.8,71,0.00,,---,0.00,VWS V14.01,2013-02-25 16:05:00,
2013-02-25 11:06:00,38.9,30.5,30.11,North,11,9.8,9.8,72,0.00,,,0.00,VWS V14.01,2013-02-25 16:06:00,
2013-02-25 11:07:00,39.1,30.5,30.10,NW,326,3.4,9.8,71,0.00,,,0.00,VWS V14.01,2013-02-25 16:07:00,
2013-02-25 11:08:00,39.2,30.6,30.11,NNE,14,0.0,5.4,71,0.00,,,0.00,VWS V14.01,2013-02-25 16:08:00,
2013-02-25 11:09:00,39.3,31.0,30.11,NNE,14,0.0,0.0,72,0.00,,,0.00,VWS V14.01,2013-02-25 16:09:00,
2013-02-25 11:10:00,39.8,31.4,30.12,NNE,14,0.0,0.0,72,0.00,,---,0.00,VWS V14.01,2013-02-25 16:10:00,
2013-02-25 11:11:00,39.6,30.9,30.11,NNE,14,0.0,0.0,71,0.00,,,0.00,VWS V14.01,2013-02-25 16:11:00,
2013-02-25 11:12:00,39.8,31.3,30.12,NNE,14,0.0,0.0,71,0.00,,,0.00,VWS V14.01,2013-02-25 16:12:00,
2013-02-25 11:13:00,40.0,31.5,30.12,North,0,3.3,7.5,71,0.00,,,0.00,VWS V14.01,2013-02-25 16:13:00,
2013-02-25 11:14:00,40.1,31.4,30.12,NNE,25,4.5,6.1,71,0.00,,,0.00,VWS V14.01,2013-02-25 16:14:00,
2013-02-25 11:15:00,40.3,30.6,30.12,North,7,6.0,7.0,68,0.00,,---,0.00,VWS V14.01,2013-02-25 16:15:00,
2013-02-25 11:16:00,40.3,31.1,30.12,WNW,287,0.0,5.3,70,0.00,,,0.00,VWS V14.01,2013-02-25 16:16:00,
2013-02-25 11:17:00,40.3,30.6,30.12,North,7,6.0,7.0,68,0.00,,,0.00,VWS V14.01,2013-02-25 16:17:00,
2013-02-25 11:18:00,40.2,30.8,30.12,NNW,346,7.4,8.3,69,0.00,,,0.00,VWS V14.01,2013-02-25 16:18:00,
2013-02-25 11:19:00,40.2,30.8,30.12,NNE,25,10.1,10.1,69,0.00,,,0.00,VWS V14.01,2013-02-25 16:19:00,
2013-02-25 11:20:00,40.2,30.3,30.12,North,0,4.4,9.3,67,0.00,,---,0.00,VWS V14.01,2013-02-25 16:20:00,
2013-02-25 11:21:00,40.3,30.4,30.12,North,8,4.7,6.8,67,0.00,,,0.00,VWS V14.01,2013-02-25 16:21:00,
2013-02-25 11:22:00,40.2,30.3,30.12,North,0,4.4,9.3,67,0.00,,,0.00,VWS V14.01,2013-02-25 16:22:00,
2013-02-25 11:23:00,40.2,30.9,30.12,NW,319,0.0,4.5,69,0.00,,,0.00,VWS V14.01,2013-02-25 16:23:00,
2013-02-25 11:24:00,40.2,30.8,30.12,West,277,0.0,3.2,69,0.00,,,0.00,VWS V14.01,2013-02-25 16:24:00,
2013-02-25 11:25:00,39.9,30.4,30.12,NW,305,0.0,6.8,69,0.00,,---,0.00,VWS V14.01,2013-02-25 16:25:00,
2013-02-25 11:26:00,39.9,30.0,30.12,NNW,333,6.2,9.4,68,0.00,,,0.00,VWS V14.01,2013-02-25 16:26:00,
2013-02-25 11:27:00,39.9,30.4,30.12,NW,305,0.0,6.8,69,0.00,,,0.00,VWS V14.01,2013-02-25 16:27:00,
2013-02-25 11:28:00,39.8,30.7,30.12,NW,305,4.3,7.8,70,0.00,,,0.00,VWS V14.01,2013-02-25 16:28:00,
2013-02-25 11:29:00,39.5,29.9,30.12,North,6,9.3,10.6,68,0.00,,,0.00,VWS V14.01,2013-02-25 16:29:00,
2013-02-25 11:30:00,39.2,30.1,30.12,WNW,292,0.0,5.3,70,0.00,,---,0.00,VWS V14.01,2013-02-25 16:30:00,
2013-02-25 11:31:00,39.2,30.0,30.12,North,359,3.2,8.3,69,0.00,,,0.00,VWS V14.01,2013-02-25 16:31:00,
2013-02-25 11:32:00,39.2,30.1,30.12,WNW,292,0.0,5.3,70,0.00,,,0.00,VWS V14.01,2013-02-25 16:32:00,
2013-02-25 11:33:00,39.3,30.4,30.12,WNW,292,0.0,0.0,70,0.00,,,0.00,VWS V14.01,2013-02-25 16:33:00,
2013-02-25 11:34:00,39.4,30.7,30.12,NNW,330,2.5,4.2,71,0.00,,,0.00,VWS V14.01,2013-02-25 16:34:00,
2013-02-25 11:35:00,39.5,30.0,30.12,NNW,335,8.1,8.1,68,0.00,,---,0.00,VWS V14.01,2013-02-25 16:35:00,
2013-02-25 11:36:00,39.6,30.7,30.12,NW,321,5.2,9.4,70,0.00,,,0.00,VWS V14.01,2013-02-25 16:36:00,
2013-02-25 11:37:00,39.5,29.8,30.12,NNE,22,3.5,10.1,68,0.00,,,0.00,VWS V14.01,2013-02-25 16:37:00,
2013-02-25 11:38:00,39.6,30.3,30.12,NW,322,0.0,8.9,69,0.00,,,0.00,VWS V14.01,2013-02-25 16:38:00,
2013-02-25 11:39:00,39.6,30.1,30.12,WNW,290,0.0,8.8,68,0.00,,,0.00,VWS V14.01,2013-02-25 16:39:00,
2013-02-25 11:40:00,39.8,30.3,30.12,NE,35,6.2,6.2,69,0.00,,---,0.00,VWS V14.01,2013-02-25 16:40:00,
2013-02-25 11:41:00,39.7,29.9,30.12,NNE,25,6.1,10.4,68,0.00,,,0.00,VWS V14.01,2013-02-25 16:41:00,
2013-02-25 11:42:00,39.9,30.3,30.12,NE,45,4.3,9.6,68,0.00,,,0.00,VWS V14.01,2013-02-25 16:42:00,
2013-02-25 11:43:00,39.7,29.6,30.11,North,7,9.4,10.9,67,0.00,,,0.00,VWS V14.01,2013-02-25 16:43:00,
2013-02-25 11:44:00,39.6,29.6,30.12,NNW,339,9.8,9.8,67,0.00,,,0.00,VWS V14.01,2013-02-25 16:44:00,
2013-02-25 11:45:00,39.5,29.9,30.12,North,359,5.0,6.8,68,0.00,,---,0.00,VWS V14.01,2013-02-25 16:45:00,
2013-02-25 11:46:00,39.4,29.7,30.12,North,359,4.7,9.4,68,0.00,,,0.00,VWS V14.01,2013-02-25 16:46:00,
2013-02-25 11:47:00,39.5,29.9,30.12,NNE,32,6.1,9.2,68,0.00,,,0.00,VWS V14.01,2013-02-25 16:47:00,
2013-02-25 11:48:00,39.5,30.0,30.12,NNE,13,5.7,6.8,69,0.00,,,0.00,VWS V14.01,2013-02-25 16:48:00,
2013-02-25 11:49:00,39.5,30.0,30.12,North,0,5.5,7.1,68,0.00,,,0.00,VWS V14.01,2013-02-25 16:49:00,
2013-02-25 11:50:00,39.6,28.7,30.12,North,353,9.9,12.0,65,0.00,,---,0.00,VWS V14.01,2013-02-25 16:50:00,
2013-02-25 11:51:00,39.7,30.5,30.12,NW,319,4.8,4.9,69,0.00,,,0.00,VWS V14.01,2013-02-25 16:51:00,
2013-02-25 11:52:00,39.8,29.7,30.12,North,7,10.0,10.6,67,0.00,,,0.00,VWS V14.01,2013-02-25 16:52:00,
2013-02-25 11:53:00,39.6,29.1,30.12,NNW,342,11.1,12.0,66,0.00,,,0.00,VWS V14.01,2013-02-25 16:53:00,
2013-02-25 11:54:00,39.6,29.7,30.12,NNW,332,8.2,11.1,68,0.00,,,0.00,VWS V14.01,2013-02-25 16:54:00,
2013-02-25 11:55:00,39.9,29.6,30.12,West,278,0.0,0.0,66,0.00,,---,0.00,VWS V14.01,2013-02-25 16:55:00,
2013-02-25 11:56:00,39.8,29.6,30.12,North,356,7.7,11.8,67,0.00,,,0.00,VWS V14.01,2013-02-25 16:56:00,
2013-02-25 11:57:00,39.9,29.7,30.12,West,278,0.0,9.1,67,0.00,,,0.00,VWS V14.01,2013-02-25 16:57:00,
2013-02-25 11:58:00,40.0,29.8,30.12,NW,318,6.8,8.9,67,0.00,,,0.00,VWS V14.01,2013-02-25 16:58:00,
2013-02-25 11:59:00,40.1,29.8,30.12,North,1,6.0,6.8,66,0.00,,,0.00,VWS V14.01,2013-02-25 16:59:00,
2013-02-25 12:00:00,40.2,29.4,30.12,North,359,7.9,8.0,65,0.00,,---,0.00,VWS V14.01,2013-02-25 17:00:00,
2013-02-25 12:01:00,40.2,29.8,30.12,North,10,4.3,8.9,66,0.00,,,0.00,VWS V14.01,2013-02-25 17:01:00,
2013-02-25 12:02:00,40.2,29.3,30.12,North,10,0.0,4.3,65,0.00,,,0.00,VWS V14.01,2013-02-25 17:02:00,
2013-02-25 12:03:00,40.2,29.6,30.12,NW,312,5.5,9.6,66,0.00,,,0.00,VWS V14.01,2013-02-25 17:03:00,
2013-02-25 12:04:00,40.2,29.7,30.12,NW,318,0.0,5.5,66,0.00,,,0.00,VWS V14.01,2013-02-25 17:04:00,
2013-02-25 12:05:00,40.7,30.5,30.12,NNE,15,6.1,8.6,67,0.00,,---,0.00,VWS V14.01,2013-02-25 17:05:00,
2013-02-25 12:06:00,40.5,30.0,30.12,NNW,329,5.1,9.2,66,0.00,,,0.00,VWS V14.01,2013-02-25 17:06:00,
2013-02-25 12:07:00,40.6,30.3,30.12,NNE,25,4.5,10.4,66,0.00,,,0.00,VWS V14.01,2013-02-25 17:07:00,
2013-02-25 12:08:00,40.7,30.4,30.12,North,3,9.1,9.6,66,0.00,,,0.00,VWS V14.01,2013-02-25 17:08:00,
2013-02-25 12:09:00,40.6,30.3,30.12,NW,314,5.0,10.4,66,0.00,,,0.00,VWS V14.01,2013-02-25 17:09:00,
2013-02-25 12:10:00,40.8,30.8,30.12,WNW,284,3.2,10.1,67,0.00,,---,0.00,VWS V14.01,2013-02-25 17:10:00,
2013-02-25 12:11:00,40.7,30.4,30.12,NE,51,4.5,8.6,66,0.00,,,0.00,VWS V14.01,2013-02-25 17:11:00,
2013-02-25 12:12:00,40.8,31.0,30.12,NNW,343,8.4,10.3,68,0.00,,,0.00,VWS V14.01,2013-02-25 17:12:00,
2013-02-25 12:13:00,40.7,30.6,30.12,WNW,284,0.0,10.1,67,0.00,,,0.00,VWS V14.01,2013-02-25 17:13:00,
2013-02-25 12:14:00,40.6,30.5,30.12,NNW,346,10.2,13.4,67,0.00,,,0.00,VWS V14.01,2013-02-25 17:14:00,
2013-02-25 12:15:00,40.6,30.5,30.12,WNW,283,9.0,13.4,67,0.00,,,0.00,VWS V14.01,2013-02-25 17:15:00,
2013-02-25 12:16:00,40.5,29.9,30.12,NNW,342,7.2,7.2,66,0.00,,---,0.00,VWS V14.01,2013-02-25 17:16:00,
2013-02-25 12:17:00,40.6,30.2,30.12,West,281,0.0,8.8,66,0.00,,,0.00,VWS V14.01,2013-02-25 17:17:00,
2013-02-25 12:18:00,40.5,30.0,30.12,North,356,7.4,7.8,66,0.00,,,0.00,VWS V14.01,2013-02-25 17:18:00,
2013-02-25 12:19:00,40.5,30.4,30.12,North,3,5.0,9.7,67,0.00,,,0.00,VWS V14.01,2013-02-25 17:19:00,
2013-02-25 12:20:00,40.5,30.2,30.12,NNW,329,7.1,8.2,66,0.00,,,0.00,VWS V14.01,2013-02-25 17:20:00,
2013-02-25 12:21:00,40.6,30.3,30.12,WSW,238,0.0,6.1,66,0.00,,---,0.00,VWS V14.01,2013-02-25 17:21:00,
2013-02-25 12:22:00,40.5,30.3,30.12,WNW,300,6.1,7.7,67,0.00,,,0.00,VWS V14.01,2013-02-25 17:22:00,
2013-02-25 12:23:00,40.7,30.3,30.12,WSW,238,0.0,6.1,66,0.00,,,0.00,VWS V14.01,2013-02-25 17:23:00,
2013-02-25 12:24:00,40.7,30.0,30.12,West,260,5.3,7.9,66,0.00,,,0.00,VWS V14.01,2013-02-25 17:24:00,
2013-02-25 12:25:00,40.8,30.6,30.12,WNW,295,5.5,6.0,67,0.00,,,0.00,VWS V14.01,2013-02-25 17:25:00,
2013-02-25 12:26:00,41.2,30.9,30.12,West,262,0.0,0.0,66,0.00,,---,0.00,VWS V14.01,2013-02-25 17:26:00,
2013-02-25 12:27:00,41.1,30.7,30.12,West,262,0.0,5.8,66,0.00,,,0.00,VWS V14.01,2013-02-25 17:27:00,
2013-02-25 12:28:00,41.3,30.9,30.12,West,262,0.0,0.0,66,0.00,,,0.00,VWS V14.01,2013-02-25 17:28:00,
2013-02-25 12:29:00,41.6,31.3,30.12,West,262,0.0,0.0,67,0.00,,,0.00,VWS V14.01,2013-02-25 17:29:00,
2013-02-25 12:30:00,41.6,30.8,30.12,WNW,298,3.1,6.0,65,0.00,,,0.00,VWS V14.01,2013-02-25 17:30:00,
2013-02-25 12:31:00,41.9,30.6,30.12,WNW,283,0.0,7.3,64,0.00,,---,0.00,VWS V14.01,2013-02-25 17:31:00,
2013-02-25 12:32:00,41.8,31.0,30.12,NW,304,7.3,7.7,65,0.00,,,0.00,VWS V14.01,2013-02-25 17:32:00,
2013-02-25 12:33:00,41.9,30.7,30.12,WNW,283,0.0,7.3,64,0.00,,,0.00,VWS V14.01,2013-02-25 17:33:00,
2013-02-25 12:34:00,41.9,30.1,30.12,NNE,13,3.2,6.9,63,0.00,,,0.00,VWS V14.01,2013-02-25 17:34:00,
2013-02-25 12:35:00,41.9,30.2,30.12,NW,326,0.0,3.3,63,0.00,,,0.00,VWS V14.01,2013-02-25 17:35:00,
2013-02-25 12:36:00,42.0,29.8,30.12,North,352,4.8,7.5,62,0.00,,---,0.00,VWS V14.01,2013-02-25 17:36:00,
2013-02-25 12:37:00,42.1,30.4,30.12,West,263,3.4,8.3,63,0.00,,,0.00,VWS V14.01,2013-02-25 17:37:00,
2013-02-25 12:38:00,42.0,29.5,30.12,North,352,3.4,7.5,61,0.00,,,0.00,VWS V14.01,2013-02-25 17:38:00,
2013-02-25 12:39:00,41.9,29.5,30.12,WSW,245,0.0,7.6,61,0.00,,,0.00,VWS V14.01,2013-02-25 17:39:00,
2013-02-25 12:40:00,41.8,29.8,30.12,WNW,288,0.0,7.6,62,0.00,,,0.00,VWS V14.01,2013-02-25 17:40:00,
2013-02-25 12:41:00,41.8,30.1,30.13,WNW,285,0.0,6.0,63,0.00,,---,0.00,VWS V14.01,2013-02-25 17:41:00,
2013-02-25 12:42:00,41.8,29.8,30.12,WNW,302,4.3,8.9,62,0.00,,,0.00,VWS V14.01,2013-02-25 17:42:00,
2013-02-25 12:43:00,41.7,30.0,30.12,WNW,285,0.0,6.0,63,0.00,,,0.00,VWS V14.01,2013-02-25 17:43:00,
2013-02-25 12:44:00,41.4,29.5,30.12,WNW,285,0.0,0.0,62,0.00,,,0.00,VWS V14.01,2013-02-25 17:44:00,
2013-02-25 12:45:00,41.4,29.8,30.12,WNW,285,0.0,0.0,63,0.00,,,0.00,VWS V14.01,2013-02-25 17:45:00,
2013-02-25 12:46:00,41.3,30.5,30.12,NNW,328,0.0,0.0,65,0.00,,---,0.00,VWS V14.01,2013-02-25 17:46:00,
2013-02-25 12:47:00,41.2,30.5,30.12,NNW,328,0.0,6.2,65,0.00,,,0.00,VWS V14.01,2013-02-25 17:47:00,
2013-02-25 12:48:00,41.3,30.5,30.12,NNW,328,0.0,0.0,65,0.00,,,0.00,VWS V14.01,2013-02-25 17:48:00,
2013-02-25 12:49:00,41.5,31.0,30.12,NNW,328,0.0,0.0,66,0.00,,,0.00,VWS V14.01,2013-02-25 17:49:00,
2013-02-25 12:50:00,41.6,30.7,30.12,NNW,328,0.0,0.0,65,0.00,,,0.00,VWS V14.01,2013-02-25 17:50:00,
2013-02-25 12:51:00,42.2,31.4,30.12,WNW,284,0.0,0.0,65,0.00,,---,0.00,VWS V14.01,2013-02-25 17:51:00,
2013-02-25 12:52:00,42.0,31.1,30.12,WNW,284,0.0,3.3,65,0.00,,,0.00,VWS V14.01,2013-02-25 17:52:00,
2013-02-25 12:53:00,42.2,31.4,30.12,WNW,284,0.0,0.0,65,0.00,,,0.00,VWS V14.01,2013-02-25 17:53:00,
2013-02-25 12:54:00,42.4,31.0,30.12,North,359,4.7,6.8,64,0.00,,,0.00,VWS V14.01,2013-02-25 17:54:00,
2013-02-25 12:55:00,42.5,30.9,30.12,WNW,291,0.0,7.8,63,0.00,,,0.00,VWS V14.01,2013-02-25 17:55:00,
2013-02-25 12:56:00,42.2,30.1,30.13,NW,322,6.5,9.1,62,0.00,,---,0.00,VWS V14.01,2013-02-25 17:56:00,
2013-02-25 12:57:00,42.4,30.1,30.12,NNW,336,5.7,9.8,61,0.00,,,0.00,VWS V14.01,2013-02-25 17:57:00,
2013-02-25 12:58:00,42.2,30.1,30.13,WNW,294,5.3,9.1,62,0.00,,,0.00,VWS V14.01,2013-02-25 17:58:00,
2013-02-25 12:59:00,41.8,29.5,30.13,NW,304,6.4,9.6,61,0.00,,,0.00,VWS V14.01,2013-02-25 17:59:00,
2013-02-25 13:00:00,41.4,29.5,30.13,West,276,3.0,9.1,62,0.00,,,0.00,VWS V14.01,2013-02-25 18:00:00,
2013-02-25 13:01:00,41.1,30.1,30.13,NNW,339,0.0,3.2,64,0.00,,---,0.00,VWS V14.01,2013-02-25 18:01:00,
2013-02-25 13:02:00,41.2,29.9,30.13,NNW,339,3.2,3.2,64,0.00,,,0.00,VWS V14.01,2013-02-25 18:02:00,
2013-02-25 13:03:00,41.1,30.1,30.13,NNW,339,0.0,3.2,64,0.00,,,0.00,VWS V14.01,2013-02-25 18:03:00,
2013-02-25 13:04:00,41.0,29.8,30.13,North,1,0.0,7.3,64,0.00,,,0.00,VWS V14.01,2013-02-25 18:04:00,
2013-02-25 13:05:00,41.1,30.0,30.13,North,1,0.0,0.0,64,0.00,,,0.00,VWS V14.01,2013-02-25 18:05:00,
2013-02-25 13:06:00,41.5,30.3,30.13,North,352,0.0,0.0,64,0.00,,---,0.00,VWS V14.01,2013-02-25 18:06:00,
2013-02-25 13:07:00,41.3,30.1,30.13,North,352,0.0,5.5,64,0.00,,,0.00,VWS V14.01,2013-02-25 18:07:00,
2013-02-25 13:08:00,41.5,30.3,30.12,North,352,0.0,0.0,64,0.00,,,0.00,VWS V14.01,2013-02-25 18:08:00,
2013-02-25 13:09:00,41.7,30.3,30.13,North,352,0.0,0.0,64,0.00,,,0.00,VWS V14.01,2013-02-25 18:09:00,
2013-02-25 13:10:00,41.9,30.0,30.13,North,359,5.9,7.8,62,0.00,,,0.00,VWS V14.01,2013-02-25 18:10:00,
2013-02-25 13:11:00,42.2,29.7,30.13,North,0,0.0,0.0,61,0.00,,---,0.00,VWS V14.01,2013-02-25 18:11:00,
2013-02-25 13:12:00,42.1,29.4,30.13,North,0,0.0,8.1,60,0.00,,,0.00,VWS V14.01,2013-02-25 18:12:00,
2013-02-25 13:13:00,42.2,29.7,30.13,North,0,0.0,0.0,61,0.00,,,0.00,VWS V14.01,2013-02-25 18:13:00,
2013-02-25 13:14:00,42.3,30.5,30.13,NNE,22,2.9,5.1,63,0.00,,,0.00,VWS V14.01,2013-02-25 18:14:00,
2013-02-25 13:15:00,42.2,29.9,30.13,NNE,13,5.7,8.0,61,0.00,,,0.00,VWS V14.01,2013-02-25 18:15:00,
2013-02-25 13:16:00,41.8,29.4,30.13,NNW,335,5.0,5.2,61,0.00,,---,0.00,VWS V14.01,2013-02-25 18:16:00,
2013-02-25 13:17:00,41.8,29.5,30.13,North,6,0.0,0.0,61,0.00,,,0.00,VWS V14.01,2013-02-25 18:17:00,
2013-02-25 13:18:00,41.8,29.4,30.13,NW,318,5.2,6.5,61,0.00,,,0.00,VWS V14.01,2013-02-25 18:18:00,
2013-02-25 13:19:00,41.7,29.9,30.13,WNW,301,4.8,6.4,63,0.00,,,0.00,VWS V14.01,2013-02-25 18:19:00,
2013-02-25 13:20:00,41.6,29.6,30.13,NNW,332,4.9,8.7,62,0.00,,,0.00,VWS V14.01,2013-02-25 18:20:00,
2013-02-25 13:21:00,41.3,29.5,30.13,NW,304,0.0,0.0,63,0.00,,---,0.00,VWS V14.01,2013-02-25 18:21:00,
2013-02-25 13:22:00,41.4,29.7,30.12,NW,304,0.0,3.2,63,0.00,,,0.00,VWS V14.01,2013-02-25 18:22:00,
2013-02-25 13:23:00,41.3,29.5,30.13,NW,304,0.0,0.0,63,0.00,,,0.00,VWS V14.01,2013-02-25 18:23:00,
2013-02-25 13:24:00,41.2,29.6,30.12,NW,304,0.0,0.0,63,0.00,,,0.00,VWS V14.01,2013-02-25 18:24:00,
2013-02-25 13:25:00,41.2,29.4,30.12,NW,314,0.0,7.3,63,0.00,,,0.00,VWS V14.01,2013-02-25 18:25:00,
2013-02-25 13:26:00,41.2,29.8,30.13,NNW,329,5.0,5.0,64,0.00,,---,0.00,VWS V14.01,2013-02-25 18:26:00,
2013-02-25 13:27:00,41.1,29.6,30.13,WNW,291,0.0,8.0,63,0.00,,,0.00,VWS V14.01,2013-02-25 18:27:00,
2013-02-25 13:28:00,41.2,29.8,30.12,NNW,329,5.0,5.0,64,0.00,,,0.00,VWS V14.01,2013-02-25 18:28:00,
2013-02-25 13:29:00,41.4,30.3,30.12,West,269,5.7,7.3,64,0.00,,,0.00,VWS V14.01,2013-02-25 18:29:00,
2013-02-25 13:30:00,41.5,29.8,30.13,NNW,332,3.5,11.2,63,0.00,,,0.00,VWS V14.01,2013-02-25 18:30:00,
2013-02-25 13:31:00,42.1,29.8,30.13,NW,318,0.0,0.0,61,0.00,,---,0.00,VWS V14.01,2013-02-25 18:31:00,
2013-02-25 13:32:00,41.9,29.9,30.13,NW,318,0.0,0.0,62,0.00,,,0.00,VWS V14.01,2013-02-25 18:32:00,
2013-02-25 13:33:00,42.1,29.8,30.13,NW,318,0.0,0.0,61,0.00,,,0.00,VWS V14.01,2013-02-25 18:33:00,
2013-02-25 13:34:00,42.2,29.8,30.13,NNE,30,0.0,7.7,61,0.00,,,0.00,VWS V14.01,2013-02-25 18:34:00,
2013-02-25 13:35:00,42.3,29.8,30.13,NNE,22,4.3,4.3,61,0.00,,,0.00,VWS V14.01,2013-02-25 18:35:00,
2013-02-25 13:36:00,42.6,29.3,30.13,NNW,338,0.0,6.9,59,0.00,,---,0.00,VWS V14.01,2013-02-25 18:36:00,
2013-02-25 13:37:00,42.5,29.8,30.13,NNW,347,0.0,5.4,60,0.00,,,0.00,VWS V14.01,2013-02-25 18:37:00,
2013-02-25 13:38:00,42.6,29.3,30.12,NNW,338,0.0,6.9,59,0.00,,,0.00,VWS V14.01,2013-02-25 18:38:00,
2013-02-25 13:39:00,42.7,29.3,30.12,WNW,284,5.4,5.8,59,0.00,,,0.00,VWS V14.01,2013-02-25 18:39:00,
2013-02-25 13:40:00,42.5,28.3,30.12,NNW,342,7.7,10.0,57,0.00,,,0.00,VWS V14.01,2013-02-25 18:40:00,
2013-02-25 13:41:00,42.1,29.0,30.13,NNE,13,4.6,5.8,59,0.00,,---,0.00,VWS V14.01,2013-02-25 18:41:00,
2013-02-25 13:42:00,42.1,28.5,30.12,North,354,5.8,10.9,58,0.00,,,0.00,VWS V14.01,2013-02-25 18:42:00,
2013-02-25 13:43:00,42.1,29.0,30.12,NNE,13,4.6,5.8,59,0.00,,,0.00,VWS V14.01,2013-02-25 18:43:00,
2013-02-25 13:44:00,41.9,29.2,30.12,NNE,30,3.2,5.5,60,0.00,,,0.00,VWS V14.01,2013-02-25 18:44:00,
2013-02-25 13:45:00,41.8,29.0,30.12,North,359,0.0,3.5,60,0.00,,,0.00,VWS V14.01,2013-02-25 18:45:00,
2013-02-25 13:46:00,41.7,29.2,30.13,NW,321,0.0,0.0,61,0.00,,---,0.00,VWS V14.01,2013-02-25 18:46:00,
2013-02-25 13:47:00,41.7,29.0,30.12,NW,319,5.5,6.0,60,0.00,,,0.00,VWS V14.01,2013-02-25 18:47:00,
2013-02-25 13:48:00,41.7,29.3,30.12,NW,321,0.0,5.5,61,0.00,,,0.00,VWS V14.01,2013-02-25 18:48:00,
2013-02-25 13:49:00,41.8,29.6,30.12,NW,321,0.0,0.0,62,0.00,,,0.00,VWS V14.01,2013-02-25 18:49:00,
2013-02-25 13:50:00,41.9,29.6,30.12,NW,321,0.0,0.0,61,0.00,,,0.00,VWS V14.01,2013-02-25 18:50:00,
2013-02-25 13:51:00,42.0,29.0,30.12,NW,321,0.0,0.0,60,0.00,,---,0.00,VWS V14.01,2013-02-25 18:51:00,
2013-02-25 13:52:00,42.0,29.0,30.12,NW,321,0.0,0.0,60,0.00,,,0.00,VWS V14.01,2013-02-25 18:52:00,
2013-02-25 13:53:00,42.0,28.9,30.12,NW,321,0.0,0.0,60,0.00,,,0.00,VWS V14.01,2013-02-25 18:53:00,
2013-02-25 13:54:00,42.1,29.4,30.12,North,6,6.3,6.3,60,0.00,,,0.00,VWS V14.01,2013-02-25 18:54:00,
2013-02-25 13:55:00,42.2,29.5,30.12,NW,326,5.7,6.6,60,0.00,,,0.00,VWS V14.01,2013-02-25 18:55:00,
2013-02-25 13:56:00,42.5,29.7,30.12,ENE,72,0.0,5.8,60,0.00,,---,0.00,VWS V14.01,2013-02-25 18:56:00,
2013-02-25 13:57:00,42.3,29.6,30.12,NNE,31,0.0,5.5,60,0.00,,,0.00,VWS V14.01,2013-02-25 18:57:00,
2013-02-25 13:58:00,42.5,29.9,30.12,ENE,72,5.8,6.8,61,0.00,,,0.00,VWS V14.01,2013-02-25 18:58:00,
2013-02-25 13:59:00,42.6,29.8,30.12,ENE,59,0.0,5.8,60,0.00,,,0.00,VWS V14.01,2013-02-25 18:59:00,
2013-02-25 14:00:00,42.9,30.2,30.12,NW,308,0.0,4.3,61,0.00,,,0.00,VWS V14.01,2013-02-25 19:00:00,
2013-02-25 14:01:00,43.2,29.6,30.12,NW,308,0.0,0.0,58,0.00,,---,0.00,VWS V14.01,2013-02-25 19:01:00,
2013-02-25 14:02:00,43.2,29.4,30.12,NW,308,0.0,0.0,58,0.00,,,0.00,VWS V14.01,2013-02-25 19:02:00,
2013-02-25 14:03:00,43.2,29.4,30.12,NW,308,0.0,0.0,58,0.00,,,0.00,VWS V14.01,2013-02-25 19:03:00,
2013-02-25 14:04:00,43.1,29.9,30.12,NW,308,0.0,0.0,59,0.00,,,0.00,VWS V14.01,2013-02-25 19:04:00,
2013-02-25 14:05:00,43.1,29.5,30.12,NW,307,4.3,6.0,58,0.00,,,0.00,VWS V14.01,2013-02-25 19:05:00,
2013-02-25 14:06:00,42.8,28.9,30.12,North,356,0.0,6.2,58,0.00,,---,0.00,VWS V14.01,2013-02-25 19:06:00,
2013-02-25 14:07:00,43.2,29.7,30.12,NW,322,0.0,2.8,59,0.00,,,0.00,VWS V14.01,2013-02-25 19:07:00,
2013-02-25 14:08:00,42.8,29.0,30.12,NNE,13,6.2,6.8,58,0.00,,,0.00,VWS V14.01,2013-02-25 19:08:00,
2013-02-25 14:09:00,42.6,29.4,30.12,NNW,339,6.9,8.9,59,0.00,,,0.00,VWS V14.01,2013-02-25 19:09:00,
2013-02-25 14:10:00,42.3,28.7,30.12,North,1,6.0,7.0,58,0.00,,,0.00,VWS V14.01,2013-02-25 19:10:00,
2013-02-25 14:11:00,42.2,29.0,30.13,NW,321,2.3,6.3,59,0.00,,---,0.00,VWS V14.01,2013-02-25 19:11:00,
2013-02-25 14:12:00,42.2,29.2,30.12,NNE,14,0.0,1.9,60,0.00,,,0.00,VWS V14.01,2013-02-25 19:12:00,
2013-02-25 14:13:00,42.2,29.2,30.12,NNW,328,5.7,6.5,60,0.00,,,0.00,VWS V14.01,2013-02-25 19:13:00,
2013-02-25 14:14:00,42.2,28.9,30.13,NW,321,0.0,6.3,59,0.00,,,0.00,VWS V14.01,2013-02-25 19:14:00,
2013-02-25 14:15:00,42.2,28.9,30.13,NW,321,0.0,0.0,59,0.00,,,0.00,VWS V14.01,2013-02-25 19:15:00,
2013-02-25 14:16:00,42.7,29.0,30.13,WNW,301,3.1,3.1,58,0.00,,---,0.00,VWS V14.01,2013-02-25 19:16:00,
2013-02-25 14:17:00,42.5,29.6,30.13,NNW,342,5.8,5.8,60,0.00,,,0.00,VWS V14.01,2013-02-25 19:17:00,
2013-02-25 14:18:00,42.6,28.9,30.13,WNW,301,0.0,6.6,58,0.00,,,0.00,VWS V14.01,2013-02-25 19:18:00,
2013-02-25 14:19:00,42.8,29.4,30.13,NNE,28,3.2,6.8,59,0.00,,,0.00,VWS V14.01,2013-02-25 19:19:00,
2013-02-25 14:20:00,43.0,29.7,30.12,North,359,3.5,3.5,59,0.00,,,0.00,VWS V14.01,2013-02-25 19:20:00,
2013-02-25 14:21:00,43.4,29.3,30.13,NNW,328,9.4,9.9,57,0.00,,---,0.00,VWS V14.01,2013-02-25 19:21:00,
2013-02-25 14:22:00,43.4,29.5,30.12,NW,312,5.3,6.4,58,0.00,,,0.00,VWS V14.01,2013-02-25 19:22:00,
2013-02-25 14:23:00,43.4,29.6,30.13,NW,311,0.0,5.8,58,0.00,,,0.00,VWS V14.01,2013-02-25 19:23:00,
2013-02-25 14:24:00,43.1,29.0,30.13,North,359,0.0,13.9,57,0.00,,,0.00,VWS V14.01,2013-02-25 19:24:00,
2013-02-25 14:25:00,42.7,29.1,30.13,NNW,342,7.0,9.1,58,0.00,,,0.00,VWS V14.01,2013-02-25 19:25:00,
2013-02-25 14:26:00,42.4,29.6,30.13,NNE,13,2.9,4.7,60,0.00,,---,0.00,VWS V14.01,2013-02-25 19:26:00,
2013-02-25 14:27:00,42.3,29.0,30.13,NNW,339,6.7,7.4,59,0.00,,,0.00,VWS V14.01,2013-02-25 19:27:00,
2013-02-25 14:28:00,42.4,29.6,30.13,North,359,3.4,6.7,60,0.00,,,0.00,VWS V14.01,2013-02-25 19:28:00,
2013-02-25 14:29:00,42.4,29.8,30.13,NNE,13,0.0,4.7,61,0.00,,,0.00,VWS V14.01,2013-02-25 19:29:00,
2013-02-25 14:30:00,42.4,29.5,30.13,NNW,329,0.0,6.1,60,0.00,,,0.00,VWS V14.01,2013-02-25 19:30:00,
2013-02-25 14:31:00,41.9,28.9,30.13,WNW,287,4.4,8.6,60,0.00,,---,0.00,VWS V14.01,2013-02-25 19:31:00,
2013-02-25 14:32:00,42.1,28.5,30.13,North,7,6.3,7.7,58,0.00,,,0.00,VWS V14.01,2013-02-25 19:32:00,
2013-02-25 14:33:00,42.1,29.1,30.13,NW,309,0.0,8.9,60,0.00,,,0.00,VWS V14.01,2013-02-25 19:33:00,
2013-02-25 14:34:00,41.9,28.8,30.13,North,356,5.3,8.6,59,0.00,,,0.00,VWS V14.01,2013-02-25 19:34:00,
2013-02-25 14:35:00,41.6,28.1,30.13,NNW,346,7.1,8.5,58,0.00,,,0.00,VWS V14.01,2013-02-25 19:35:00,
2013-02-25 14:36:00,41.3,29.0,30.13,NNE,17,0.0,0.0,61,0.00,,---,0.00,VWS V14.01,2013-02-25 19:36:00,
2013-02-25 14:37:00,41.3,28.4,30.13,NE,34,0.0,5.3,60,0.00,,,0.00,VWS V14.01,2013-02-25 19:37:00,
2013-02-25 14:38:00,41.3,28.4,30.12,NNE,17,0.0,2.7,60,0.00,,,0.00,VWS V14.01,2013-02-25 19:38:00,
2013-02-25 14:39:00,41.3,28.7,30.12,NNE,17,0.0,0.0,61,0.00,,,0.00,VWS V14.01,2013-02-25 19:39:00,
2013-02-25 14:40:00,41.4,28.9,30.12,NNE,17,0.0,0.0,61,0.00,,,0.00,VWS V14.01,2013-02-25 19:40:00,
2013-02-25 14:41:00,41.7,28.6,30.13,NNW,336,8.8,9.0,60,0.00,,---,0.00,VWS V14.01,2013-02-25 19:41:00,
2013-02-25 14:42:00,41.7,29.0,30.12,NNE,17,0.0,0.0,60,0.00,,,0.00,VWS V14.01,2013-02-25 19:42:00,
2013-02-25 14:43:00,41.7,28.8,30.12,North,8,7.6,8.0,60,0.00,,,0.00,VWS V14.01,2013-02-25 19:43:00,
2013-02-25 14:44:00,41.7,28.4,30.12,NNW,347,6.6,9.8,59,0.00,,,0.00,VWS V14.01,2013-02-25 19:44:00,
2013-02-25 14:45:00,41.8,28.4,30.12,NNW,338,0.0,6.8,59,0.00,,,0.00,VWS V14.01,2013-02-25 19:45:00,
2013-02-25 14:46:00,42.2,28.9,30.13,NNE,27,2.5,3.4,59,0.00,,---,0.00,VWS V14.01,2013-02-25 19:46:00,
2013-02-25 14:47:00,42.1,28.9,30.12,NW,326,7.3,7.3,59,0.00,,,0.00,VWS V14.01,2013-02-25 19:47:00,
2013-02-25 14:48:00,42.2,29.0,30.13,NW,307,0.0,7.3,59,0.00,,,0.00,VWS V14.01,2013-02-25 19:48:00,
2013-02-25 14:49:00,42.3,28.5,30.13,NNW,340,3.2,6.5,58,0.00,,,0.00,VWS V14.01,2013-02-25 19:49:00,
2013-02-25 14:50:00,42.2,28.5,30.13,North,359,6.6,8.1,58,0.00,,,0.00,VWS V14.01,2013-02-25 19:50:00,
2013-02-25 14:51:00,42.1,28.4,30.13,North,1,0.0,8.9,58,0.00,,,0.00,VWS V14.01,2013-02-25 19:51:00,
2013-02-25 14:52:00,41.9,28.8,30.13,West,280,0.0,0.0,59,0.00,,---,0.00,VWS V14.01,2013-02-25 19:52:00,
2013-02-25 14:53:00,41.9,28.5,30.13,West,280,0.0,7.1,59,0.00,,,0.00,VWS V14.01,2013-02-25 19:53:00,
2013-02-25 14:54:00,41.9,28.6,30.13,West,280,0.0,0.0,59,0.00,,,0.00,VWS V14.01,2013-02-25 19:54:00,
2013-02-25 14:55:00,41.9,28.6,30.13,West,280,0.0,3.4,59,0.00,,,0.00,VWS V14.01,2013-02-25 19:55:00,
2013-02-25 14:56:00,41.8,28.3,30.13,NW,314,5.6,5.6,58,0.00,,,0.00,VWS V14.01,2013-02-25 19:56:00,
2013-02-25 14:57:00,41.6,28.1,30.13,WNW,288,0.0,6.1,58,0.00,,---,0.00,VWS V14.01,2013-02-25 19:57:00,
2013-02-25 14:58:00,41.6,28.2,30.13,WNW,285,6.1,6.9,59,0.00,,,0.00,VWS V14.01,2013-02-25 19:58:00,
2013-02-25 14:59:00,41.6,27.9,30.13,WNW,288,0.0,6.1,58,0.00,,,0.00,VWS V14.01,2013-02-25 19:59:00,
2013-02-25 15:00:00,41.5,28.0,30.12,WNW,288,0.0,0.0,58,0.00,,,0.00,VWS V14.01,2013-02-25 20:00:00,
2013-02-25 15:01:00,41.4,28.2,30.12,WNW,288,0.0,0.0,59,0.00,,,0.00,VWS V14.01,2013-02-25 20:01:00,
2013-02-25 15:02:00,41.8,29.0,30.13,NW,325,5.6,6.7,60,0.00,,---,0.00,VWS V14.01,2013-02-25 20:02:00,
2013-02-25 15:03:00,41.7,28.8,30.12,NNW,339,0.0,4.3,60,0.00,,,0.00,VWS V14.01,2013-02-25 20:03:00,
2013-02-25 15:04:00,41.9,28.9,30.13,North,8,5.0,6.7,60,0.00,,,0.00,VWS V14.01,2013-02-25 20:04:00,
2013-02-25 15:05:00,41.9,28.7,30.13,NW,326,0.0,5.0,59,0.00,,,0.00,VWS V14.01,2013-02-25 20:05:00,
2013-02-25 15:06:00,42.1,29.0,30.13,NW,326,0.0,0.0,60,0.00,,,0.00,VWS V14.01,2013-02-25 20:06:00,
2013-02-25 15:07:00,42.5,29.4,30.13,North,4,5.8,6.8,60,0.00,,---,0.00,VWS V14.01,2013-02-25 20:07:00,
2013-02-25 15:08:00,42.5,29.4,30.13,NW,326,0.0,0.0,60,0.00,,,0.00,VWS V14.01,2013-02-25 20:08:00,
2013-02-25 15:09:00,42.6,29.2,30.13,NW,307,4.5,6.8,59,0.00,,,0.00,VWS V14.01,2013-02-25 20:09:00,
2013-02-25 15:10:00,42.8,29.1,30.13,WNW,294,0.0,6.3,58,0.00,,,0.00,VWS V14.01,2013-02-25 20:10:00,
2013-02-25 15:11:00,42.8,28.7,30.13,WNW,284,0.0,2.7,57,0.00,,,0.00,VWS V14.01,2013-02-25 20:11:00,
2013-02-25 15:12:00,42.8,28.6,30.14,WNW,284,0.0,0.0,57,0.00,,---,0.00,VWS V14.01,2013-02-25 20:12:00,
2013-02-25 15:13:00,42.7,28.2,30.14,WNW,284,0.0,0.0,56,0.00,,,0.00,VWS V14.01,2013-02-25 20:13:00,
2013-02-25 15:14:00,42.7,28.7,30.14,WNW,284,0.0,0.0,57,0.00,,,0.00,VWS V14.01,2013-02-25 20:14:00,
2013-02-25 15:15:00,42.6,28.1,30.14,NW,326,0.0,4.2,56,0.00,,,0.00,VWS V14.01,2013-02-25 20:15:00,
2013-02-25 15:16:00,42.5,27.9,30.14,NW,314,7.0,8.7,56,0.00,,,0.00,VWS V14.01,2013-02-25 20:16:00,
2013-02-25 15:17:00,42.3,28.6,30.14,West,260,0.0,0.0,58,0.00,,---,0.00,VWS V14.01,2013-02-25 20:17:00,
2013-02-25 15:18:00,42.3,28.0,30.14,West,260,0.0,0.0,57,0.00,,,0.00,VWS V14.01,2013-02-25 20:18:00,
2013-02-25 15:19:00,42.2,28.2,30.14,West,260,0.0,0.0,57,0.00,,,0.00,VWS V14.01,2013-02-25 20:19:00,
2013-02-25 15:20:00,42.2,28.5,30.14,West,260,0.0,0.0,58,0.00,,,0.00,VWS V14.01,2013-02-25 20:20:00,
2013-02-25 15:21:00,42.1,28.1,30.14,West,260,0.0,0.0,57,0.00,,,0.00,VWS V14.01,2013-02-25 20:21:00,
2013-02-25 15:22:00,42.1,28.6,30.14,West,260,0.0,0.0,58,0.00,,---,0.00,VWS V14.01,2013-02-25 20:22:00,
2013-02-25 15:23:00,42.1,28.5,30.14,West,260,0.0,0.0,58,0.00,,,0.00,VWS V14.01,2013-02-25 20:23:00,
2013-02-25 15:24:00,42.0,28.4,30.14,West,260,0.0,0.0,58,0.00,,,0.00,VWS V14.01,2013-02-25 20:24:00,
2013-02-25 15:25:00,42.0,28.4,30.14,West,260,0.0,0.0,58,0.00,,,0.00,VWS V14.01,2013-02-25 20:25:00,
2013-02-25 15:26:00,42.0,28.4,30.14,West,260,0.0,0.0,58,0.00,,,0.00,VWS V14.01,2013-02-25 20:26:00,
2013-02-25 15:27:00,42.3,29.0,30.14,West,260,0.0,0.0,59,0.00,,---,0.00,VWS V14.01,2013-02-25 20:27:00,
2013-02-25 15:28:00,42.2,29.0,30.14,West,260,0.0,0.0,59,0.00,,,0.00,VWS V14.01,2013-02-25 20:28:00,
2013-02-25 15:29:00,42.2,28.9,30.14,West,260,0.0,0.0,59,0.00,,,0.00,VWS V14.01,2013-02-25 20:29:00,
2013-02-25 15:30:00,42.4,29.1,30.14,West,260,0.0,0.0,59,0.00,,,0.00,VWS V14.01,2013-02-25 20:30:00,
2013-02-25 15:31:00,42.5,29.0,30.14,West,260,0.0,0.0,58,0.00,,,0.00,VWS V14.01,2013-02-25 20:31:00,
2013-02-25 15:32:00,42.9,28.6,30.14,WNW,295,0.0,0.0,57,0.00,,---,0.00,VWS V14.01,2013-02-25 20:32:00,
2013-02-25 15:33:00,42.8,28.6,30.14,WNW,295,0.0,7.7,57,0.00,,,0.00,VWS V14.01,2013-02-25 20:33:00,
2013-02-25 15:34:00,42.9,28.6,30.14,WNW,295,0.0,0.0,57,0.00,,,0.00,VWS V14.01,2013-02-25 20:34:00,
2013-02-25 15:35:00,43.0,28.8,30.14,WNW,284,0.0,3.0,57,0.00,,,0.00,VWS V14.01,2013-02-25 20:35:00,
2013-02-25 15:36:00,43.1,28.8,30.14,WNW,284,0.0,2.4,57,0.00,,,0.00,VWS V14.01,2013-02-25 20:36:00,
2013-02-25 15:37:00,43.1,28.6,30.14,WNW,284,0.0,0.0,56,0.00,,---,0.00,VWS V14.01,2013-02-25 20:37:00,
2013-02-25 15:38:00,43.1,28.7,30.14,WNW,284,0.0,0.0,56,0.00,,,0.00,VWS V14.01,2013-02-25 20:38:00,
2013-02-25 15:39:00,43.1,28.6,30.14,WNW,284,0.0,0.0,56,0.00,,,0.00,VWS V14.01,2013-02-25 20:39:00,
2013-02-25 15:40:00,43.1,28.4,30.14,WNW,284,0.0,0.0,56,0.00,,,0.00,VWS V14.01,2013-02-25 20:40:00,
2013-02-25 15:41:00,43.1,28.4,30.14,WNW,295,5.2,6.8,56,0.00,,,0.00,VWS V14.01,2013-02-25 20:41:00,
2013-02-25 15:42:00,43.0,28.0,30.14,NW,315,0.0,6.3,55,0.00,,---,0.00,VWS V14.01,2013-02-25 20:42:00,
2013-02-25 15:43:00,43.0,28.0,30.14,NW,319,5.4,5.4,55,0.00,,,0.00,VWS V14.01,2013-02-25 20:43:00,
2013-02-25 15:44:00,43.0,27.9,30.14,NW,315,0.0,6.3,55,0.00,,,0.00,VWS V14.01,2013-02-25 20:44:00,
2013-02-25 15:45:00,43.0,28.1,30.14,NW,315,0.0,0.0,55,0.00,,,0.00,VWS V14.01,2013-02-25 20:45:00,
2013-02-25 15:46:00,43.0,27.7,30.14,NW,321,0.0,3.2,54,0.00,,,0.00,VWS V14.01,2013-02-25 20:46:00,
2013-02-25 15:47:00,43.0,27.6,30.14,NW,321,0.0,0.0,54,0.00,,---,0.00,VWS V14.01,2013-02-25 20:47:00,
2013-02-25 15:48:00,43.0,27.3,30.14,NW,321,0.0,0.0,54,0.00,,,0.00,VWS V14.01,2013-02-25 20:48:00,
2013-02-25 15:49:00,43.0,27.6,30.14,NW,321,0.0,0.0,54,0.00,,,0.00,VWS V14.01,2013-02-25 20:49:00,
2013-02-25 15:50:00,42.9,27.4,30.14,NW,304,0.0,6.3,54,0.00,,,0.00,VWS V14.01,2013-02-25 20:50:00,
2013-02-25 15:51:00,42.9,27.2,30.14,NW,304,0.0,0.0,54,0.00,,,0.00,VWS V14.01,2013-02-25 20:51:00,
2013-02-25 15:52:00,42.8,27.4,30.13,NNW,330,6.0,8.6,54,0.00,,---,0.00,VWS V14.01,2013-02-25 20:52:00,
2013-02-25 15:53:00,42.8,27.2,30.13,NNW,332,8.6,9.1,54,0.00,,,0.00,VWS V14.01,2013-02-25 20:53:00,
2013-02-25 15:54:00,42.7,27.4,30.13,NNW,335,5.9,8.6,54,0.00,,,0.00,VWS V14.01,2013-02-25 20:54:00,
2013-02-25 15:55:00,42.7,27.8,30.13,NNW,335,0.0,7.0,55,0.00,,,0.00,VWS V14.01,2013-02-25 20:55:00,
2013-02-25 15:56:00,42.7,27.8,30.13,NW,322,0.0,3.4,55,0.00,,,0.00,VWS V14.01,2013-02-25 20:56:00,
2013-02-25 15:57:00,42.7,28.3,30.13,NW,321,0.0,2.7,56,0.00,,---,0.00,VWS V14.01,2013-02-25 20:57:00,
2013-02-25 15:58:00,42.7,27.8,30.13,NW,321,0.0,0.0,55,0.00,,,0.00,VWS V14.01,2013-02-25 20:58:00,
2013-02-25 15:59:00,42.7,28.2,30.13,NNW,335,3.4,3.4,56,0.00,,,0.00,VWS V14.01,2013-02-25 20:59:00,
2013-02-25 16:00:00,42.6,27.6,30.13,NW,308,5.1,8.4,55,0.00,,,0.00,VWS V14.01,2013-02-25 21:00:00,
2013-02-25 16:01:00,42.6,28.1,30.13,WNW,302,0.0,8.3,56,0.00,,,0.00,VWS V14.01,2013-02-25 21:01:00,
2013-02-25 16:02:00,42.5,27.9,30.14,NNW,345,5.7,8.6,56,0.00,,---,0.00,VWS V14.01,2013-02-25 21:02:00,
2013-02-25 16:03:00,42.5,27.8,30.14,NNW,343,6.2,8.8,56,0.00,,,0.00,VWS V14.01,2013-02-25 21:03:00,
2013-02-25 16:04:00,42.5,27.9,30.14,NNW,345,5.7,8.6,56,0.00,,,0.00,VWS V14.01,2013-02-25 21:04:00,
2013-02-25 16:05:00,42.5,28.3,30.14,NNW,345,0.0,5.7,57,0.00,,,0.00,VWS V14.01,2013-02-25 21:05:00,
2013-02-25 16:06:00,42.5,28.5,30.14,NNW,338,0.0,4.4,57,0.00,,,0.00,VWS V14.01,2013-02-25 21:06:00,
2013-02-25 16:07:00,42.4,28.0,30.14,NNW,345,0.0,6.8,56,0.00,,---,0.00,VWS V14.01,2013-02-25 21:07:00,
2013-02-25 16:08:00,42.5,28.1,30.14,NNW,338,0.0,0.0,56,0.00,,,0.00,VWS V14.01,2013-02-25 21:08:00,
2013-02-25 16:09:00,42.4,28.0,30.14,NNW,345,0.0,6.8,56,0.00,,,0.00,VWS V14.01,2013-02-25 21:09:00,
2013-02-25 16:10:00,42.3,27.8,30.14,West,278,6.0,6.5,56,0.00,,,0.00,VWS V14.01,2013-02-25 21:10:00,
2013-02-25 16:11:00,42.4,28.0,30.14,NW,316,3.4,9.4,56,0.00,,,0.00,VWS V14.01,2013-02-25 21:11:00,
2013-02-25 16:12:00,42.2,28.0,30.14,NW,323,0.0,0.0,57,0.00,,---,0.00,VWS V14.01,2013-02-25 21:12:00,
2013-02-25 16:13:00,42.2,27.7,30.14,NW,323,0.0,5.2,56,0.00,,,0.00,VWS V14.01,2013-02-25 21:13:00,
2013-02-25 16:14:00,42.2,28.0,30.14,NW,323,0.0,0.0,57,0.00,,,0.00,VWS V14.01,2013-02-25 21:14:00,
2013-02-25 16:15:00,42.2,28.0,30.14,NW,323,0.0,0.0,57,0.00,,,0.00,VWS V14.01,2013-02-25 21:15:00,
2013-02-25 16:16:00,42.2,28.3,30.14,NW,323,0.0,0.0,58,0.00,,,0.00,VWS V14.01,2013-02-25 21:16:00,
2013-02-25 16:17:00,42.3,28.3,30.14,NW,323,0.0,0.0,57,0.00,,---,0.00,VWS V14.01,2013-02-25 21:17:00,
2013-02-25 16:18:00,42.2,28.5,30.14,NW,323,0.0,0.0,58,0.00,,,0.00,VWS V14.01,2013-02-25 21:18:00,
2013-02-25 16:19:00,42.3,28.3,30.14,NW,323,0.0,0.0,57,0.00,,,0.00,VWS V14.01,2013-02-25 21:19:00,
2013-02-25 16:20:00,42.3,28.5,30.14,NW,323,0.0,0.0,58,0.00,,,0.00,VWS V14.01,2013-02-25 21:20:00,
2013-02-25 16:21:00,42.2,28.2,30.14,NW,323,0.0,0.0,57,0.00,,,0.00,VWS V14.01,2013-02-25 21:21:00,
2013-02-25 16:22:00,42.3,28.3,30.14,NW,323,0.0,0.0,57,0.00,,---,0.00,VWS V14.01,2013-02-25 21:22:00,
2013-02-25 16:23:00,42.3,28.2,30.14,NW,323,0.0,0.0,57,0.00,,,0.00,VWS V14.01,2013-02-25 21:23:00,
2013-02-25 16:24:00,42.3,28.3,30.14,NW,323,0.0,0.0,57,0.00,,,0.00,VWS V14.01,2013-02-25 21:24:00,
2013-02-25 16:25:00,42.4,28.4,30.14,NW,323,0.0,0.0,57,0.00,,,0.00,VWS V14.01,2013-02-25 21:25:00,
2013-02-25 16:26:00,42.4,28.6,30.14,NW,323,0.0,0.0,58,0.00,,,0.00,VWS V14.01,2013-02-25 21:26:00,
2013-02-25 16:27:00,42.3,28.4,30.14,West,264,0.0,0.0,58,0.00,,---,0.00,VWS V14.01,2013-02-25 21:27:00,
2013-02-25 16:28:00,42.4,28.2,30.14,West,264,0.0,0.0,57,0.00,,,0.00,VWS V14.01,2013-02-25 21:28:00,
2013-02-25 16:29:00,42.3,28.4,30.14,West,264,0.0,0.0,58,0.00,,,0.00,VWS V14.01,2013-02-25 21:29:00,
2013-02-25 16:30:00,42.3,28.5,30.14,West,264,0.0,0.0,58,0.00,,,0.00,VWS V14.01,2013-02-25 21:30:00,
2013-02-25 16:31:00,42.3,28.4,30.15,West,264,0.0,0.0,58,0.00,,,0.00,VWS V14.01,2013-02-25 21:31:00,
2013-02-25 16:32:00,42.3,28.6,30.15,West,264,0.0,0.0,58,0.00,,---,0.00,VWS V14.01,2013-02-25 21:32:00,
2013-02-25 16:33:00,42.3,28.7,30.14,West,264,0.0,0.0,58,0.00,,,0.00,VWS V14.01,2013-02-25 21:33:00,
2013-02-25 16:34:00,42.2,28.5,30.15,West,264,0.0,0.0,58,0.00,,,0.00,VWS V14.01,2013-02-25 21:34:00,
2013-02-25 16:35:00,42.3,28.8,30.15,West,264,0.0,0.0,58,0.00,,,0.00,VWS V14.01,2013-02-25 21:35:00,
2013-02-25 16:36:00,42.2,28.7,30.15,West,264,0.0,0.0,58,0.00,,,0.00,VWS V14.01,2013-02-25 21:36:00,
2013-02-25 16:37:00,42.0,28.4,30.15,West,264,0.0,0.0,58,0.00,,---,0.00,VWS V14.01,2013-02-25 21:37:00,
2013-02-25 16:38:00,42.1,28.6,30.15,West,264,0.0,0.0,58,0.00,,,0.00,VWS V14.01,2013-02-25 21:38:00,
2013-02-25 16:39:00,42.1,28.6,30.15,West,264,0.0,0.0,58,0.00,,,0.00,VWS V14.01,2013-02-25 21:39:00,
2013-02-25 16:40:00,42.0,28.3,30.15,West,264,0.0,0.0,58,0.00,,,0.00,VWS V14.01,2013-02-25 21:40:00,
2013-02-25 16:41:00,41.9,28.3,30.15,West,264,0.0,0.0,58,0.00,,,0.00,VWS V14.01,2013-02-25 21:41:00,
2013-02-25 16:42:00,41.8,28.5,30.15,West,264,0.0,0.0,59,0.00,,---,0.00,VWS V14.01,2013-02-25 21:42:00,
2013-02-25 16:43:00,41.8,28.4,30.15,West,264,0.0,0.0,59,0.00,,,0.00,VWS V14.01,2013-02-25 21:43:00,
2013-02-25 16:44:00,41.8,28.5,30.15,West,264,0.0,0.0,59,0.00,,,0.00,VWS V14.01,2013-02-25 21:44:00,
2013-02-25 16:45:00,41.8,28.4,30.15,West,264,0.0,0.0,59,0.00,,,0.00,VWS V14.01,2013-02-25 21:45:00,
2013-02-25 16:46:00,41.8,28.5,30.15,West,264,0.0,0.0,59,0.00,,,0.00,VWS V14.01,2013-02-25 21:46:00,
2013-02-25 16:47:00,41.7,28.7,30.15,West,264,0.0,0.0,60,0.00,,---,0.00,VWS V14.01,2013-02-25 21:47:00,
2013-02-25 16:48:00,41.7,28.6,30.15,West,264,0.0,0.0,59,0.00,,,0.00,VWS V14.01,2013-02-25 21:48:00,
2013-02-25 16:49:00,41.7,28.6,30.15,West,264,0.0,0.0,59,0.00,,,0.00,VWS V14.01,2013-02-25 21:49:00,
2013-02-25 16:50:00,41.7,29.0,30.15,West,264,0.0,0.0,60,0.00,,,0.00,VWS V14.01,2013-02-25 21:50:00,
2013-02-25 16:51:00,41.7,28.9,30.15,West,264,0.0,0.0,60,0.00,,,0.00,VWS V14.01,2013-02-25 21:51:00,
2013-02-25 16:52:00,41.7,28.9,30.15,West,264,0.0,0.0,60,0.00,,---,0.00,VWS V14.01,2013-02-25 21:52:00,
2013-02-25 16:53:00,41.7,28.9,30.15,West,264,0.0,0.0,60,0.00,,,0.00,VWS V14.01,2013-02-25 21:53:00,
2013-02-25 16:54:00,41.7,29.0,30.15,West,264,0.0,0.0,60,0.00,,,0.00,VWS V14.01,2013-02-25 21:54:00,
2013-02-25 16:55:00,41.7,28.7,30.15,West,264,0.0,0.0,60,0.00,,,0.00,VWS V14.01,2013-02-25 21:55:00,
2013-02-25 16:56:00,41.8,28.8,30.15,West,264,0.0,0.0,60,0.00,,,0.00,VWS V14.01,2013-02-25 21:56:00,
2013-02-25 16:57:00,41.7,28.7,30.15,West,264,0.0,0.0,60,0.00,,---,0.00,VWS V14.01,2013-02-25 21:57:00,
2013-02-25 16:58:00,41.8,28.7,30.15,West,264,0.0,0.0,60,0.00,,,0.00,VWS V14.01,2013-02-25 21:58:00,
2013-02-25 16:59:00,41.7,28.7,30.15,West,264,0.0,0.0,60,0.00,,,0.00,VWS V14.01,2013-02-25 21:59:00,
2013-02-25 17:00:00,41.7,28.7,30.15,West,264,0.0,0.0,60,0.00,,,0.00,VWS V14.01,2013-02-25 22:00:00,
2013-02-25 17:01:00,41.7,28.7,30.15,West,264,0.0,0.0,60,0.00,,,0.00,VWS V14.01,2013-02-25 22:01:00,
2013-02-25 17:02:00,41.6,28.3,30.15,NNW,347,5.3,6.6,59,0.00,,---,0.00,VWS V14.01,2013-02-25 22:02:00,
2013-02-25 17:03:00,41.7,28.4,30.15,NNW,347,3.5,6.1,59,0.00,,,0.00,VWS V14.01,2013-02-25 22:03:00,
2013-02-25 17:04:00,41.6,28.4,30.15,North,354,5.5,5.5,59,0.00,,,0.00,VWS V14.01,2013-02-25 22:04:00,
2013-02-25 17:05:00,41.5,28.2,30.15,North,353,0.0,6.6,59,0.00,,,0.00,VWS V14.01,2013-02-25 22:05:00,
2013-02-25 17:06:00,41.5,28.2,30.15,North,353,0.0,0.0,59,0.00,,,0.00,VWS V14.01,2013-02-25 22:06:00,
2013-02-25 17:07:00,41.5,28.5,30.15,North,353,0.0,0.0,60,0.00,,---,0.00,VWS V14.01,2013-02-25 22:07:00,
2013-02-25 17:08:00,41.5,28.5,30.15,North,353,0.0,0.0,60,0.00,,,0.00,VWS V14.01,2013-02-25 22:08:00,
2013-02-25 17:09:00,41.5,28.5,30.15,North,353,0.0,0.0,60,0.00,,,0.00,VWS V14.01,2013-02-25 22:09:00,
2013-02-25 17:10:00,41.5,28.6,30.15,North,353,0.0,0.0,60,0.00,,,0.00,VWS V14.01,2013-02-25 22:10:00,
2013-02-25 17:11:00,41.4,28.6,30.15,North,353,0.0,0.0,60,0.00,,,0.00,VWS V14.01,2013-02-25 22:11:00,
2013-02-25 17:12:00,41.5,29.0,30.15,North,353,0.0,0.0,61,0.00,,---,0.00,VWS V14.01,2013-02-25 22:12:00,
2013-02-25 17:13:00,41.4,28.6,30.15,North,353,0.0,0.0,60,0.00,,,0.00,VWS V14.01,2013-02-25 22:13:00,
2013-02-25 17:14:00,41.5,28.9,30.15,North,353,0.0,0.0,61,0.00,,,0.00,VWS V14.01,2013-02-25 22:14:00,
2013-02-25 17:15:00,41.6,29.1,30.15,North,353,0.0,0.0,61,0.00,,,0.00,VWS V14.01,2013-02-25 22:15:00,
2013-02-25 17:16:00,41.6,29.0,30.15,North,353,0.0,0.0,61,0.00,,,0.00,VWS V14.01,2013-02-25 22:16:00,
2013-02-25 17:17:00,41.5,28.6,30.15,North,353,0.0,0.0,60,0.00,,---,0.00,VWS V14.01,2013-02-25 22:17:00,
2013-02-25 17:18:00,41.6,29.0,30.15,North,353,0.0,0.0,60,0.00,,,0.00,VWS V14.01,2013-02-25 22:18:00,
2013-02-25 17:19:00,41.6,28.8,30.15,North,353,0.0,0.0,60,0.00,,,0.00,VWS V14.01,2013-02-25 22:19:00,
2013-02-25 17:20:00,41.5,28.6,30.15,North,353,0.0,0.0,60,0.00,,,0.00,VWS V14.01,2013-02-25 22:20:00,
2013-02-25 17:21:00,41.5,28.7,30.15,North,353,0.0,0.0,60,0.00,,,0.00,VWS V14.01,2013-02-25 22:21:00,
2013-02-25 17:22:00,41.6,29.2,30.15,North,353,0.0,0.0,61,0.00,,---,0.00,VWS V14.01,2013-02-25 22:22:00,
2013-02-25 17:23:00,41.5,29.0,30.15,North,353,0.0,0.0,61,0.00,,,0.00,VWS V14.01,2013-02-25 22:23:00,
2013-02-25 17:24:00,41.4,28.9,30.15,North,353,0.0,0.0,61,0.00,,,0.00,VWS V14.01,2013-02-25 22:24:00,
2013-02-25 17:25:00,41.5,29.1,30.14,North,353,0.0,0.0,61,0.00,,,0.00,VWS V14.01,2013-02-25 22:25:00,
2013-02-25 17:26:00,41.6,29.1,30.14,North,353,0.0,0.0,61,0.00,,,0.00,VWS V14.01,2013-02-25 22:26:00,
2013-02-25 17:27:00,41.7,28.8,30.14,North,353,0.0,0.0,60,0.00,,---,0.00,VWS V14.01,2013-02-25 22:27:00,
2013-02-25 17:28:00,41.6,29.0,30.14,North,353,0.0,0.0,61,0.00,,,0.00,VWS V14.01,2013-02-25 22:28:00,
2013-02-25 17:29:00,41.7,28.9,30.14,North,353,0.0,0.0,60,0.00,,,0.00,VWS V14.01,2013-02-25 22:29:00,
2013-02-25 17:30:00,41.7,28.7,30.14,North,353,0.0,0.0,60,0.00,,,0.00,VWS V14.01,2013-02-25 22:30:00,
2013-02-25 17:31:00,41.7,28.7,30.15,North,353,0.0,0.0,60,0.00,,,0.00,VWS V14.01,2013-02-25 22:31:00,
2013-02-25 17:32:00,41.6,28.7,30.15,North,353,0.0,0.0,60,0.00,,---,0.00,VWS V14.01,2013-02-25 22:32:00,
2013-02-25 17:33:00,41.7,28.8,30.15,North,353,0.0,0.0,60,0.00,,,0.00,VWS V14.01,2013-02-25 22:33:00,
2013-02-25 17:34:00,41.6,28.7,30.15,North,353,0.0,0.0,60,0.00,,,0.00,VWS V14.01,2013-02-25 22:34:00,
2013-02-25 17:35:00,41.6,28.7,30.15,North,353,0.0,0.0,60,0.00,,,0.00,VWS V14.01,2013-02-25 22:35:00,
2013-02-25 17:36:00,41.6,28.6,30.15,North,353,0.0,0.0,60,0.00,,,0.00,VWS V14.01,2013-02-25 22:36:00,
2013-02-25 17:37:00,41.6,28.6,30.15,North,353,0.0,0.0,60,0.00,,,0.00,VWS V14.01,2013-02-25 22:37:00,
2013-02-25 17:38:00,41.5,28.6,30.15,North,353,0.0,0.0,60,0.00,,---,0.00,VWS V14.01,2013-02-25 22:38:00,
2013-02-25 17:39:00,41.6,28.8,30.16,North,353,0.0,0.0,60,0.00,,,0.00,VWS V14.01,2013-02-25 22:39:00,
2013-02-25 17:40:00,41.4,28.2,30.16,North,353,0.0,0.0,59,0.00,,,0.00,VWS V14.01,2013-02-25 22:40:00,
2013-02-25 17:41:00,41.4,28.3,30.16,North,353,0.0,0.0,59,0.00,,,0.00,VWS V14.01,2013-02-25 22:41:00,
2013-02-25 17:42:00,41.4,28.2,30.16,North,353,0.0,0.0,59,0.00,,,0.00,VWS V14.01,2013-02-25 22:42:00,
2013-02-25 17:43:00,41.2,28.3,30.16,North,353,0.0,0.0,60,0.00,,---,0.00,VWS V14.01,2013-02-25 22:43:00,
2013-02-25 17:44:00,41.3,28.2,30.16,North,353,0.0,0.0,59,0.00,,,0.00,VWS V14.01,2013-02-25 22:44:00,
2013-02-25 17:45:00,41.2,28.4,30.16,North,353,0.0,0.0,60,0.00,,,0.00,VWS V14.01,2013-02-25 22:45:00,
2013-02-25 17:46:00,41.2,28.3,30.16,North,353,0.0,0.0,60,0.00,,,0.00,VWS V14.01,2013-02-25 22:46:00,
2013-02-25 17:47:00,41.2,28.4,30.16,North,353,0.0,0.0,60,0.00,,,0.00,VWS V14.01,2013-02-25 22:47:00,
2013-02-25 17:48:00,41.1,28.4,30.16,North,353,0.0,0.0,60,0.00,,---,0.00,VWS V14.01,2013-02-25 22:48:00,
2013-02-25 17:49:00,41.1,28.4,30.16,North,353,0.0,0.0,60,0.00,,,0.00,VWS V14.01,2013-02-25 22:49:00,
2013-02-25 17:50:00,41.1,28.5,30.16,North,353,0.0,0.0,60,0.00,,,0.00,VWS V14.01,2013-02-25 22:50:00,
2013-02-25 17:51:00,41.1,28.5,30.16,North,353,0.0,0.0,61,0.00,,,0.00,VWS V14.01,2013-02-25 22:51:00,
2013-02-25 17:52:00,41.1,28.5,30.16,North,353,0.0,0.0,60,0.00,,,0.00,VWS V14.01,2013-02-25 22:52:00,
2013-02-25 17:53:00,41.1,28.5,30.16,North,353,0.0,0.0,60,0.00,,---,0.00,VWS V14.01,2013-02-25 22:53:00,
2013-02-25 17:54:00,41.1,28.5,30.16,North,353,0.0,0.0,60,0.00,,,0.00,VWS V14.01,2013-02-25 22:54:00,
2013-02-25 17:55:00,41.0,28.4,30.16,North,353,0.0,0.0,60,0.00,,,0.00,VWS V14.01,2013-02-25 22:55:00,
2013-02-25 17:56:00,41.0,28.4,30.16,North,353,0.0,0.0,60,0.00,,,0.00,VWS V14.01,2013-02-25 22:56:00,
2013-02-25 17:57:00,41.0,28.5,30.17,North,353,0.0,0.0,61,0.00,,,0.00,VWS V14.01,2013-02-25 22:57:00,
2013-02-25 17:58:00,40.9,28.5,30.17,North,353,0.0,0.0,61,0.00,,---,0.00,VWS V14.01,2013-02-25 22:58:00,
2013-02-25 17:59:00,41.0,28.7,30.17,North,353,0.0,0.0,61,0.00,,,0.00,VWS V14.01,2013-02-25 22:59:00,
2013-02-25 18:00:00,41.0,28.7,30.17,North,353,0.0,0.0,61,0.00,,,0.00,VWS V14.01,2013-02-25 23:00:00,
2013-02-25 18:01:00,40.9,28.6,30.17,North,353,0.0,0.0,61,0.00,,,0.00,VWS V14.01,2013-02-25 23:01:00,
2013-02-25 18:02:00,41.0,28.6,30.17,North,353,0.0,0.0,61,0.00,,,0.00,VWS V14.01,2013-02-25 23:02:00,
2013-02-25 18:03:00,41.0,28.8,30.17,North,353,0.0,0.0,61,0.00,,---,0.00,VWS V14.01,2013-02-25 23:03:00,
2013-02-25 18:04:00,41.0,28.8,30.17,North,353,0.0,0.0,61,0.00,,,0.00,VWS V14.01,2013-02-25 23:04:00,
2013-02-25 18:05:00,41.0,28.7,30.17,North,353,0.0,0.0,61,0.00,,,0.00,VWS V14.01,2013-02-25 23:05:00,
2013-02-25 18:06:00,41.0,28.7,30.17,North,353,0.0,0.0,61,0.00,,,0.00,VWS V14.01,2013-02-25 23:06:00,
2013-02-25 18:07:00,41.0,28.6,30.17,North,353,0.0,0.0,61,0.00,,,0.00,VWS V14.01,2013-02-25 23:07:00,
2013-02-25 18:08:00,40.9,28.7,30.18,North,353,0.0,0.0,61,0.00,,---,0.00,VWS V14.01,2013-02-25 23:08:00,
2013-02-25 18:09:00,40.9,28.5,30.17,North,353,0.0,0.0,61,0.00,,,0.00,VWS V14.01,2013-02-25 23:09:00,
2013-02-25 18:10:00,40.9,28.7,30.17,North,353,0.0,0.0,62,0.00,,,0.00,VWS V14.01,2013-02-25 23:10:00,
2013-02-25 18:11:00,40.9,28.7,30.18,North,353,0.0,0.0,62,0.00,,,0.00,VWS V14.01,2013-02-25 23:11:00,
2013-02-25 18:12:00,40.9,28.7,30.18,North,353,0.0,0.0,62,0.00,,,0.00,VWS V14.01,2013-02-25 23:12:00,
2013-02-25 18:13:00,40.8,28.6,30.18,North,353,0.0,0.0,61,0.00,,---,0.00,VWS V14.01,2013-02-25 23:13:00,
2013-02-25 18:14:00,40.9,28.7,30.18,North,353,0.0,0.0,62,0.00,,,0.00,VWS V14.01,2013-02-25 23:14:00,
2013-02-25 18:15:00,40.9,28.7,30.18,North,353,0.0,0.0,62,0.00,,,0.00,VWS V14.01,2013-02-25 23:15:00,
2013-02-25 18:16:00,40.9,28.7,30.18,North,353,0.0,0.0,61,0.00,,,0.00,VWS V14.01,2013-02-25 23:16:00,
2013-02-25 18:17:00,40.8,28.6,30.18,North,354,1.4,1.4,61,0.00,,,0.00,VWS V14.01,2013-02-25 23:17:00,
2013-02-25 18:18:00,40.8,28.6,30.18,North,354,0.0,0.0,61,0.00,,---,0.00,VWS V14.01,2013-02-25 23:18:00,
2013-02-25 18:19:00,40.8,28.6,30.18,North,354,0.0,0.0,62,0.00,,,0.00,VWS V14.01,2013-02-25 23:19:00,
2013-02-25 18:20:00,40.8,28.6,30.18,North,354,0.0,0.0,61,0.00,,,0.00,VWS V14.01,2013-02-25 23:20:00,
2013-02-25 18:21:00,40.8,28.7,30.18,North,354,0.0,0.0,62,0.00,,,0.00,VWS V14.01,2013-02-25 23:21:00,
2013-02-25 18:22:00,40.8,28.7,30.18,North,354,0.0,0.0,62,0.00,,,0.00,VWS V14.01,2013-02-25 23:22:00,
2013-02-25 18:23:00,40.8,28.8,30.18,North,354,0.0,0.0,62,0.00,,---,0.00,VWS V14.01,2013-02-25 23:23:00,
2013-02-25 18:24:00,40.8,28.7,30.18,North,354,0.0,0.0,62,0.00,,,0.00,VWS V14.01,2013-02-25 23:24:00,
2013-02-25 18:25:00,40.8,28.8,30.18,North,354,0.0,0.0,62,0.00,,,0.00,VWS V14.01,2013-02-25 23:25:00,
2013-02-25 18:26:00,40.8,28.8,30.18,North,354,0.0,0.0,62,0.00,,,0.00,VWS V14.01,2013-02-25 23:26:00,
2013-02-25 18:27:00,40.8,28.8,30.18,North,354,0.0,0.0,62,0.00,,,0.00,VWS V14.01,2013-02-25 23:27:00,
2013-02-25 18:28:00,40.8,28.9,30.19,North,354,0.0,0.0,62,0.00,,---,0.00,VWS V14.01,2013-02-25 23:28:00,
2013-02-25 18:29:00,40.8,28.9,30.19,North,354,0.0,0.0,62,0.00,,,0.00,VWS V14.01,2013-02-25 23:29:00,
2013-02-25 18:30:00,40.8,28.9,30.19,North,354,0.0,0.0,62,0.00,,,0.00,VWS V14.01,2013-02-25 23:30:00,
2013-02-25 18:31:00,40.7,28.8,30.19,North,354,0.0,0.0,62,0.00,,,0.00,VWS V14.01,2013-02-25 23:31:00,
2013-02-25 18:32:00,40.7,28.8,30.19,North,354,0.0,0.0,62,0.00,,,0.00,VWS V14.01,2013-02-25 23:32:00,
2013-02-25 18:33:00,40.7,29.0,30.19,North,354,0.0,0.0,63,0.00,,---,0.00,VWS V14.01,2013-02-25 23:33:00,
2013-02-25 18:34:00,40.7,28.9,30.19,North,354,0.0,0.0,62,0.00,,,0.00,VWS V14.01,2013-02-25 23:34:00,
2013-02-25 18:35:00,40.7,28.9,30.19,North,354,0.0,0.0,63,0.00,,,0.00,VWS V14.01,2013-02-25 23:35:00,
2013-02-25 18:36:00,40.7,28.9,30.19,North,354,0.0,0.0,63,0.00,,,0.00,VWS V14.01,2013-02-25 23:36:00,
2013-02-25 18:37:00,40.7,28.9,30.19,North,354,0.0,0.0,63,0.00,,,0.00,VWS V14.01,2013-02-25 23:37:00,
2013-02-25 18:38:00,40.6,28.7,30.19,North,354,0.0,0.0,62,0.00,,---,0.00,VWS V14.01,2013-02-25 23:38:00,
2013-02-25 18:39:00,40.6,28.8,30.19,North,354,0.0,0.0,62,0.00,,,0.00,VWS V14.01,2013-02-25 23:39:00,
2013-02-25 18:40:00,40.7,28.8,30.19,North,354,0.0,0.0,62,0.00,,,0.00,VWS V14.01,2013-02-25 23:40:00,
2013-02-25 18:41:00,40.6,28.7,30.19,North,354,0.0,0.0,62,0.00,,,0.00,VWS V14.01,2013-02-25 23:41:00,
2013-02-25 18:42:00,40.6,28.9,30.20,North,354,0.0,0.0,63,0.00,,,0.00,VWS V14.01,2013-02-25 23:42:00,
2013-02-25 18:43:00,40.6,28.8,30.20,North,354,0.0,0.0,62,0.00,,---,0.00,VWS V14.01,2013-02-25 23:43:00,
2013-02-25 18:44:00,40.6,28.8,30.20,North,354,0.0,0.0,62,0.00,,,0.00,VWS V14.01,2013-02-25 23:44:00,
2013-02-25 18:45:00,40.6,28.8,30.20,North,354,0.0,0.0,62,0.00,,,0.00,VWS V14.01,2013-02-25 23:45:00,
2013-02-25 18:46:00,40.6,28.8,30.20,North,354,0.0,0.0,62,0.00,,,0.00,VWS V14.01,2013-02-25 23:46:00,
2013-02-25 18:47:00,40.6,28.8,30.20,North,354,0.0,0.0,62,0.00,,,0.00,VWS V14.01,2013-02-25 23:47:00,
2013-02-25 18:48:00,40.4,28.6,30.20,North,354,0.0,0.0,62,0.00,,---,0.00,VWS V14.01,2013-02-25 23:48:00,
2013-02-25 18:49:00,40.4,28.5,30.20,North,354,0.0,0.0,62,0.00,,,0.00,VWS V14.01,2013-02-25 23:49:00,
2013-02-25 18:50:00,40.4,28.6,30.20,North,354,0.0,0.0,62,0.00,,,0.00,VWS V14.01,2013-02-25 23:50:00,
2013-02-25 18:51:00,40.4,28.7,30.19,North,354,0.0,0.0,63,0.00,,,0.00,VWS V14.01,2013-02-25 23:51:00,
2013-02-25 18:52:00,40.3,28.6,30.19,North,354,0.0,0.0,63,0.00,,,0.00,VWS V14.01,2013-02-25 23:52:00,
2013-02-25 18:53:00,40.3,28.8,30.19,North,354,0.0,0.0,63,0.00,,---,0.00,VWS V14.01,2013-02-25 23:53:00,
2013-02-25 18:54:00,40.4,28.7,30.19,North,354,0.0,0.0,63,0.00,,,0.00,VWS V14.01,2013-02-25 23:54:00,
2013-02-25 18:55:00,40.3,28.8,30.19,North,354,0.0,0.0,63,0.00,,,0.00,VWS V14.01,2013-02-25 23:55:00,
2013-02-25 18:56:00,40.3,28.8,30.19,North,354,0.0,0.0,63,0.00,,,0.00,VWS V14.01,2013-02-25 23:56:00,
2013-02-25 18:57:00,40.3,28.8,30.19,North,354,0.0,0.0,63,0.00,,,0.00,VWS V14.01,2013-02-25 23:57:00,
2013-02-25 18:58:00,40.3,28.8,30.19,North,354,0.0,0.0,63,0.00,,---,0.00,VWS V14.01,2013-02-25 23:58:00,
2013-02-25 18:59:00,40.3,28.8,30.19,North,354,0.0,0.0,63,0.00,,,0.00,VWS V14.01,2013-02-25 23:59:00,
2013-02-25 19:00:00,40.3,28.8,30.19,North,354,0.0,0.0,63,0.00,,,0.00,VWS V14.01,2013-02-26 00:00:00,
2013-02-25 19:01:00,40.3,28.7,30.19,North,354,0.0,0.0,63,0.00,,,0.00,VWS V14.01,2013-02-26 00:01:00,
2013-02-25 19:02:00,40.3,28.9,30.19,North,354,0.0,0.0,63,0.00,,,0.00,VWS V14.01,2013-02-26 00:02:00,
2013-02-25 19:03:00,40.3,28.9,30.19,North,354,0.0,0.0,63,0.00,,---,0.00,VWS V14.01,2013-02-26 00:03:00,
2013-02-25 19:04:00,40.3,28.9,30.19,North,354,0.0,0.0,64,0.00,,,0.00,VWS V14.01,2013-02-26 00:04:00,
2013-02-25 19:05:00,40.3,28.9,30.19,North,354,0.0,0.0,63,0.00,,,0.00,VWS V14.01,2013-02-26 00:05:00,
2013-02-25 19:06:00,40.3,28.9,30.19,North,354,0.0,0.0,63,0.00,,,0.00,VWS V14.01,2013-02-26 00:06:00,
2013-02-25 19:07:00,40.3,28.9,30.19,North,354,0.0,0.0,63,0.00,,,0.00,VWS V14.01,2013-02-26 00:07:00,
2013-02-25 19:08:00,40.2,28.7,30.19,North,354,0.0,0.0,63,0.00,,---,0.00,VWS V14.01,2013-02-26 00:08:00,
2013-02-25 19:09:00,40.2,28.7,30.19,North,354,0.0,0.0,63,0.00,,,0.00,VWS V14.01,2013-02-26 00:09:00,
2013-02-25 19:10:00,40.2,28.7,30.19,North,354,0.0,0.0,63,0.00,,,0.00,VWS V14.01,2013-02-26 00:10:00,
2013-02-25 19:11:00,40.2,28.8,30.19,North,354,0.0,0.0,63,0.00,,,0.00,VWS V14.01,2013-02-26 00:11:00,
2013-02-25 19:12:00,40.2,28.9,30.19,North,354,0.0,0.0,64,0.00,,,0.00,VWS V14.01,2013-02-26 00:12:00,
2013-02-25 19:13:00,40.2,28.9,30.19,North,354,0.0,0.0,64,0.00,,---,0.00,VWS V14.01,2013-02-26 00:13:00,
2013-02-25 19:14:00,40.2,28.9,30.19,North,354,0.0,0.0,64,0.00,,,0.00,VWS V14.01,2013-02-26 00:14:00,
2013-02-25 19:15:00,40.2,28.9,30.19,North,354,0.0,0.0,64,0.00,,,0.00,VWS V14.01,2013-02-26 00:15:00,
2013-02-25 19:16:00,40.2,28.8,30.19,North,354,0.0,0.0,64,0.00,,,0.00,VWS V14.01,2013-02-26 00:16:00,
2013-02-25 19:17:00,40.2,28.8,30.19,North,354,0.0,0.0,63,0.00,,,0.00,VWS V14.01,2013-02-26 00:17:00,
2013-02-25 19:18:00,40.2,28.9,30.19,North,354,0.0,0.0,64,0.00,,---,0.00,VWS V14.01,2013-02-26 00:18:00,
2013-02-25 19:19:00,40.2,28.9,30.19,North,354,0.0,0.0,64,0.00,,,0.00,VWS V14.01,2013-02-26 00:19:00,
2013-02-25 19:20:00,40.2,28.9,30.19,North,354,0.0,0.0,64,0.00,,,0.00,VWS V14.01,2013-02-26 00:20:00,
2013-02-25 19:21:00,40.2,29.0,30.19,North,354,0.0,0.0,64,0.00,,,0.00,VWS V14.01,2013-02-26 00:21:00,
2013-02-25 19:22:00,40.2,29.0,30.19,North,354,0.0,0.0,64,0.00,,,0.00,VWS V14.01,2013-02-26 00:22:00,
2013-02-25 19:23:00,40.2,29.0,30.19,North,354,0.0,0.0,64,0.00,,---,0.00,VWS V14.01,2013-02-26 00:23:00,
2013-02-25 19:24:00,40.2,29.0,30.19,North,354,0.0,0.0,64,0.00,,,0.00,VWS V14.01,2013-02-26 00:24:00,
2013-02-25 19:25:00,40.2,29.0,30.19,North,354,0.0,0.0,64,0.00,,,0.00,VWS V14.01,2013-02-26 00:25:00,
2013-02-25 19:26:00,40.2,29.0,30.19,North,354,0.0,0.0,64,0.00,,,0.00,VWS V14.01,2013-02-26 00:26:00,
2013-02-25 19:27:00,40.2,29.0,30.19,North,354,0.0,0.0,64,0.00,,,0.00,VWS V14.01,2013-02-26 00:27:00,
2013-02-25 19:28:00,40.3,29.1,30.19,North,354,0.0,0.0,64,0.00,,---,0.00,VWS V14.01,2013-02-26 00:28:00,
2013-02-25 19:29:00,40.3,29.2,30.19,North,354,0.0,0.0,64,0.00,,,0.00,VWS V14.01,2013-02-26 00:29:00,
2013-02-25 19:30:00,40.3,29.1,30.19,North,354,0.0,0.0,64,0.00,,,0.00,VWS V14.01,2013-02-26 00:30:00,
2013-02-25 19:31:00,40.3,28.8,30.19,North,354,0.0,0.0,63,0.00,,,0.00,VWS V14.01,2013-02-26 00:31:00,
2013-02-25 19:32:00,40.3,28.8,30.20,North,354,0.0,0.0,63,0.00,,,0.00,VWS V14.01,2013-02-26 00:32:00,
2013-02-25 19:33:00,40.3,29.0,30.20,North,354,0.0,0.0,64,0.00,,---,0.00,VWS V14.01,2013-02-26 00:33:00,
2013-02-25 19:34:00,40.3,29.0,30.20,North,354,0.0,0.0,64,0.00,,,0.00,VWS V14.01,2013-02-26 00:34:00,
2013-02-25 19:35:00,40.3,29.0,30.20,North,354,0.0,0.0,64,0.00,,,0.00,VWS V14.01,2013-02-26 00:35:00,
2013-02-25 19:36:00,40.4,29.2,30.20,North,354,0.0,0.0,64,0.00,,,0.00,VWS V14.01,2013-02-26 00:36:00,
2013-02-25 19:37:00,40.4,29.1,30.20,North,354,0.0,0.0,64,0.00,,,0.00,VWS V14.01,2013-02-26 00:37:00,
2013-02-25 19:38:00,40.5,29.4,30.20,North,354,0.0,0.0,64,0.00,,---,0.00,VWS V14.01,2013-02-26 00:38:00,
2013-02-25 19:39:00,40.4,29.2,30.20,North,354,0.0,0.0,64,0.00,,,0.00,VWS V14.01,2013-02-26 00:39:00,
2013-02-25 19:40:00,40.5,29.4,30.20,North,354,0.0,0.0,64,0.00,,,0.00,VWS V14.01,2013-02-26 00:40:00,
2013-02-25 19:41:00,40.5,29.4,30.20,North,354,0.0,0.0,64,0.00,,,0.00,VWS V14.01,2013-02-26 00:41:00,
2013-02-25 19:42:00,40.5,29.3,30.20,North,354,0.0,0.0,64,0.00,,,0.00,VWS V14.01,2013-02-26 00:42:00,
2013-02-25 19:43:00,40.5,29.3,30.20,North,354,0.0,0.0,64,0.00,,---,0.00,VWS V14.01,2013-02-26 00:43:00,
2013-02-25 19:44:00,40.5,29.3,30.20,North,354,0.0,0.0,64,0.00,,,0.00,VWS V14.01,2013-02-26 00:44:00,
2013-02-25 19:45:00,40.5,29.3,30.20,North,354,0.0,0.0,64,0.00,,,0.00,VWS V14.01,2013-02-26 00:45:00,
2013-02-25 19:46:00,40.5,29.3,30.20,North,354,0.0,0.0,64,0.00,,,0.00,VWS V14.01,2013-02-26 00:46:00,
2013-02-25 19:47:00,40.6,29.4,30.20,North,354,0.0,0.0,64,0.00,,,0.00,VWS V14.01,2013-02-26 00:47:00,
2013-02-25 19:48:00,40.6,29.4,30.20,North,354,0.0,0.0,64,0.00,,---,0.00,VWS V14.01,2013-02-26 00:48:00,
2013-02-25 19:49:00,40.6,29.4,30.20,North,354,0.0,0.0,64,0.00,,,0.00,VWS V14.01,2013-02-26 00:49:00,
2013-02-25 19:50:00,40.6,29.4,30.20,North,354,0.0,0.0,64,0.00,,,0.00,VWS V14.01,2013-02-26 00:50:00,
2013-02-25 19:51:00,40.6,29.5,30.20,North,354,0.0,0.0,64,0.00,,,0.00,VWS V14.01,2013-02-26 00:51:00,
2013-02-25 19:52:00,40.6,29.5,30.20,North,354,0.0,0.0,64,0.00,,,0.00,VWS V14.01,2013-02-26 00:52:00,
2013-02-25 19:53:00,40.6,29.5,30.20,North,354,0.0,0.0,64,0.00,,---,0.00,VWS V14.01,2013-02-26 00:53:00,
2013-02-25 19:54:00,40.7,29.5,30.20,North,354,0.0,0.0,64,0.00,,,0.00,VWS V14.01,2013-02-26 00:54:00,
2013-02-25 19:55:00,40.6,29.5,30.20,North,354,0.0,0.0,64,0.00,,,0.00,VWS V14.01,2013-02-26 00:55:00,
2013-02-25 19:56:00,40.6,29.5,30.20,North,354,0.0,0.0,64,0.00,,,0.00,VWS V14.01,2013-02-26 00:56:00,
2013-02-25 19:57:00,40.7,29.6,30.20,North,354,0.0,0.0,64,0.00,,,0.00,VWS V14.01,2013-02-26 00:57:00,
2013-02-25 19:58:00,40.6,29.5,30.20,North,354,0.0,0.0,64,0.00,,---,0.00,VWS V14.01,2013-02-26 00:58:00,
2013-02-25 19:59:00,40.6,29.5,30.20,North,354,0.0,0.0,64,0.00,,,0.00,VWS V14.01,2013-02-26 00:59:00,
2013-02-25 20:00:00,40.6,29.5,30.20,North,354,0.0,0.0,64,0.00,,,0.00,VWS V14.01,2013-02-26 01:00:00,
2013-02-25 20:01:00,40.6,29.5,30.20,North,354,0.0,0.0,64,0.00,,,0.00,VWS V14.01,2013-02-26 01:01:00,
2013-02-25 20:02:00,40.6,29.5,30.20,North,354,0.0,0.0,64,0.00,,,0.00,VWS V14.01,2013-02-26 01:02:00,
2013-02-25 20:03:00,40.6,29.4,30.20,North,354,0.0,0.0,64,0.00,,---,0.00,VWS V14.01,2013-02-26 01:03:00,
2013-02-25 20:04:00,40.6,29.4,30.20,North,354,0.0,0.0,64,0.00,,,0.00,VWS V14.01,2013-02-26 01:04:00,
2013-02-25 20:05:00,40.6,29.4,30.20,North,354,0.0,0.0,64,0.00,,,0.00,VWS V14.01,2013-02-26 01:05:00,
2013-02-25 20:06:00,40.6,29.5,30.20,North,354,0.0,0.0,64,0.00,,,0.00,VWS V14.01,2013-02-26 01:06:00,
2013-02-25 20:07:00,40.6,29.5,30.20,North,354,0.0,0.0,64,0.00,,,0.00,VWS V14.01,2013-02-26 01:07:00,
2013-02-25 20:08:00,40.6,29.4,30.20,North,354,0.0,0.0,64,0.00,,---,0.00,VWS V14.01,2013-02-26 01:08:00,
2013-02-25 20:09:00,40.6,29.4,30.20,North,354,0.0,0.0,64,0.00,,,0.00,VWS V14.01,2013-02-26 01:09:00,
2013-02-25 20:10:00,40.6,29.4,30.20,North,354,0.0,0.0,64,0.00,,,0.00,VWS V14.01,2013-02-26 01:10:00,
2013-02-25 20:11:00,40.6,29.4,30.20,North,354,0.0,0.0,64,0.00,,,0.00,VWS V14.01,2013-02-26 01:11:00,
2013-02-25 20:12:00,40.6,29.5,30.20,North,354,0.0,0.0,64,0.00,,,0.00,VWS V14.01,2013-02-26 01:12:00,
2013-02-25 20:13:00,40.6,29.5,30.21,North,354,0.0,0.0,64,0.00,,---,0.00,VWS V14.01,2013-02-26 01:13:00,
2013-02-25 20:14:00,40.6,29.5,30.20,North,354,0.0,0.0,64,0.00,,,0.00,VWS V14.01,2013-02-26 01:14:00,
2013-02-25 20:15:00,40.6,29.5,30.21,North,354,0.0,0.0,64,0.00,,,0.00,VWS V14.01,2013-02-26 01:15:00,
2013-02-25 20:16:00,40.6,29.5,30.21,North,354,0.0,0.0,64,0.00,,,0.00,VWS V14.01,2013-02-26 01:16:00,
2013-02-25 20:17:00,40.6,29.5,30.20,North,354,0.0,0.0,64,0.00,,,0.00,VWS V14.01,2013-02-26 01:17:00,
2013-02-25 20:18:00,40.6,29.5,30.20,North,354,0.0,0.0,64,0.00,,---,0.00,VWS V14.01,2013-02-26 01:18:00,
2013-02-25 20:19:00,40.6,29.5,30.20,North,354,0.0,0.0,64,0.00,,,0.00,VWS V14.01,2013-02-26 01:19:00,
2013-02-25 20:20:00,40.6,29.5,30.20,North,354,0.0,0.0,64,0.00,,,0.00,VWS V14.01,2013-02-26 01:20:00,
2013-02-25 20:21:00,40.6,29.5,30.21,North,354,0.0,0.0,64,0.00,,,0.00,VWS V14.01,2013-02-26 01:21:00,
2013-02-25 20:22:00,40.6,29.4,30.21,North,354,0.0,0.0,64,0.00,,,0.00,VWS V14.01,2013-02-26 01:22:00,
2013-02-25 20:23:00,40.6,29.4,30.21,North,354,0.0,0.0,64,0.00,,---,0.00,VWS V14.01,2013-02-26 01:23:00,
2013-02-25 20:24:00,40.6,29.5,30.20,North,354,0.0,0.0,64,0.00,,,0.00,VWS V14.01,2013-02-26 01:24:00,
2013-02-25 20:25:00,40.6,29.4,30.21,North,354,0.0,0.0,64,0.00,,,0.00,VWS V14.01,2013-02-26 01:25:00,
2013-02-25 20:26:00,40.6,29.5,30.21,North,354,0.0,0.0,64,0.00,,,0.00,VWS V14.01,2013-02-26 01:26:00,
2013-02-25 20:27:00,40.6,29.5,30.20,North,354,0.0,0.0,64,0.00,,,0.00,VWS V14.01,2013-02-26 01:27:00,
2013-02-25 20:28:00,40.6,29.5,30.21,North,354,0.0,0.0,64,0.00,,---,0.00,VWS V14.01,2013-02-26 01:28:00,
2013-02-25 20:29:00,40.6,29.6,30.20,North,354,0.0,0.0,65,0.00,,,0.00,VWS V14.01,2013-02-26 01:29:00,
2013-02-25 20:30:00,40.6,29.5,30.21,North,354,0.0,0.0,64,0.00,,,0.00,VWS V14.01,2013-02-26 01:30:00,
2013-02-25 20:31:00,40.6,29.5,30.21,North,354,0.0,0.0,64,0.00,,,0.00,VWS V14.01,2013-02-26 01:31:00,
2013-02-25 20:32:00,40.6,29.5,30.21,North,354,0.0,0.0,64,0.00,,,0.00,VWS V14.01,2013-02-26 01:32:00,
2013-02-25 20:33:00,40.6,29.7,30.20,North,354,0.0,0.0,65,0.00,,---,0.00,VWS V14.01,2013-02-26 01:33:00,
2013-02-25 20:34:00,40.6,29.7,30.21,North,354,0.0,0.0,65,0.00,,,0.00,VWS V14.01,2013-02-26 01:34:00,
2013-02-25 20:35:00,40.6,29.7,30.20,North,354,0.0,0.0,65,0.00,,,0.00,VWS V14.01,2013-02-26 01:35:00,
2013-02-25 20:36:00,40.6,29.7,30.20,North,354,0.0,0.0,65,0.00,,,0.00,VWS V14.01,2013-02-26 01:36:00,
2013-02-25 20:37:00,40.6,29.7,30.20,North,354,0.0,0.0,65,0.00,,,0.00,VWS V14.01,2013-02-26 01:37:00,
2013-02-25 20:38:00,40.6,29.7,30.20,North,354,0.0,0.0,65,0.00,,---,0.00,VWS V14.01,2013-02-26 01:38:00,
2013-02-25 20:39:00,40.6,29.7,30.20,North,354,0.0,0.0,65,0.00,,,0.00,VWS V14.01,2013-02-26 01:39:00,
2013-02-25 20:40:00,40.6,29.7,30.20,North,354,0.0,0.0,65,0.00,,,0.00,VWS V14.01,2013-02-26 01:40:00,
2013-02-25 20:41:00,40.6,29.7,30.20,North,354,0.0,0.0,65,0.00,,,0.00,VWS V14.01,2013-02-26 01:41:00,
2013-02-25 20:42:00,40.6,29.7,30.20,North,354,0.0,0.0,65,0.00,,,0.00,VWS V14.01,2013-02-26 01:42:00,
2013-02-25 20:43:00,40.6,29.8,30.20,North,354,0.0,0.0,65,0.00,,---,0.00,VWS V14.01,2013-02-26 01:43:00,
2013-02-25 20:44:00,40.6,29.8,30.20,North,354,0.0,0.0,65,0.00,,,0.00,VWS V14.01,2013-02-26 01:44:00,
2013-02-25 20:45:00,40.6,29.8,30.20,North,354,0.0,0.0,65,0.00,,,0.00,VWS V14.01,2013-02-26 01:45:00,
2013-02-25 20:46:00,40.6,29.9,30.20,North,354,0.0,0.0,65,0.00,,,0.00,VWS V14.01,2013-02-26 01:46:00,
2013-02-25 20:47:00,40.6,29.9,30.20,North,354,0.0,0.0,65,0.00,,,0.00,VWS V14.01,2013-02-26 01:47:00,
2013-02-25 20:48:00,40.6,29.9,30.20,North,354,0.0,0.0,65,0.00,,---,0.00,VWS V14.01,2013-02-26 01:48:00,
2013-02-25 20:49:00,40.6,29.9,30.20,North,354,0.0,0.0,65,0.00,,,0.00,VWS V14.01,2013-02-26 01:49:00,
2013-02-25 20:50:00,40.6,29.9,30.20,North,354,0.0,0.0,65,0.00,,,0.00,VWS V14.01,2013-02-26 01:50:00,
2013-02-25 20:51:00,40.7,30.0,30.20,North,354,0.0,0.0,65,0.00,,,0.00,VWS V14.01,2013-02-26 01:51:00,
2013-02-25 20:52:00,40.7,30.0,30.20,North,354,0.0,0.0,65,0.00,,,0.00,VWS V14.01,2013-02-26 01:52:00,
2013-02-25 20:53:00,40.6,30.0,30.21,North,354,0.0,0.0,66,0.00,,---,0.00,VWS V14.01,2013-02-26 01:53:00,
2013-02-25 20:54:00,40.7,30.1,30.20,North,354,0.0,0.0,66,0.00,,,0.00,VWS V14.01,2013-02-26 01:54:00,
2013-02-25 20:55:00,40.6,30.0,30.21,North,354,0.0,0.0,66,0.00,,,0.00,VWS V14.01,2013-02-26 01:55:00,
2013-02-25 20:56:00,40.6,30.1,30.21,North,354,0.0,0.0,66,0.00,,,0.00,VWS V14.01,2013-02-26 01:56:00,
2013-02-25 20:57:00,40.6,30.1,30.21,North,354,0.0,0.0,66,0.00,,,0.00,VWS V14.01,2013-02-26 01:57:00,
2013-02-25 20:58:00,40.6,30.1,30.21,North,354,0.0,0.0,66,0.00,,---,0.00,VWS V14.01,2013-02-26 01:58:00,
2013-02-25 20:59:00,40.6,30.1,30.21,North,354,0.0,0.0,66,0.00,,,0.00,VWS V14.01,2013-02-26 01:59:00,
2013-02-25 21:00:00,40.6,30.1,30.21,North,354,0.0,0.0,66,0.00,,,0.00,VWS V14.01,2013-02-26 02:00:00,
2013-02-25 21:01:00,40.6,30.1,30.21,North,354,0.0,0.0,66,0.00,,,0.00,VWS V14.01,2013-02-26 02:01:00,
2013-02-25 21:02:00,40.6,30.2,30.21,North,354,0.0,0.0,66,0.00,,,0.00,VWS V14.01,2013-02-26 02:02:00,
2013-02-25 21:03:00,40.6,30.1,30.21,North,354,0.0,0.0,66,0.00,,---,0.00,VWS V14.01,2013-02-26 02:03:00,
2013-02-25 21:04:00,40.6,30.1,30.21,North,354,0.0,0.0,66,0.00,,,0.00,VWS V14.01,2013-02-26 02:04:00,
2013-02-25 21:05:00,40.6,30.1,30.21,North,354,0.0,0.0,66,0.00,,,0.00,VWS V14.01,2013-02-26 02:05:00,
2013-02-25 21:06:00,40.6,30.1,30.21,North,354,0.0,0.0,66,0.00,,,0.00,VWS V14.01,2013-02-26 02:06:00,
2013-02-25 21:07:00,40.6,30.2,30.21,North,354,0.0,0.0,66,0.00,,,0.00,VWS V14.01,2013-02-26 02:07:00,
2013-02-25 21:08:00,40.5,30.2,30.21,North,354,0.0,0.0,66,0.00,,---,0.00,VWS V14.01,2013-02-26 02:08:00,
2013-02-25 21:09:00,40.5,30.2,30.21,North,354,0.0,0.0,66,0.00,,,0.00,VWS V14.01,2013-02-26 02:09:00,
2013-02-25 21:10:00,40.5,30.2,30.21,North,354,0.0,0.0,66,0.00,,,0.00,VWS V14.01,2013-02-26 02:10:00,
2013-02-25 21:11:00,40.5,30.2,30.21,North,354,0.0,0.0,66,0.00,,,0.00,VWS V14.01,2013-02-26 02:11:00,
2013-02-25 21:12:00,40.5,30.2,30.21,North,354,0.0,0.0,66,0.00,,,0.00,VWS V14.01,2013-02-26 02:12:00,
2013-02-25 21:13:00,40.5,30.2,30.21,North,354,0.0,0.0,66,0.00,,---,0.00,VWS V14.01,2013-02-26 02:13:00,
2013-02-25 21:14:00,40.5,30.2,30.21,North,354,0.0,0.0,66,0.00,,,0.00,VWS V14.01,2013-02-26 02:14:00,
2013-02-25 21:15:00,40.5,30.2,30.21,North,354,0.0,0.0,66,0.00,,,0.00,VWS V14.01,2013-02-26 02:15:00,
2013-02-25 21:16:00,40.5,30.2,30.21,North,354,0.0,0.0,66,0.00,,,0.00,VWS V14.01,2013-02-26 02:16:00,
2013-02-25 21:17:00,40.5,30.2,30.21,North,354,0.0,0.0,66,0.00,,,0.00,VWS V14.01,2013-02-26 02:17:00,
2013-02-25 21:18:00,40.5,30.3,30.21,North,354,0.0,0.0,67,0.00,,---,0.00,VWS V14.01,2013-02-26 02:18:00,
2013-02-25 21:19:00,40.5,30.2,30.21,North,354,0.0,0.0,66,0.00,,,0.00,VWS V14.01,2013-02-26 02:19:00,
2013-02-25 21:20:00,40.5,30.3,30.21,North,354,0.0,0.0,67,0.00,,,0.00,VWS V14.01,2013-02-26 02:20:00,
2013-02-25 21:21:00,40.5,30.2,30.21,North,354,0.0,0.0,66,0.00,,,0.00,VWS V14.01,2013-02-26 02:21:00,
2013-02-25 21:22:00,40.5,30.1,30.21,North,354,0.0,0.0,66,0.00,,,0.00,VWS V14.01,2013-02-26 02:22:00,
2013-02-25 21:23:00,40.5,30.2,30.21,North,354,0.0,0.0,66,0.00,,---,0.00,VWS V14.01,2013-02-26 02:23:00,
2013-02-25 21:24:00,40.5,30.1,30.21,North,354,0.0,0.0,66,0.00,,,0.00,VWS V14.01,2013-02-26 02:24:00,
2013-02-25 21:25:00,40.5,30.2,30.21,North,354,0.0,0.0,66,0.00,,,0.00,VWS V14.01,2013-02-26 02:25:00,
2013-02-25 21:26:00,40.5,30.2,30.21,North,354,0.0,0.0,66,0.00,,,0.00,VWS V14.01,2013-02-26 02:26:00,
2013-02-25 21:27:00,40.5,30.2,30.21,North,354,0.0,0.0,66,0.00,,,0.00,VWS V14.01,2013-02-26 02:27:00,
2013-02-25 21:28:00,40.4,30.2,30.21,North,354,0.0,0.0,67,0.00,,---,0.00,VWS V14.01,2013-02-26 02:28:00,
2013-02-25 21:29:00,40.5,30.4,30.21,North,354,0.0,0.0,67,0.00,,,0.00,VWS V14.01,2013-02-26 02:29:00,
2013-02-25 21:30:00,40.4,30.2,30.21,North,354,0.0,0.0,67,0.00,,,0.00,VWS V14.01,2013-02-26 02:30:00,
2013-02-25 21:31:00,40.5,30.3,30.21,North,354,0.0,0.0,67,0.00,,,0.00,VWS V14.01,2013-02-26 02:31:00,
2013-02-25 21:32:00,40.5,30.4,30.21,North,354,0.0,0.0,67,0.00,,,0.00,VWS V14.01,2013-02-26 02:32:00,
2013-02-25 21:33:00,40.4,30.3,30.21,North,354,0.0,0.0,67,0.00,,---,0.00,VWS V14.01,2013-02-26 02:33:00,
2013-02-25 21:34:00,40.4,30.2,30.21,North,354,0.0,0.0,67,0.00,,,0.00,VWS V14.01,2013-02-26 02:34:00,
2013-02-25 21:35:00,40.4,30.3,30.21,North,354,0.0,0.0,67,0.00,,,0.00,VWS V14.01,2013-02-26 02:35:00,
2013-02-25 21:36:00,40.4,30.3,30.21,North,354,0.0,0.0,67,0.00,,,0.00,VWS V14.01,2013-02-26 02:36:00,
2013-02-25 21:37:00,40.3,30.3,30.21,North,354,0.0,0.0,67,0.00,,,0.00,VWS V14.01,2013-02-26 02:37:00,
2013-02-25 21:38:00,40.2,30.4,30.21,North,354,0.0,0.0,68,0.00,,---,0.00,VWS V14.01,2013-02-26 02:38:00,
2013-02-25 21:39:00,40.2,30.3,30.21,North,354,0.0,0.0,67,0.00,,,0.00,VWS V14.01,2013-02-26 02:39:00,
2013-02-25 21:40:00,40.2,30.4,30.21,North,354,0.0,0.0,68,0.00,,,0.00,VWS V14.01,2013-02-26 02:40:00,
2013-02-25 21:41:00,40.1,30.4,30.21,North,354,0.0,0.0,68,0.00,,,0.00,VWS V14.01,2013-02-26 02:41:00,
2013-02-25 21:42:00,40.1,30.5,30.21,North,354,0.0,0.0,68,0.00,,,0.00,VWS V14.01,2013-02-26 02:42:00,
2013-02-25 21:43:00,39.9,30.6,30.22,North,354,0.0,0.0,69,0.00,,---,0.00,VWS V14.01,2013-02-26 02:43:00,
2013-02-25 21:44:00,39.9,30.6,30.22,North,354,0.0,0.0,69,0.00,,,0.00,VWS V14.01,2013-02-26 02:44:00,
2013-02-25 21:45:00,39.9,30.6,30.22,North,354,0.0,0.0,69,0.00,,,0.00,VWS V14.01,2013-02-26 02:45:00,
2013-02-25 21:46:00,39.8,30.5,30.22,North,354,0.0,0.0,69,0.00,,,0.00,VWS V14.01,2013-02-26 02:46:00,
2013-02-25 21:47:00,39.8,30.6,30.22,North,354,0.0,0.0,69,0.00,,,0.00,VWS V14.01,2013-02-26 02:47:00,
2013-02-25 21:48:00,39.6,30.7,30.22,North,354,0.0,0.0,70,0.00,,---,0.00,VWS V14.01,2013-02-26 02:48:00,
2013-02-25 21:49:00,39.7,30.8,30.21,North,354,0.0,0.0,70,0.00,,,0.00,VWS V14.01,2013-02-26 02:49:00,
2013-02-25 21:50:00,39.6,30.7,30.22,North,354,0.0,0.0,70,0.00,,,0.00,VWS V14.01,2013-02-26 02:50:00,
2013-02-25 21:51:00,39.6,30.8,30.22,North,354,0.0,0.0,70,0.00,,,0.00,VWS V14.01,2013-02-26 02:51:00,
2013-02-25 21:52:00,39.6,30.9,30.22,North,354,0.0,0.0,71,0.00,,,0.00,VWS V14.01,2013-02-26 02:52:00,
2013-02-25 21:53:00,39.5,31.0,30.22,North,354,0.0,0.0,71,0.00,,---,0.00,VWS V14.01,2013-02-26 02:53:00,
2013-02-25 21:54:00,39.5,30.9,30.22,North,354,0.0,0.0,71,0.00,,,0.00,VWS V14.01,2013-02-26 02:54:00,
2013-02-25 21:55:00,39.5,31.0,30.22,North,354,0.0,0.0,71,0.00,,,0.00,VWS V14.01,2013-02-26 02:55:00,
2013-02-25 21:56:00,39.5,31.0,30.22,North,354,0.0,0.0,71,0.00,,,0.00,VWS V14.01,2013-02-26 02:56:00,
2013-02-25 21:57:00,39.5,31.0,30.22,North,354,0.0,0.0,71,0.00,,,0.00,VWS V14.01,2013-02-26 02:57:00,
2013-02-25 21:58:00,39.4,30.6,30.22,North,354,0.0,0.0,70,0.00,,---,0.00,VWS V14.01,2013-02-26 02:58:00,
2013-02-25 21:59:00,39.4,30.7,30.22,North,354,0.0,0.0,71,0.00,,,0.00,VWS V14.01,2013-02-26 02:59:00,
2013-02-25 22:00:00,39.4,30.6,30.22,North,354,0.0,0.0,70,0.00,,,0.00,VWS V14.01,2013-02-26 03:00:00,
2013-02-25 22:01:00,39.4,30.6,30.22,North,354,0.0,0.0,70,0.00,,,0.00,VWS V14.01,2013-02-26 03:01:00,
2013-02-25 22:02:00,39.4,30.6,30.22,North,354,0.0,0.0,70,0.00,,,0.00,VWS V14.01,2013-02-26 03:02:00,
2013-02-25 22:03:00,39.4,30.3,30.23,North,354,0.0,0.0,70,0.00,,---,0.00,VWS V14.01,2013-02-26 03:03:00,
2013-02-25 22:04:00,39.4,30.4,30.22,North,354,0.0,0.0,70,0.00,,,0.00,VWS V14.01,2013-02-26 03:04:00,
2013-02-25 22:05:00,39.4,30.3,30.23,North,354,0.0,0.0,70,0.00,,,0.00,VWS V14.01,2013-02-26 03:05:00,
2013-02-25 22:06:00,39.4,30.2,30.23,North,354,0.0,0.0,69,0.00,,,0.00,VWS V14.01,2013-02-26 03:06:00,
2013-02-25 22:07:00,39.4,30.2,30.23,North,354,0.0,0.0,69,0.00,,,0.00,VWS V14.01,2013-02-26 03:07:00,
2013-02-25 22:08:00,39.4,30.1,30.23,North,354,0.0,0.0,69,0.00,,---,0.00,VWS V14.01,2013-02-26 03:08:00,
2013-02-25 22:09:00,39.4,30.1,30.23,North,354,0.0,0.0,69,0.00,,,0.00,VWS V14.01,2013-02-26 03:09:00,
2013-02-25 22:10:00,39.4,30.1,30.23,North,354,0.0,0.0,69,0.00,,,0.00,VWS V14.01,2013-02-26 03:10:00,
2013-02-25 22:11:00,39.4,30.1,30.23,North,354,0.0,0.0,69,0.00,,,0.00,VWS V14.01,2013-02-26 03:11:00,
2013-02-25 22:12:00,39.4,30.1,30.23,North,354,0.0,0.0,69,0.00,,,0.00,VWS V14.01,2013-02-26 03:12:00,
2013-02-25 22:13:00,39.3,30.0,30.23,North,354,0.0,0.0,69,0.00,,---,0.00,VWS V14.01,2013-02-26 03:13:00,
2013-02-25 22:14:00,39.4,30.1,30.22,North,354,0.0,0.0,69,0.00,,,0.00,VWS V14.01,2013-02-26 03:14:00,
2013-02-25 22:15:00,39.3,30.0,30.23,North,354,0.0,0.0,69,0.00,,,0.00,VWS V14.01,2013-02-26 03:15:00,
2013-02-25 22:16:00,39.3,30.0,30.23,North,354,0.0,0.0,69,0.00,,,0.00,VWS V14.01,2013-02-26 03:16:00,
2013-02-25 22:17:00,39.3,30.0,30.23,North,354,0.0,0.0,69,0.00,,,0.00,VWS V14.01,2013-02-26 03:17:00,
2013-02-25 22:18:00,39.3,30.0,30.23,North,354,0.0,0.0,69,0.00,,---,0.00,VWS V14.01,2013-02-26 03:18:00,
2013-02-25 22:19:00,39.3,30.0,30.23,North,354,0.0,0.0,69,0.00,,,0.00,VWS V14.01,2013-02-26 03:19:00,
2013-02-25 22:20:00,39.3,30.0,30.23,North,354,0.0,0.0,69,0.00,,,0.00,VWS V14.01,2013-02-26 03:20:00,
2013-02-25 22:21:00,39.3,30.0,30.23,North,354,0.0,0.0,69,0.00,,,0.00,VWS V14.01,2013-02-26 03:21:00,
2013-02-25 22:22:00,39.3,30.1,30.23,North,354,0.0,0.0,69,0.00,,,0.00,VWS V14.01,2013-02-26 03:22:00,
2013-02-25 22:23:00,39.3,30.1,30.23,North,354,0.0,0.0,69,0.00,,---,0.00,VWS V14.01,2013-02-26 03:23:00,
2013-02-25 22:24:00,39.4,30.2,30.23,North,354,0.0,0.0,69,0.00,,,0.00,VWS V14.01,2013-02-26 03:24:00,
2013-02-25 22:25:00,39.3,30.1,30.23,North,354,0.0,0.0,69,0.00,,,0.00,VWS V14.01,2013-02-26 03:25:00,
2013-02-25 22:26:00,39.4,30.2,30.23,North,354,0.0,0.0,69,0.00,,,0.00,VWS V14.01,2013-02-26 03:26:00,
2013-02-25 22:27:00,39.4,30.2,30.23,North,354,0.0,0.0,69,0.00,,,0.00,VWS V14.01,2013-02-26 03:27:00,
2013-02-25 22:28:00,39.4,30.1,30.23,North,354,0.0,0.0,69,0.00,,---,0.00,VWS V14.01,2013-02-26 03:28:00,
2013-02-25 22:29:00,39.4,30.1,30.23,North,354,0.0,0.0,69,0.00,,,0.00,VWS V14.01,2013-02-26 03:29:00,
2013-02-25 22:30:00,39.4,30.1,30.23,North,354,0.0,0.0,69,0.00,,,0.00,VWS V14.01,2013-02-26 03:30:00,
2013-02-25 22:31:00,39.5,30.1,30.23,North,354,0.0,0.0,69,0.00,,,0.00,VWS V14.01,2013-02-26 03:31:00,
2013-02-25 22:32:00,39.4,30.1,30.24,North,354,0.0,0.0,69,0.00,,,0.00,VWS V14.01,2013-02-26 03:32:00,
2013-02-25 22:33:00,39.4,30.1,30.23,North,354,0.0,0.0,69,0.00,,---,0.00,VWS V14.01,2013-02-26 03:33:00,
2013-02-25 22:34:00,39.4,30.1,30.24,North,354,0.0,0.0,69,0.00,,,0.00,VWS V14.01,2013-02-26 03:34:00,
2013-02-25 22:35:00,39.4,30.1,30.23,North,354,0.0,0.0,69,0.00,,,0.00,VWS V14.01,2013-02-26 03:35:00,
2013-02-25 22:36:00,39.4,30.1,30.23,North,354,0.0,0.0,69,0.00,,,0.00,VWS V14.01,2013-02-26 03:36:00,
2013-02-25 22:37:00,39.4,30.1,30.23,North,354,0.0,0.0,69,0.00,,,0.00,VWS V14.01,2013-02-26 03:37:00,
2013-02-25 22:38:00,39.4,30.1,30.23,North,354,0.0,0.0,69,0.00,,---,0.00,VWS V14.01,2013-02-26 03:38:00,
2013-02-25 22:39:00,39.4,30.2,30.23,North,354,0.0,0.0,69,0.00,,,0.00,VWS V14.01,2013-02-26 03:39:00,
2013-02-25 22:40:00,39.4,30.1,30.23,North,354,0.0,0.0,69,0.00,,,0.00,VWS V14.01,2013-02-26 03:40:00,
2013-02-25 22:41:00,39.4,30.1,30.23,North,354,0.0,0.0,69,0.00,,,0.00,VWS V14.01,2013-02-26 03:41:00,
2013-02-25 22:42:00,39.3,30.0,30.23,North,354,0.0,0.0,69,0.00,,,0.00,VWS V14.01,2013-02-26 03:42:00,
2013-02-25 22:43:00,39.4,30.1,30.23,North,354,0.0,0.0,69,0.00,,---,0.00,VWS V14.01,2013-02-26 03:43:00,
2013-02-25 22:44:00,39.3,30.0,30.23,North,354,0.0,0.0,69,0.00,,,0.00,VWS V14.01,2013-02-26 03:44:00,
2013-02-25 22:45:00,39.4,30.1,30.23,North,354,0.0,0.0,69,0.00,,,0.00,VWS V14.01,2013-02-26 03:45:00,
2013-02-25 22:46:00,39.3,30.0,30.23,North,354,0.0,0.0,69,0.00,,,0.00,VWS V14.01,2013-02-26 03:46:00,
2013-02-25 22:47:00,39.3,30.0,30.23,North,354,0.0,0.0,69,0.00,,,0.00,VWS V14.01,2013-02-26 03:47:00,
2013-02-25 22:48:00,39.3,30.1,30.22,North,354,0.0,0.0,69,0.00,,---,0.00,VWS V14.01,2013-02-26 03:48:00,
2013-02-25 22:49:00,39.4,30.2,30.23,North,354,0.0,0.0,69,0.00,,,0.00,VWS V14.01,2013-02-26 03:49:00,
2013-02-25 22:50:00,39.3,30.1,30.22,North,354,0.0,0.0,69,0.00,,,0.00,VWS V14.01,2013-02-26 03:50:00,
2013-02-25 22:51:00,39.4,30.2,30.22,North,354,0.0,0.0,69,0.00,,,0.00,VWS V14.01,2013-02-26 03:51:00,
2013-02-25 22:52:00,39.4,30.2,30.22,North,354,0.0,0.0,69,0.00,,,0.00,VWS V14.01,2013-02-26 03:52:00,
2013-02-25 22:53:00,39.4,30.2,30.23,North,354,0.0,0.0,69,0.00,,---,0.00,VWS V14.01,2013-02-26 03:53:00,
2013-02-25 22:54:00,39.3,30.0,30.23,North,354,0.0,0.0,69,0.00,,,0.00,VWS V14.01,2013-02-26 03:54:00,
2013-02-25 22:55:00,39.4,30.2,30.23,North,354,0.0,0.0,69,0.00,,,0.00,VWS V14.01,2013-02-26 03:55:00,
2013-02-25 22:56:00,39.4,30.2,30.23,North,354,0.0,0.0,69,0.00,,,0.00,VWS V14.01,2013-02-26 03:56:00,
2013-02-25 22:57:00,39.3,30.1,30.23,North,354,0.0,0.0,69,0.00,,,0.00,VWS V14.01,2013-02-26 03:57:00,
2013-02-25 22:58:00,39.3,30.0,30.22,North,354,0.0,0.0,69,0.00,,---,0.00,VWS V14.01,2013-02-26 03:58:00,
2013-02-25 22:59:00,39.3,30.0,30.23,North,354,0.0,0.0,69,0.00,,,0.00,VWS V14.01,2013-02-26 03:59:00,
2013-02-25 23:00:00,39.3,30.0,30.22,North,354,0.0,0.0,69,0.00,,,0.00,VWS V14.01,2013-02-26 04:00:00,
2013-02-25 23:01:00,39.4,30.1,30.22,North,354,0.0,0.0,69,0.00,,,0.00,VWS V14.01,2013-02-26 04:01:00,
2013-02-25 23:02:00,39.4,30.1,30.22,North,354,0.0,0.0,69,0.00,,,0.00,VWS V14.01,2013-02-26 04:02:00,
2013-02-25 23:03:00,39.4,30.1,30.22,North,354,0.0,0.0,69,0.00,,---,0.00,VWS V14.01,2013-02-26 04:03:00,
2013-02-25 23:04:00,39.4,30.2,30.22,North,354,0.0,0.0,69,0.00,,,0.00,VWS V14.01,2013-02-26 04:04:00,
2013-02-25 23:05:00,39.4,30.1,30.22,North,354,0.0,0.0,69,0.00,,,0.00,VWS V14.01,2013-02-26 04:05:00,
2013-02-25 23:06:00,39.4,30.1,30.22,North,354,0.0,0.0,69,0.00,,,0.00,VWS V14.01,2013-02-26 04:06:00,
2013-02-25 23:07:00,39.4,30.1,30.22,North,354,0.0,0.0,69,0.00,,,0.00,VWS V14.01,2013-02-26 04:07:00,
2013-02-25 23:08:00,39.4,30.1,30.22,North,354,0.0,0.0,69,0.00,,---,0.00,VWS V14.01,2013-02-26 04:08:00,
2013-02-25 23:09:00,39.4,30.1,30.22,North,354,0.0,0.0,69,0.00,,,0.00,VWS V14.01,2013-02-26 04:09:00,
2013-02-25 23:10:00,39.4,30.1,30.22,North,354,0.0,0.0,69,0.00,,,0.00,VWS V14.01,2013-02-26 04:10:00,
2013-02-25 23:11:00,39.4,30.1,30.22,North,354,0.0,0.0,69,0.00,,,0.00,VWS V14.01,2013-02-26 04:11:00,
2013-02-25 23:12:00,39.4,30.1,30.22,North,354,0.0,0.0,69,0.00,,,0.00,VWS V14.01,2013-02-26 04:12:00,
2013-02-25 23:13:00,39.3,29.9,30.22,North,354,0.0,0.0,69,0.00,,---,0.00,VWS V14.01,2013-02-26 04:13:00,
2013-02-25 23:14:00,39.3,30.0,30.22,North,354,0.0,0.0,69,0.00,,,0.00,VWS V14.01,2013-02-26 04:14:00,
2013-02-25 23:15:00,39.3,29.9,30.22,North,354,0.0,0.0,69,0.00,,,0.00,VWS V14.01,2013-02-26 04:15:00,
2013-02-25 23:16:00,39.3,29.9,30.22,North,354,0.0,0.0,69,0.00,,,0.00,VWS V14.01,2013-02-26 04:16:00,
2013-02-25 23:17:00,39.3,29.9,30.22,North,354,0.0,0.0,69,0.00,,,0.00,VWS V14.01,2013-02-26 04:17:00,
2013-02-25 23:18:00,39.2,29.7,30.22,North,354,0.0,0.0,68,0.00,,---,0.00,VWS V14.01,2013-02-26 04:18:00,
2013-02-25 23:19:00,39.2,29.8,30.22,North,354,0.0,0.0,69,0.00,,,0.00,VWS V14.01,2013-02-26 04:19:00,
2013-02-25 23:20:00,39.2,29.7,30.22,North,354,0.0,0.0,68,0.00,,,0.00,VWS V14.01,2013-02-26 04:20:00,
2013-02-25 23:21:00,39.2,29.7,30.23,North,354,0.0,0.0,68,0.00,,,0.00,VWS V14.01,2013-02-26 04:21:00,
2013-02-25 23:22:00,39.2,29.7,30.23,North,354,0.0,0.0,68,0.00,,,0.00,VWS V14.01,2013-02-26 04:22:00,
2013-02-25 23:23:00,39.1,29.7,30.22,North,354,0.0,0.0,69,0.00,,---,0.00,VWS V14.01,2013-02-26 04:23:00,
2013-02-25 23:24:00,39.1,29.6,30.23,North,354,0.0,0.0,68,0.00,,,0.00,VWS V14.01,2013-02-26 04:24:00,
2013-02-25 23:25:00,39.1,29.7,30.22,North,354,0.0,0.0,69,0.00,,,0.00,VWS V14.01,2013-02-26 04:25:00,
2013-02-25 23:26:00,39.1,29.7,30.22,North,354,0.0,0.0,69,0.00,,,0.00,VWS V14.01,2013-02-26 04:26:00,
2013-02-25 23:27:00,39.1,29.7,30.22,North,354,0.0,0.0,69,0.00,,,0.00,VWS V14.01,2013-02-26 04:27:00,
2013-02-25 23:28:00,39.1,29.7,30.22,North,354,0.0,0.0,69,0.00,,---,0.00,VWS V14.01,2013-02-26 04:28:00,
2013-02-25 23:29:00,39.1,29.7,30.22,North,354,0.0,0.0,69,0.00,,,0.00,VWS V14.01,2013-02-26 04:29:00,
2013-02-25 23:30:00,39.1,29.7,30.22,North,354,0.0,0.0,69,0.00,,,0.00,VWS V14.01,2013-02-26 04:30:00,
2013-02-25 23:31:00,39.1,29.7,30.23,North,354,0.0,0.0,69,0.00,,,0.00,VWS V14.01,2013-02-26 04:31:00,
2013-02-25 23:32:00,39.1,29.7,30.23,North,354,0.0,0.0,69,0.00,,,0.00,VWS V14.01,2013-02-26 04:32:00,
2013-02-25 23:33:00,39.0,29.5,30.23,North,354,0.0,0.0,68,0.00,,---,0.00,VWS V14.01,2013-02-26 04:33:00,
2013-02-25 23:34:00,39.1,29.6,30.23,North,354,0.0,0.0,68,0.00,,,0.00,VWS V14.01,2013-02-26 04:34:00,
2013-02-25 23:35:00,39.0,29.5,30.23,North,354,0.0,0.0,68,0.00,,,0.00,VWS V14.01,2013-02-26 04:35:00,
2013-02-25 23:36:00,39.0,29.5,30.23,North,354,0.0,0.0,68,0.00,,,0.00,VWS V14.01,2013-02-26 04:36:00,
2013-02-25 23:37:00,39.1,29.6,30.23,North,354,0.0,0.0,68,0.00,,,0.00,VWS V14.01,2013-02-26 04:37:00,
2013-02-25 23:38:00,39.0,29.6,30.22,North,354,0.0,0.0,69,0.00,,---,0.00,VWS V14.01,2013-02-26 04:38:00,
2013-02-25 23:39:00,39.0,29.6,30.22,North,354,0.0,0.0,69,0.00,,,0.00,VWS V14.01,2013-02-26 04:39:00,
2013-02-25 23:40:00,39.0,29.6,30.22,North,354,0.0,0.0,69,0.00,,,0.00,VWS V14.01,2013-02-26 04:40:00,
2013-02-25 23:41:00,39.0,29.7,30.22,North,354,0.0,0.0,69,0.00,,,0.00,VWS V14.01,2013-02-26 04:41:00,
2013-02-25 23:42:00,39.0,29.7,30.22,North,354,0.0,0.0,69,0.00,,,0.00,VWS V14.01,2013-02-26 04:42:00,
2013-02-25 23:43:00,38.9,29.5,30.22,North,354,0.0,0.0,69,0.00,,---,0.00,VWS V14.01,2013-02-26 04:43:00,
2013-02-25 23:44:00,38.9,29.5,30.22,North,354,0.0,0.0,69,0.00,,,0.00,VWS V14.01,2013-02-26 04:44:00,
2013-02-25 23:45:00,38.9,29.5,30.22,North,354,0.0,0.0,69,0.00,,,0.00,VWS V14.01,2013-02-26 04:45:00,
2013-02-25 23:46:00,38.9,29.5,30.22,North,354,0.0,0.0,69,0.00,,,0.00,VWS V14.01,2013-02-26 04:46:00,
2013-02-25 23:47:00,38.9,29.5,30.22,North,354,0.0,0.0,69,0.00,,,0.00,VWS V14.01,2013-02-26 04:47:00,
2013-02-25 23:48:00,38.8,29.3,30.22,North,354,0.0,0.0,68,0.00,,---,0.00,VWS V14.01,2013-02-26 04:48:00,
2013-02-25 23:49:00,38.9,29.4,30.22,North,354,0.0,0.0,68,0.00,,,0.00,VWS V14.01,2013-02-26 04:49:00,
2013-02-25 23:50:00,38.8,29.3,30.22,North,354,0.0,0.0,68,0.00,,,0.00,VWS V14.01,2013-02-26 04:50:00,
2013-02-25 23:51:00,38.8,29.3,30.22,North,354,0.0,0.0,68,0.00,,,0.00,VWS V14.01,2013-02-26 04:51:00,
2013-02-25 23:52:00,38.8,29.3,30.22,North,354,0.0,0.0,68,0.00,,,0.00,VWS V14.01,2013-02-26 04:52:00,
2013-02-25 23:53:00,38.7,29.4,30.21,North,354,0.0,0.0,69,0.00,,---,0.00,VWS V14.01,2013-02-26 04:53:00,
2013-02-25 23:54:00,38.8,29.4,30.21,North,354,0.0,0.0,69,0.00,,,0.00,VWS V14.01,2013-02-26 04:54:00,
2013-02-25 23:55:00,38.7,29.4,30.21,North,354,0.0,0.0,69,0.00,,,0.00,VWS V14.01,2013-02-26 04:55:00,
2013-02-25 23:56:00,38.7,29.4,30.21,North,354,0.0,0.0,69,0.00,,,0.00,VWS V14.01,2013-02-26 04:56:00,
2013-02-25 23:57:00,38.7,29.4,30.21,North,354,0.0,0.0,69,0.00,,,0.00,VWS V14.01,2013-02-26 04:57:00,
2013-02-25 23:58:00,38.6,29.3,30.21,North,354,0.0,0.0,69,0.00,,,0.00,VWS V14.01,2013-02-26 04:58:00,
2013-02-25 23:59:00,38.6,29.4,30.21,North,354,0.0,0.0,69,0.00,,,0.00,VWS V14.01,2013-02-26 04:59:00,